Darstellungsparameter: Aktuell verwendete Einstellungen:
Skalierung der Graphiken ... ?
xyx+y,   Skalierungsfaktor:      Skalierung: Modus: x, Faktor: 1
Darstellungszeitraum ... ?
Vom - - bis: - -   Zeitraum: 24.08.2008 - 23.11.2008
Min/Max/Avg-Anzeige ... ?
Zeige MMA aktuell
Zeige MMA Monat
Zeige MMA alles
Zeige --A aktuell
Zeige --A Monat
Zeige --A alles
Keine MMA-Anzeige
MMA:
Average (ber die Originaldaten)
MMA-Basis: 17.04.2019 - 19.05.2019
Quicknavigation für Darstellung... ?
Tage:      1T, 2T, 3T, 5T -1T -2T -3T -5T +1T +2T +3T +5T
Wochen: 1W, 2W, 3W -1W -2W -3W +1W +2W +3W
Monate: 1M, 3M, 6M -1M -3M -6M +1M +3M +6M
Jahre:    1J, 3J, 5J, 10J -1J -3J -5J -10J +1J +3J +5J +10J
Nutze für die Darstellung ... ?
Originaldaten oder Mittelwerte auf ...
Stundenbasis Tagesbasis Wochenbasis
Monatsbasis Jahresbasis      Datenbasis: Original-Daten
Darstellen als:
Statistik (Auto) Statistik J:M      Darstellung:
Zur Graphik,    zurück zur Übersicht aller Sensoren.
 
Tabellarische Datenbersicht: ?
 
Sensor: Nr:Datum:Temp:Abs-Feuchte:Windchill:Wind:
Aussen-T/F 1 24-08-2008 00:06:02 13.9 C 9.11 g/m*3 13.9 C 0 km/h
2 24-08-2008 00:18:02 13.8 C 9.17 g/m*3 13.8 C 0 km/h
3 24-08-2008 00:30:02 13.6 C 9.06 g/m*3 13.6 C 0 km/h
4 24-08-2008 00:42:02 13.6 C 9.06 g/m*3 13.6 C 0 km/h
5 24-08-2008 00:54:02 13.5 C 9.01 g/m*3 13.5 C 0 km/h
6 24-08-2008 01:06:02 13.5 C 9.01 g/m*3 13.5 C 0 km/h
7 24-08-2008 01:18:02 13.4 C 8.95 g/m*3 13.4 C 0 km/h
8 24-08-2008 01:30:02 13.5 C 8.89 g/m*3 13.5 C 0 km/h
9 24-08-2008 01:42:02 13.2 C 8.84 g/m*3 13.2 C 0 km/h
10 24-08-2008 01:54:02 12.9 C 8.9 g/m*3 12.9 C 0 km/h
11 24-08-2008 02:06:02 13 C 8.96 g/m*3 13 C 0 km/h
12 24-08-2008 02:18:02 13.1 C 8.9 g/m*3 13.1 C 0 km/h
13 24-08-2008 02:30:02 12.8 C 8.85 g/m*3 12.8 C 0 km/h
14 24-08-2008 02:42:02 12.6 C 8.96 g/m*3 12.6 C 0 km/h
15 24-08-2008 02:54:02 12.5 C 8.91 g/m*3 12.5 C 0 km/h
16 24-08-2008 03:06:02 12.3 C 8.9 g/m*3 12.3 C 0 km/h
17 24-08-2008 03:18:02 12.4 C 8.96 g/m*3 12.4 C 0 km/h
18 24-08-2008 03:30:02 12.5 C 8.91 g/m*3 12.5 C 0 km/h
19 24-08-2008 03:42:03 12.4 C 8.85 g/m*3 12.4 C 0 km/h
20 24-08-2008 03:54:03 12.1 C 8.9 g/m*3 12.1 C 0 km/h
21 24-08-2008 04:06:03 12.1 C 8.79 g/m*3 12.1 C 0 km/h
22 24-08-2008 04:18:03 12 C 8.85 g/m*3 12 C 0 km/h
23 24-08-2008 04:30:03 12 C 8.85 g/m*3 12 C 0 km/h
24 24-08-2008 04:42:03 11.8 C 8.84 g/m*3 11.8 C 0 km/h
25 24-08-2008 04:54:03 11.7 C 8.79 g/m*3 11.7 C 0 km/h
Sensor: Nr:Datum:Temp:Abs-Feuchte:Windchill:Wind:
Aussen-T/F 26 24-08-2008 05:06:03 11.4 C 8.72 g/m*3 11.4 C 0 km/h
27 24-08-2008 05:18:03 11.2 C 8.72 g/m*3 11.2 C 0 km/h
28 24-08-2008 05:30:03 11.2 C 8.82 g/m*3 11.2 C 0 km/h
29 24-08-2008 05:42:03 11.1 C 8.76 g/m*3 11.1 C 0 km/h
30 24-08-2008 05:54:03 11.2 C 8.82 g/m*3 11.2 C 0 km/h
31 24-08-2008 06:06:03 11.2 C 8.82 g/m*3 11.2 C 0 km/h
32 24-08-2008 06:18:03 11.5 C 8.99 g/m*3 11.5 C 0 km/h
33 24-08-2008 06:30:03 11.7 C 8.99 g/m*3 11.7 C 0 km/h
34 24-08-2008 06:42:03 11.8 C 8.95 g/m*3 11.8 C 0 km/h
35 24-08-2008 06:54:03 11.7 C 8.89 g/m*3 11.7 C 0 km/h
36 24-08-2008 07:06:03 11.8 C 8.95 g/m*3 11.8 C 0 km/h
37 24-08-2008 07:18:03 11.8 C 8.95 g/m*3 11.8 C 0 km/h
38 24-08-2008 07:30:03 11.6 C 8.83 g/m*3 11.6 C 0 km/h
39 24-08-2008 07:42:04 11.6 C 8.83 g/m*3 11.6 C 0 km/h
40 24-08-2008 07:54:04 11.7 C 8.89 g/m*3 11.7 C 0 km/h
41 24-08-2008 08:06:04 11.6 C 8.94 g/m*3 11.6 C 0 km/h
42 24-08-2008 08:18:04 11.8 C 9.05 g/m*3 11.8 C 0 km/h
43 24-08-2008 08:30:04 11.9 C 9 g/m*3 11.9 C 0 km/h
44 24-08-2008 08:42:04 12.1 C 9.01 g/m*3 12.1 C 0 km/h
45 24-08-2008 08:54:04 12.3 C 9.12 g/m*3 12.3 C 0 km/h
46 24-08-2008 09:06:02 12.5 C 9.24 g/m*3 12.5 C 0 km/h
47 24-08-2008 09:18:02 12.8 C 9.3 g/m*3 12.8 C 0 km/h
48 24-08-2008 09:30:02 13.5 C 9.36 g/m*3 13.5 C 0 km/h
49 24-08-2008 09:42:02 14 C 9.17 g/m*3 14 C 0 km/h
50 24-08-2008 09:54:02 14.2 C 9.28 g/m*3 14.2 C 0 km/h
Sensor: Nr:Datum:Temp:Abs-Feuchte:Windchill:Wind:
Aussen-T/F 51 24-08-2008 10:06:02 15.2 C 9.48 g/m*3 15.2 C 0 km/h
52 24-08-2008 10:18:02 15.5 C 9.25 g/m*3 15.5 C 0 km/h
53 24-08-2008 10:30:03 15.8 C 9.29 g/m*3 15.8 C 0 km/h
54 24-08-2008 10:42:02 16.2 C 8.96 g/m*3 16.2 C 0 km/h
55 24-08-2008 10:54:02 16.4 C 8.93 g/m*3 16.4 C 0 km/h
56 24-08-2008 11:06:02 16.6 C 8.9 g/m*3 16.6 C 0 km/h
57 24-08-2008 11:18:02 17 C 8.68 g/m*3 17 C 0 km/h
58 24-08-2008 11:30:02 17.4 C 8.6 g/m*3 17.4 C 0 km/h
59 24-08-2008 11:42:02 18.4 C 8.34 g/m*3 18.4 C 0 km/h
60 24-08-2008 11:54:02 19.1 C 7.7 g/m*3 19.1 C 0 km/h
61 24-08-2008 12:06:02 19.1 C 7.38 g/m*3 19.1 C 0 km/h
62 24-08-2008 12:18:02 19.2 C 7.59 g/m*3 19.2 C 0 km/h
63 24-08-2008 12:30:02 19.7 C 7.47 g/m*3 19.7 C 0 km/h
64 24-08-2008 12:42:02 19.5 C 6.88 g/m*3 19.5 C 0 km/h
65 24-08-2008 12:54:02 19.6 C 6.92 g/m*3 19.6 C 0 km/h
66 24-08-2008 13:06:02 19.6 C 6.75 g/m*3 19.6 C 0 km/h
67 24-08-2008 13:18:01 20.5 C 6.94 g/m*3 20.5 C 0 km/h
68 24-08-2008 13:30:01 21.1 C 6.82 g/m*3 21.1 C 0 km/h
69 24-08-2008 13:42:02 21.6 C 6.45 g/m*3 21.6 C 0 km/h
70 24-08-2008 13:54:02 21.9 C 6.56 g/m*3 21.9 C 0 km/h
71 24-08-2008 14:06:03 21.3 C 6.34 g/m*3 21.3 C 0 km/h
72 24-08-2008 14:18:02 21.5 C 6.22 g/m*3 21.5 C 0 km/h
73 24-08-2008 14:30:02 21.6 C 6.07 g/m*3 21.6 C 0 km/h
74 24-08-2008 14:42:03 22.5 C 5.99 g/m*3 22.5 C 0 km/h
75 24-08-2008 14:54:02 22 C 6.02 g/m*3 22 C 0 km/h
Sensor: Nr:Datum:Temp:Abs-Feuchte:Windchill:Wind:
Aussen-T/F 76 24-08-2008 15:06:01 22.1 C 6.05 g/m*3 22.1 C 0 km/h
77 24-08-2008 15:18:02 22.9 C 6.34 g/m*3 22.9 C 0 km/h
78 24-08-2008 15:30:03 22.9 C 6.13 g/m*3 22.9 C 0 km/h
79 24-08-2008 15:42:01 22.7 C 6.26 g/m*3 22.7 C 0 km/h
80 24-08-2008 15:54:02 22.4 C 5.96 g/m*3 22.4 C 0 km/h
81 24-08-2008 16:06:02 22.7 C 6.06 g/m*3 22.7 C 0 km/h
82 24-08-2008 16:18:02 22.7 C 6.26 g/m*3 22.7 C 0 km/h
83 24-08-2008 16:30:02 22.6 C 6.23 g/m*3 22.6 C 0 km/h
84 24-08-2008 16:42:02 22.4 C 6.16 g/m*3 22.4 C 0 km/h
85 24-08-2008 16:54:01 22.7 C 6.06 g/m*3 22.7 C 0 km/h
86 24-08-2008 17:06:02 22.5 C 5.99 g/m*3 22.5 C 0 km/h
87 24-08-2008 17:18:02 22.4 C 6.36 g/m*3 22.4 C 0 km/h
88 24-08-2008 17:30:02 23.5 C 5.71 g/m*3 23.5 C 0 km/h
89 24-08-2008 17:42:02 23.4 C 5.89 g/m*3 23.4 C 0 km/h
90 24-08-2008 17:54:01 22.1 C 6.25 g/m*3 22.1 C 0 km/h
91 24-08-2008 18:06:01 21.8 C 6.91 g/m*3 21.8 C 0 km/h
92 24-08-2008 18:18:02 21.9 C 6.95 g/m*3 21.9 C 0 km/h
93 24-08-2008 18:30:03 21.6 C 7.59 g/m*3 21.6 C 0 km/h
94 24-08-2008 18:42:01 21.2 C 7.41 g/m*3 21.2 C 0 km/h
95 24-08-2008 18:54:03 21.1 C 7 g/m*3 21.1 C 0 km/h
96 24-08-2008 19:06:02 21 C 7.33 g/m*3 21 C 0 km/h
97 24-08-2008 19:18:03 20.7 C 7.56 g/m*3 20.7 C 0 km/h
98 24-08-2008 19:30:03 20.3 C 7.74 g/m*3 20.3 C 0 km/h
99 24-08-2008 19:42:02 19.9 C 7.73 g/m*3 19.9 C 0 km/h
100 24-08-2008 19:54:01 19.5 C 7.89 g/m*3 19.5 C 0 km/h
Sensor: Nr:Datum:Temp:Abs-Feuchte:Windchill:Wind:
Aussen-T/F 101 24-08-2008 20:06:01 19 C 7.66 g/m*3 19 C 0 km/h
102 24-08-2008 20:18:01 18.8 C 7.89 g/m*3 18.8 C 0 km/h
103 24-08-2008 20:30:01 18.6 C 8.12 g/m*3 18.6 C 0 km/h
104 24-08-2008 20:42:01 18.3 C 8.13 g/m*3 18.3 C 0 km/h
105 24-08-2008 20:54:01 18.2 C 8.24 g/m*3 18.2 C 0 km/h
106 24-08-2008 21:06:02 17.9 C 8.24 g/m*3 17.9 C 0 km/h
107 24-08-2008 21:18:01 17.9 C 8.24 g/m*3 17.9 C 0 km/h
108 24-08-2008 21:30:01 17.9 C 8.4 g/m*3 17.9 C 0 km/h
109 24-08-2008 21:42:02 17.9 C 8.09 g/m*3 17.9 C 0 km/h
110 24-08-2008 21:55:03 17.9 C 8.24 g/m*3 17.9 C 0 km/h
111 24-08-2008 22:07:03 17.9 C 8.09 g/m*3 17.9 C 0 km/h
112 24-08-2008 22:19:03 17.8 C 8.2 g/m*3 17.8 C 0 km/h
113 24-08-2008 22:31:03 17.3 C 8.54 g/m*3 17.3 C 0 km/h
114 24-08-2008 22:43:03 16.4 C 9.07 g/m*3 16.4 C 0 km/h
115 24-08-2008 22:55:03 16.2 C 9.38 g/m*3 16.2 C 0 km/h
116 24-08-2008 23:07:03 15.9 C 9.89 g/m*3 15.9 C 0 km/h
117 24-08-2008 23:19:03 15.6 C 10.24 g/m*3 15.6 C 0 km/h
118 24-08-2008 23:31:03 15.4 C 10.38 g/m*3 15.4 C 0 km/h
119 24-08-2008 23:43:03 15 C 10.51 g/m*3 15 C 0 km/h
120 24-08-2008 23:55:03 14.6 C 10.64 g/m*3 14.6 C 0 km/h
121 25-08-2008 00:07:03 14.5 C 10.7 g/m*3 14.5 C 0 km/h
122 25-08-2008 00:19:03 14.4 C 10.88 g/m*3 14.4 C 0 km/h
123 25-08-2008 00:31:03 14.5 C 11.07 g/m*3 14.5 C 0 km/h
124 25-08-2008 00:43:03 14.5 C 11.07 g/m*3 14.5 C 0 km/h
125 25-08-2008 00:55:03 14.4 C 11.13 g/m*3 14.4 C 0 km/h
Sensor: Nr:Datum:Temp:Abs-Feuchte:Windchill:Wind:
Aussen-T/F 126 25-08-2008 01:07:03 14.5 C 11.19 g/m*3 14.5 C 0 km/h
127 25-08-2008 01:19:03 14.4 C 11.13 g/m*3 14.4 C 0 km/h
128 25-08-2008 01:31:04 14.4 C 11.13 g/m*3 14.4 C 0 km/h
129 25-08-2008 01:43:04 14.4 C 11.13 g/m*3 14.4 C 0 km/h
130 25-08-2008 01:55:04 14.5 C 11.19 g/m*3 14.5 C 0 km/h
131 25-08-2008 02:07:04 14.7 C 11.46 g/m*3 14.7 C 0 km/h
132 25-08-2008 02:19:04 14.7 C 11.33 g/m*3 14.7 C 0 km/h
133 25-08-2008 02:31:04 14.6 C 11.26 g/m*3 14.6 C 0 km/h
134 25-08-2008 02:43:04 14.7 C 11.33 g/m*3 14.7 C 0 km/h
135 25-08-2008 02:55:04 14.6 C 11.26 g/m*3 14.6 C 0 km/h
136 25-08-2008 03:07:04 14.5 C 11.19 g/m*3 14.5 C 0 km/h
137 25-08-2008 03:19:04 14.5 C 11.07 g/m*3 14.5 C 0 km/h
138 25-08-2008 03:31:04 14.4 C 11 g/m*3 14.4 C 0 km/h
139 25-08-2008 03:43:04 14.4 C 11 g/m*3 14.4 C 0 km/h
140 25-08-2008 03:55:04 14.4 C 11.13 g/m*3 14.4 C 0 km/h
141 25-08-2008 04:07:04 14.4 C 11.13 g/m*3 14.4 C 0 km/h
142 25-08-2008 04:19:04 14.3 C 10.93 g/m*3 14.3 C 0 km/h
143 25-08-2008 04:31:04 14.3 C 11.06 g/m*3 14.3 C 0 km/h
144 25-08-2008 04:43:04 14.3 C 11.06 g/m*3 14.3 C 0 km/h
145 25-08-2008 04:55:04 14.2 C 10.99 g/m*3 14.2 C 0 km/h
146 25-08-2008 05:07:04 14.2 C 10.99 g/m*3 14.2 C 0 km/h
147 25-08-2008 05:19:04 14.2 C 11.11 g/m*3 14.2 C 0 km/h
148 25-08-2008 05:31:05 14.2 C 11.11 g/m*3 14.2 C 0 km/h
149 25-08-2008 05:43:05 14.3 C 11.18 g/m*3 14.3 C 0 km/h
150 25-08-2008 05:55:05 14.2 C 11.11 g/m*3 14.2 C 0 km/h
Sensor: Nr:Datum:Temp:Abs-Feuchte:Windchill:Wind:
Aussen-T/F 151 25-08-2008 06:07:05 14.3 C 11.06 g/m*3 14.3 C 0 km/h
152 25-08-2008 06:19:05 14.4 C 11 g/m*3 14.4 C 0 km/h
153 25-08-2008 06:31:05 14.5 C 10.94 g/m*3 14.5 C 0 km/h
154 25-08-2008 06:43:05 14.6 C 10.89 g/m*3 14.6 C 0 km/h
155 25-08-2008 06:55:05 14.6 C 10.89 g/m*3 14.6 C 0 km/h
156 25-08-2008 07:07:05 14.7 C 10.95 g/m*3 14.7 C 0 km/h
157 25-08-2008 07:19:05 14.8 C 11.02 g/m*3 14.8 C 0 km/h
158 25-08-2008 07:31:03 14.7 C 11.08 g/m*3 14.7 C 0 km/h
159 25-08-2008 07:43:03 14.7 C 11.08 g/m*3 14.7 C 0 km/h
160 25-08-2008 07:55:02 14.7 C 11.08 g/m*3 14.7 C 0 km/h
161 25-08-2008 08:07:01 14.8 C 11.15 g/m*3 14.8 C 0 km/h
162 25-08-2008 08:19:01 14.8 C 11.15 g/m*3 14.8 C 0 km/h
163 25-08-2008 08:31:02 14.9 C 11.09 g/m*3 14.9 C 0 km/h
164 25-08-2008 08:43:02 15.1 C 11.22 g/m*3 15.1 C 0 km/h
165 25-08-2008 08:55:02 15.2 C 11.29 g/m*3 15.2 C 0 km/h
166 25-08-2008 09:07:02 15.5 C 11.5 g/m*3 15.5 C 0 km/h
167 25-08-2008 09:19:03 15.6 C 11.44 g/m*3 15.6 C 0 km/h
168 25-08-2008 09:31:02 15.6 C 11.57 g/m*3 15.6 C 0 km/h
169 25-08-2008 09:43:02 15.9 C 11.78 g/m*3 15.9 C 0 km/h
170 25-08-2008 09:55:02 16 C 11.58 g/m*3 16 C 0 km/h
171 25-08-2008 10:07:01 16.5 C 11.8 g/m*3 16.5 C 0 km/h
172 25-08-2008 10:19:02 16.8 C 11.87 g/m*3 16.8 C 0 km/h
173 25-08-2008 10:31:01 17 C 11.87 g/m*3 17 C 0 km/h
174 25-08-2008 10:43:01 17 C 11.58 g/m*3 17 C 0 km/h
175 25-08-2008 10:55:02 17.1 C 11.35 g/m*3 17.1 C 0 km/h
Sensor: Nr:Datum:Temp:Abs-Feuchte:Windchill:Wind:
Aussen-T/F 176 25-08-2008 11:07:01 17.2 C 11.42 g/m*3 17.2 C 0 km/h
177 25-08-2008 11:19:02 17.5 C 11.48 g/m*3 17.5 C 0 km/h
178 25-08-2008 11:31:01 17.7 C 11.47 g/m*3 17.7 C 0 km/h
179 25-08-2008 11:43:01 17.9 C 11.45 g/m*3 17.9 C 0 km/h
180 25-08-2008 11:55:02 18.7 C 11.37 g/m*3 18.7 C 0 km/h
181 25-08-2008 12:07:02 18.9 C 11.18 g/m*3 18.9 C 0 km/h
182 25-08-2008 12:19:02 19.5 C 10.74 g/m*3 19.5 C 0 km/h
183 25-08-2008 12:31:02 19.6 C 10.8 g/m*3 19.6 C 0 km/h
184 25-08-2008 12:43:02 20 C 10.71 g/m*3 20 C 0 km/h
185 25-08-2008 12:55:02 20.5 C 10.5 g/m*3 20.5 C 0 km/h
186 25-08-2008 13:07:03 20 C 10.37 g/m*3 20 C 0 km/h
187 25-08-2008 13:19:02 19.4 C 10.34 g/m*3 19.4 C 0 km/h
188 25-08-2008 13:31:03 20 C 10.54 g/m*3 20 C 0 km/h
189 25-08-2008 13:43:03 20.5 C 10.32 g/m*3 20.5 C 0 km/h
190 25-08-2008 13:55:02 19.7 C 10.36 g/m*3 19.7 C 0 km/h
191 25-08-2008 14:07:01 20 C 10.37 g/m*3 20 C 0 km/h
192 25-08-2008 14:19:02 20.5 C 10.32 g/m*3 20.5 C 0 km/h
193 25-08-2008 14:31:01 20.8 C 10.32 g/m*3 20.8 C 0 km/h
194 25-08-2008 14:43:01 20.9 C 10.2 g/m*3 20.9 C 0 km/h
195 25-08-2008 14:55:02 21.2 C 10.01 g/m*3 21.2 C 0 km/h
196 25-08-2008 15:07:01 20.4 C 10.26 g/m*3 20.4 C 0 km/h
197 25-08-2008 15:19:02 20.7 C 10.62 g/m*3 20.7 C 0 km/h
198 25-08-2008 15:31:01 21.4 C 10.31 g/m*3 21.4 C 0 km/h
199 25-08-2008 15:43:01 21.4 C 10.31 g/m*3 21.4 C 0 km/h
200 25-08-2008 15:55:02 22.2 C 9.82 g/m*3 22.2 C 0 km/h
Sensor: Nr:Datum:Temp:Abs-Feuchte:Windchill:Wind:
Aussen-T/F 201 25-08-2008 16:07:01 22.4 C 9.93 g/m*3 22.4 C 0 km/h
202 25-08-2008 16:19:02 22.4 C 10.13 g/m*3 22.4 C 0 km/h
203 25-08-2008 16:31:01 22.5 C 9.79 g/m*3 22.5 C 0 km/h
204 25-08-2008 16:43:01 22.4 C 10.13 g/m*3 22.4 C 0 km/h
205 25-08-2008 16:55:01 23.5 C 9.73 g/m*3 23.5 C 0 km/h
206 25-08-2008 17:07:02 23.8 C 9.9 g/m*3 23.8 C 0 km/h
207 25-08-2008 17:19:01 23.9 C 9.74 g/m*3 23.9 C 0 km/h
208 25-08-2008 17:31:02 23.8 C 9.68 g/m*3 23.8 C 0 km/h
209 25-08-2008 17:43:02 22.6 C 9.84 g/m*3 22.6 C 0 km/h
210 25-08-2008 17:55:02 21.9 C 10.03 g/m*3 21.9 C 0 km/h
211 25-08-2008 18:07:02 21.9 C 10.23 g/m*3 21.9 C 0 km/h
212 25-08-2008 18:19:02 21.4 C 10.12 g/m*3 21.4 C 0 km/h
213 25-08-2008 18:31:02 21 C 10.08 g/m*3 21 C 0 km/h
214 25-08-2008 18:43:02 21 C 10.62 g/m*3 21 C 0 km/h
215 25-08-2008 18:55:02 20.9 C 10.75 g/m*3 20.9 C 0 km/h
216 25-08-2008 19:07:03 20.9 C 10.75 g/m*3 20.9 C 0 km/h
217 25-08-2008 19:19:02 20.5 C 10.85 g/m*3 20.5 C 0 km/h
218 25-08-2008 19:31:03 20.3 C 10.9 g/m*3 20.3 C 0 km/h
219 25-08-2008 19:43:03 21 C 10.62 g/m*3 21 C 0 km/h
220 25-08-2008 19:55:02 20.9 C 9.29 g/m*3 20.9 C 0 km/h
221 25-08-2008 20:07:02 20 C 9.33 g/m*3 20 C 0 km/h
222 25-08-2008 20:19:02 19.3 C 9.79 g/m*3 19.3 C 0 km/h
223 25-08-2008 20:31:01 18.8 C 9.82 g/m*3 18.8 C 0 km/h
224 25-08-2008 20:43:01 18.3 C 9.85 g/m*3 18.3 C 0 km/h
225 25-08-2008 20:55:02 17.9 C 9.92 g/m*3 17.9 C 0 km/h
Sensor: Nr:Datum:Temp:Abs-Feuchte:Windchill:Wind:
Aussen-T/F 226 25-08-2008 21:07:02 17.6 C 10.05 g/m*3 17.6 C 0 km/h
227 25-08-2008 21:19:02 17.4 C 9.93 g/m*3 17.4 C 0 km/h
228 25-08-2008 21:31:01 17.2 C 9.96 g/m*3 17.2 C 0 km/h
229 25-08-2008 21:43:01 17 C 9.98 g/m*3 17 C 0 km/h
230 25-08-2008 21:56:02 17 C 9.98 g/m*3 17 C 0 km/h
231 25-08-2008 22:08:02 16.8 C 10.01 g/m*3 16.8 C 0 km/h
232 25-08-2008 22:20:02 16.6 C 9.89 g/m*3 16.6 C 0 km/h
233 25-08-2008 22:32:02 16.6 C 9.75 g/m*3 16.6 C 0 km/h
234 25-08-2008 22:44:02 16.3 C 9.71 g/m*3 16.3 C 0 km/h
235 25-08-2008 22:56:02 16.1 C 9.73 g/m*3 16.1 C 0 km/h
236 25-08-2008 23:08:02 15.8 C 9.83 g/m*3 15.8 C 0 km/h
237 25-08-2008 23:20:02 15.7 C 9.9 g/m*3 15.7 C 0 km/h
238 25-08-2008 23:32:02 15.5 C 9.91 g/m*3 15.5 C 0 km/h
239 25-08-2008 23:44:02 15.3 C 9.92 g/m*3 15.3 C 0 km/h
240 25-08-2008 23:56:02 15.1 C 10.06 g/m*3 15.1 C 0 km/h
241 26-08-2008 00:08:02 14.9 C 10.2 g/m*3 14.9 C 0 km/h
242 26-08-2008 00:20:02 14.7 C 10.2 g/m*3 14.7 C 0 km/h
243 26-08-2008 00:32:03 14.5 C 10.07 g/m*3 14.5 C 0 km/h
244 26-08-2008 00:44:03 14.4 C 10.14 g/m*3 14.4 C 0 km/h
245 26-08-2008 00:56:03 14.3 C 10.07 g/m*3 14.3 C 0 km/h
246 26-08-2008 01:08:03 14.2 C 10.01 g/m*3 14.2 C 0 km/h
247 26-08-2008 01:20:03 14.1 C 9.95 g/m*3 14.1 C 0 km/h
248 26-08-2008 01:32:03 13.9 C 9.95 g/m*3 13.9 C 0 km/h
249 26-08-2008 01:44:03 13.8 C 9.89 g/m*3 13.8 C 0 km/h
250 26-08-2008 01:56:03 13.7 C 9.83 g/m*3 13.7 C 0 km/h
Sensor: Nr:Datum:Temp:Abs-Feuchte:Windchill:Wind:
Aussen-T/F 251 26-08-2008 02:08:03 13.6 C 9.77 g/m*3 13.6 C 0 km/h
252 26-08-2008 02:20:03 13.8 C 10.01 g/m*3 13.8 C 0 km/h
253 26-08-2008 02:32:03 13.9 C 10.07 g/m*3 13.9 C 0 km/h
254 26-08-2008 02:44:03 14.1 C 10.07 g/m*3 14.1 C 0 km/h
255 26-08-2008 02:56:03 14.2 C 10.01 g/m*3 14.2 C 0 km/h
256 26-08-2008 03:08:03 14.2 C 10.01 g/m*3 14.2 C 0 km/h
257 26-08-2008 03:20:03 14.2 C 10.01 g/m*3 14.2 C 0 km/h
258 26-08-2008 03:32:03 14 C 9.77 g/m*3 14 C 0 km/h
259 26-08-2008 03:44:03 14 C 9.77 g/m*3 14 C 0 km/h
260 26-08-2008 03:56:03 14 C 9.77 g/m*3 14 C 0 km/h
261 26-08-2008 04:08:03 14.1 C 9.95 g/m*3 14.1 C 0 km/h
262 26-08-2008 04:20:03 14.1 C 9.83 g/m*3 14.1 C 0 km/h
263 26-08-2008 04:32:04 14.1 C 9.95 g/m*3 14.1 C 0 km/h
264 26-08-2008 04:44:04 14.3 C 10.07 g/m*3 14.3 C 0 km/h
265 26-08-2008 04:56:04 14.4 C 10.01 g/m*3 14.4 C 0 km/h
266 26-08-2008 05:08:04 14.5 C 10.07 g/m*3 14.5 C 0 km/h
267 26-08-2008 05:20:04 14.6 C 10.14 g/m*3 14.6 C 0 km/h
268 26-08-2008 05:32:04 14.6 C 10.01 g/m*3 14.6 C 0 km/h
269 26-08-2008 05:44:04 14.6 C 10.14 g/m*3 14.6 C 0 km/h
270 26-08-2008 05:56:04 14.7 C 9.95 g/m*3 14.7 C 0 km/h
271 26-08-2008 06:08:04 14.7 C 9.95 g/m*3 14.7 C 0 km/h
272 26-08-2008 06:20:04 14.7 C 9.82 g/m*3 14.7 C 0 km/h
273 26-08-2008 06:32:04 15 C 9.87 g/m*3 15 C 0 km/h
274 26-08-2008 06:44:04 14.7 C 9.82 g/m*3 14.7 C 0 km/h
275 26-08-2008 06:56:02 14.8 C 9.75 g/m*3 14.8 C 0 km/h
Sensor: Nr:Datum:Temp:Abs-Feuchte:Windchill:Wind:
Aussen-T/F 276 26-08-2008 07:08:02 14.9 C 9.81 g/m*3 14.9 C 0 km/h
277 26-08-2008 07:20:02 15 C 9.62 g/m*3 15 C 0 km/h
278 26-08-2008 07:32:02 15.2 C 9.73 g/m*3 15.2 C 0 km/h
279 26-08-2008 07:44:02 15.3 C 9.79 g/m*3 15.3 C 0 km/h
280 26-08-2008 07:56:01 15.4 C 9.72 g/m*3 15.4 C 0 km/h
281 26-08-2008 08:08:02 15.6 C 9.84 g/m*3 15.6 C 0 km/h
282 26-08-2008 08:20:01 15.6 C 9.71 g/m*3 15.6 C 0 km/h
283 26-08-2008 08:32:02 15.8 C 9.83 g/m*3 15.8 C 0 km/h
284 26-08-2008 08:44:02 15.9 C 9.75 g/m*3 15.9 C 0 km/h
285 26-08-2008 08:56:02 16.2 C 9.79 g/m*3 16.2 C 0 km/h
286 26-08-2008 09:08:02 16.4 C 9.77 g/m*3 16.4 C 0 km/h
287 26-08-2008 09:20:02 16.7 C 9.66 g/m*3 16.7 C 0 km/h
288 26-08-2008 09:32:01 16.8 C 9.72 g/m*3 16.8 C 0 km/h
289 26-08-2008 09:44:01 17 C 9.55 g/m*3 17 C 0 km/h
290 26-08-2008 09:56:01 17.2 C 9.52 g/m*3 17.2 C 0 km/h
291 26-08-2008 10:08:02 17.5 C 9.54 g/m*3 17.5 C 0 km/h
292 26-08-2008 10:20:02 17.7 C 9.66 g/m*3 17.7 C 0 km/h
293 26-08-2008 10:32:02 18.2 C 9.48 g/m*3 18.2 C 0 km/h
294 26-08-2008 10:44:02 18.6 C 9.39 g/m*3 18.6 C 0 km/h
295 26-08-2008 10:56:01 19.1 C 9.51 g/m*3 19.1 C 0 km/h
296 26-08-2008 11:08:02 19.7 C 9.51 g/m*3 19.7 C 0 km/h
297 26-08-2008 11:20:01 20.1 C 9.21 g/m*3 20.1 C 0 km/h
298 26-08-2008 11:32:02 20.6 C 9.31 g/m*3 20.6 C 0 km/h
299 26-08-2008 11:44:02 21 C 8.98 g/m*3 21 C 0 km/h
300 26-08-2008 11:56:02 21.4 C 9.19 g/m*3 21.4 C 0 km/h
Sensor: Nr:Datum:Temp:Abs-Feuchte:Windchill:Wind:
Aussen-T/F 301 26-08-2008 12:08:02 22.2 C 9.03 g/m*3 22.2 C 0 km/h
302 26-08-2008 12:20:02 22.5 C 8.79 g/m*3 22.5 C 0 km/h
303 26-08-2008 12:32:02 22.9 C 8.79 g/m*3 22.9 C 0 km/h
304 26-08-2008 12:44:02 22.9 C 8.79 g/m*3 22.9 C 0 km/h
305 26-08-2008 12:56:02 22.9 C 8.99 g/m*3 22.9 C 0 km/h
306 26-08-2008 13:08:02 22.7 C 9.09 g/m*3 22.7 C 0 km/h
307 26-08-2008 13:20:01 23.1 C 9.3 g/m*3 23.1 C 0 km/h
308 26-08-2008 13:32:02 23.6 C 9.15 g/m*3 23.6 C 0 km/h
309 26-08-2008 13:44:02 24.3 C 8.85 g/m*3 24.3 C 0 km/h
310 26-08-2008 13:56:02 23.9 C 9.09 g/m*3 23.9 C 0 km/h
311 26-08-2008 14:08:02 23.4 C 8.83 g/m*3 23.4 C 0 km/h
312 26-08-2008 14:20:02 23.8 C 8.82 g/m*3 23.8 C 0 km/h
313 26-08-2008 14:32:02 23.6 C 8.93 g/m*3 23.6 C 0 km/h
314 26-08-2008 14:44:02 23.6 C 9.15 g/m*3 23.6 C 0 km/h
315 26-08-2008 14:56:02 24.5 C 8.95 g/m*3 24.5 C 0 km/h
316 26-08-2008 15:08:02 24.8 C 8.88 g/m*3 24.8 C 0 km/h
317 26-08-2008 15:20:02 24.6 C 8.78 g/m*3 24.6 C 0 km/h
318 26-08-2008 15:32:02 24.9 C 8.93 g/m*3 24.9 C 0 km/h
319 26-08-2008 15:44:02 24.6 C 8.78 g/m*3 24.6 C 0 km/h
320 26-08-2008 15:56:02 25.2 C 8.61 g/m*3 25.2 C 0 km/h
321 26-08-2008 16:08:02 25.4 C 8.71 g/m*3 25.4 C 0 km/h
322 26-08-2008 16:20:02 25.9 C 8.72 g/m*3 25.9 C 0 km/h
323 26-08-2008 16:32:02 25.7 C 8.62 g/m*3 25.7 C 0 km/h
324 26-08-2008 16:44:02 26 C 8.76 g/m*3 26 C 0 km/h
325 26-08-2008 16:56:02 25.9 C 8.72 g/m*3 25.9 C 0 km/h
Sensor: Nr:Datum:Temp:Abs-Feuchte:Windchill:Wind:
Aussen-T/F 326 26-08-2008 17:08:02 26 C 8.28 g/m*3 26 C 0 km/h
327 26-08-2008 17:20:01 26.3 C 8.42 g/m*3 26.3 C 0 km/h
328 26-08-2008 17:32:02 25.8 C 8.67 g/m*3 25.8 C 0 km/h
329 26-08-2008 17:44:02 27.3 C 8.63 g/m*3 27.3 C 0 km/h
330 26-08-2008 17:56:02 26.4 C 8.46 g/m*3 26.4 C 0 km/h
331 26-08-2008 18:08:02 26.8 C 8.91 g/m*3 26.8 C 0 km/h
332 26-08-2008 18:20:02 25.8 C 8.91 g/m*3 25.8 C 0 km/h
333 26-08-2008 18:32:02 26 C 8.76 g/m*3 26 C 0 km/h
334 26-08-2008 18:44:02 25.7 C 8.86 g/m*3 25.7 C 0 km/h
335 26-08-2008 18:56:02 24.9 C 9.16 g/m*3 24.9 C 0 km/h
336 26-08-2008 19:08:02 24.6 C 9.23 g/m*3 24.6 C 0 km/h
337 26-08-2008 19:20:02 24.3 C 9.52 g/m*3 24.3 C 0 km/h
338 26-08-2008 19:32:02 23.8 C 9.68 g/m*3 23.8 C 0 km/h
339 26-08-2008 19:44:02 23.8 C 9.68 g/m*3 23.8 C 0 km/h
340 26-08-2008 19:56:03 23.7 C 9.63 g/m*3 23.7 C 0 km/h
341 26-08-2008 20:08:02 23.2 C 9.56 g/m*3 23.2 C 0 km/h
342 26-08-2008 20:20:02 22.6 C 9.84 g/m*3 22.6 C 0 km/h
343 26-08-2008 20:32:02 22 C 9.9 g/m*3 22 C 0 km/h
344 26-08-2008 20:44:02 21.4 C 10.31 g/m*3 21.4 C 0 km/h
345 26-08-2008 20:56:02 21 C 10.26 g/m*3 21 C 0 km/h
346 26-08-2008 21:08:02 20.8 C 10.32 g/m*3 20.8 C 0 km/h
347 26-08-2008 21:20:02 20.7 C 10.44 g/m*3 20.7 C 0 km/h
348 26-08-2008 21:32:02 20.6 C 10.56 g/m*3 20.6 C 0 km/h
349 26-08-2008 21:44:02 20.3 C 10.55 g/m*3 20.3 C 0 km/h
350 26-08-2008 21:57:03 19.9 C 10.65 g/m*3 19.9 C 0 km/h
Sensor: Nr:Datum:Temp:Abs-Feuchte:Windchill:Wind:
Aussen-T/F 351 26-08-2008 22:09:03 19.4 C 10.68 g/m*3 19.4 C 0 km/h
352 26-08-2008 22:21:03 18.9 C 11.02 g/m*3 18.9 C 0 km/h
353 26-08-2008 22:33:03 18.8 C 11.11 g/m*3 18.8 C 0 km/h
354 26-08-2008 22:45:03 18.6 C 11.14 g/m*3 18.6 C 0 km/h
355 26-08-2008 22:57:03 18.4 C 11.01 g/m*3 18.4 C 0 km/h
356 26-08-2008 23:09:03 18.2 C 11.04 g/m*3 18.2 C 0 km/h
357 26-08-2008 23:21:03 17.8 C 11.08 g/m*3 17.8 C 0 km/h
358 26-08-2008 23:33:03 17.7 C 11.16 g/m*3 17.7 C 0 km/h
359 26-08-2008 23:45:03 17.6 C 11.4 g/m*3 17.6 C 0 km/h
360 26-08-2008 23:57:03 17.4 C 11.26 g/m*3 17.4 C 0 km/h
361 27-08-2008 00:09:03 17.2 C 11.28 g/m*3 17.2 C 0 km/h
362 27-08-2008 00:21:03 17 C 11.29 g/m*3 17 C 0 km/h
363 27-08-2008 00:33:03 16.8 C 11.29 g/m*3 16.8 C 0 km/h
364 27-08-2008 00:45:03 16.5 C 11.23 g/m*3 16.5 C 0 km/h
365 27-08-2008 00:57:04 16.5 C 11.23 g/m*3 16.5 C 0 km/h
366 27-08-2008 01:09:04 16.2 C 11.17 g/m*3 16.2 C 0 km/h
367 27-08-2008 01:21:04 16.1 C 11.1 g/m*3 16.1 C 0 km/h
368 27-08-2008 01:33:04 16 C 11.17 g/m*3 16 C 0 km/h
369 27-08-2008 01:45:04 16.1 C 11.24 g/m*3 16.1 C 0 km/h
370 27-08-2008 01:57:04 15.9 C 11.24 g/m*3 15.9 C 0 km/h
371 27-08-2008 02:09:04 15.8 C 11.17 g/m*3 15.8 C 0 km/h
372 27-08-2008 02:21:04 15.6 C 11.04 g/m*3 15.6 C 0 km/h
373 27-08-2008 02:33:04 15.6 C 11.17 g/m*3 15.6 C 0 km/h
374 27-08-2008 02:45:04 15.7 C 11.24 g/m*3 15.7 C 0 km/h
375 27-08-2008 02:57:04 15.7 C 11.24 g/m*3 15.7 C 0 km/h
Sensor: Nr:Datum:Temp:Abs-Feuchte:Windchill:Wind:
Aussen-T/F 376 27-08-2008 03:09:04 15.8 C 11.17 g/m*3 15.8 C 0 km/h
377 27-08-2008 03:21:04 15.8 C 11.17 g/m*3 15.8 C 0 km/h
378 27-08-2008 03:33:04 15.8 C 11.17 g/m*3 15.8 C 0 km/h
379 27-08-2008 03:45:04 15.7 C 11.11 g/m*3 15.7 C 0 km/h
380 27-08-2008 03:57:04 15.6 C 11.04 g/m*3 15.6 C 0 km/h
381 27-08-2008 04:09:04 15.6 C 11.04 g/m*3 15.6 C 0 km/h
382 27-08-2008 04:21:04 15.5 C 10.97 g/m*3 15.5 C 0 km/h
383 27-08-2008 04:33:04 15.4 C 10.9 g/m*3 15.4 C 0 km/h
384 27-08-2008 04:45:04 15.3 C 10.84 g/m*3 15.3 C 0 km/h
385 27-08-2008 04:57:04 15 C 10.64 g/m*3 15 C 0 km/h
386 27-08-2008 05:09:05 14.7 C 10.7 g/m*3 14.7 C 0 km/h
387 27-08-2008 05:21:05 14.5 C 10.7 g/m*3 14.5 C 0 km/h
388 27-08-2008 05:33:05 14.3 C 10.57 g/m*3 14.3 C 0 km/h
389 27-08-2008 05:45:05 14.2 C 10.62 g/m*3 14.2 C 0 km/h
390 27-08-2008 05:57:05 14 C 10.49 g/m*3 14 C 0 km/h
391 27-08-2008 06:09:05 14 C 10.61 g/m*3 14 C 0 km/h
392 27-08-2008 06:21:05 14.2 C 10.87 g/m*3 14.2 C 0 km/h
393 27-08-2008 06:33:05 14.2 C 10.75 g/m*3 14.2 C 0 km/h
394 27-08-2008 06:45:05 14.2 C 10.75 g/m*3 14.2 C 0 km/h
395 27-08-2008 06:57:05 14.2 C 10.75 g/m*3 14.2 C 0 km/h
396 27-08-2008 07:09:02 14.2 C 10.75 g/m*3 14.2 C 0 km/h
397 27-08-2008 07:21:02 14.3 C 10.81 g/m*3 14.3 C 0 km/h
398 27-08-2008 07:33:02 14.4 C 10.88 g/m*3 14.4 C 0 km/h
399 27-08-2008 07:45:03 14.5 C 10.82 g/m*3 14.5 C 0 km/h
400 27-08-2008 07:57:03 14.7 C 10.83 g/m*3 14.7 C 0 km/h
Sensor: Nr:Datum:Temp:Abs-Feuchte:Windchill:Wind:
Aussen-T/F 401 27-08-2008 08:09:02 14.8 C 10.77 g/m*3 14.8 C 0 km/h
402 27-08-2008 08:21:03 14.8 C 10.64 g/m*3 14.8 C 0 km/h
403 27-08-2008 08:33:02 14.7 C 10.45 g/m*3 14.7 C 0 km/h
404 27-08-2008 08:45:02 15 C 10.64 g/m*3 15 C 0 km/h
405 27-08-2008 08:57:02 15.1 C 10.45 g/m*3 15.1 C 0 km/h
406 27-08-2008 09:09:02 15.5 C 10.71 g/m*3 15.5 C 0 km/h
407 27-08-2008 09:21:03 15.8 C 10.63 g/m*3 15.8 C 0 km/h
408 27-08-2008 09:33:03 16.3 C 10.82 g/m*3 16.3 C 0 km/h
409 27-08-2008 09:45:02 16.8 C 10.87 g/m*3 16.8 C 0 km/h
410 27-08-2008 09:57:02 17.1 C 10.63 g/m*3 17.1 C 0 km/h
411 27-08-2008 10:09:01 17.3 C 10.75 g/m*3 17.3 C 0 km/h
412 27-08-2008 10:21:02 17.7 C 10.86 g/m*3 17.7 C 0 km/h
413 27-08-2008 10:33:02 18 C 10.75 g/m*3 18 C 0 km/h
414 27-08-2008 10:45:02 18.3 C 10.94 g/m*3 18.3 C 0 km/h
415 27-08-2008 10:57:02 19.3 C 10.62 g/m*3 19.3 C 0 km/h
416 27-08-2008 11:09:01 19.9 C 9.97 g/m*3 19.9 C 0 km/h
417 27-08-2008 11:21:02 20.3 C 9.85 g/m*3 20.3 C 0 km/h
418 27-08-2008 11:33:01 20.7 C 9.54 g/m*3 20.7 C 0 km/h
419 27-08-2008 11:45:02 21 C 9.34 g/m*3 21 C 0 km/h
420 27-08-2008 11:57:02 21 C 9.53 g/m*3 21 C 0 km/h
421 27-08-2008 12:09:01 21.5 C 9.43 g/m*3 21.5 C 0 km/h
422 27-08-2008 12:21:02 21.5 C 9.43 g/m*3 21.5 C 0 km/h
423 27-08-2008 12:33:01 21.9 C 9.46 g/m*3 21.9 C 0 km/h
424 27-08-2008 12:45:01 22 C 9.32 g/m*3 22 C 0 km/h
425 27-08-2008 12:57:01 22.3 C 9.28 g/m*3 22.3 C 0 km/h
Sensor: Nr:Datum:Temp:Abs-Feuchte:Windchill:Wind:
Aussen-T/F 426 27-08-2008 13:09:01 22.7 C 9.5 g/m*3 22.7 C 0 km/h
427 27-08-2008 13:21:01 23.1 C 9.1 g/m*3 23.1 C 0 km/h
428 27-08-2008 13:33:01 23.7 C 9.41 g/m*3 23.7 C 0 km/h
429 27-08-2008 13:45:01 23.6 C 9.36 g/m*3 23.6 C 0 km/h
430 27-08-2008 13:57:01 24 C 8.92 g/m*3 24 C 0 km/h
431 27-08-2008 14:09:02 24.6 C 9 g/m*3 24.6 C 0 km/h
432 27-08-2008 14:21:01 24.6 C 8.78 g/m*3 24.6 C 0 km/h
433 27-08-2008 14:33:02 25.6 C 9.28 g/m*3 25.6 C 0 km/h
434 27-08-2008 14:45:02 25.8 C 8.91 g/m*3 25.8 C 0 km/h
435 27-08-2008 14:57:02 26.3 C 8.66 g/m*3 26.3 C 0 km/h
436 27-08-2008 15:09:02 26.5 C 8.76 g/m*3 26.5 C 0 km/h
437 27-08-2008 15:21:02 26.6 C 8.81 g/m*3 26.6 C 0 km/h
438 27-08-2008 15:33:02 27 C 8.49 g/m*3 27 C 0 km/h
439 27-08-2008 15:45:02 27.4 C 8.95 g/m*3 27.4 C 0 km/h
440 27-08-2008 15:57:02 28.1 C 8.75 g/m*3 28.1 C 0 km/h
441 27-08-2008 16:09:03 28.5 C 8.66 g/m*3 28.5 C 0 km/h
442 27-08-2008 16:21:02 28.9 C 8.86 g/m*3 28.9 C 0 km/h
443 27-08-2008 16:33:03 29 C 8.62 g/m*3 29 C 0 km/h
444 27-08-2008 16:45:02 29 C 8.33 g/m*3 29 C 0 km/h
445 27-08-2008 16:57:02 28.8 C 8.52 g/m*3 28.8 C 0 km/h
446 27-08-2008 17:09:01 28.5 C 8.66 g/m*3 28.5 C 0 km/h
447 27-08-2008 17:21:02 27.8 C 8.34 g/m*3 27.8 C 0 km/h
448 27-08-2008 17:33:02 27.3 C 8.63 g/m*3 27.3 C 0 km/h
449 27-08-2008 17:45:02 26.8 C 9.16 g/m*3 26.8 C 0 km/h
450 27-08-2008 17:57:02 26.6 C 9.31 g/m*3 26.6 C 0 km/h
Sensor: Nr:Datum:Temp:Abs-Feuchte:Windchill:Wind:
Aussen-T/F 451 27-08-2008 18:09:01 26.7 C 8.86 g/m*3 26.7 C 0 km/h
452 27-08-2008 18:21:02 26.4 C 9.21 g/m*3 26.4 C 0 km/h
453 27-08-2008 18:33:01 26.5 C 9.26 g/m*3 26.5 C 0 km/h
454 27-08-2008 18:45:03 25.9 C 9.44 g/m*3 25.9 C 0 km/h
455 27-08-2008 18:57:03 25 C 9.44 g/m*3 25 C 0 km/h
456 27-08-2008 19:09:02 24.3 C 9.52 g/m*3 24.3 C 0 km/h
457 27-08-2008 19:21:03 23.5 C 9.73 g/m*3 23.5 C 0 km/h
458 27-08-2008 19:33:02 23.3 C 9.62 g/m*3 23.3 C 0 km/h
459 27-08-2008 19:45:02 23 C 9.66 g/m*3 23 C 0 km/h
460 27-08-2008 19:57:02 22.7 C 9.9 g/m*3 22.7 C 0 km/h
461 27-08-2008 20:09:02 22 C 9.7 g/m*3 22 C 0 km/h
462 27-08-2008 20:21:02 21.8 C 9.78 g/m*3 21.8 C 0 km/h
463 27-08-2008 20:33:02 21.6 C 9.67 g/m*3 21.6 C 0 km/h
464 27-08-2008 20:45:01 21.3 C 9.69 g/m*3 21.3 C 0 km/h
465 27-08-2008 20:57:01 21.1 C 9.58 g/m*3 21.1 C 0 km/h
466 27-08-2008 21:09:01 20.9 C 9.65 g/m*3 20.9 C 0 km/h
467 27-08-2008 21:21:01 20.8 C 9.6 g/m*3 20.8 C 0 km/h
468 27-08-2008 21:33:01 20.8 C 9.6 g/m*3 20.8 C 0 km/h
469 27-08-2008 21:45:01 20.2 C 9.27 g/m*3 20.2 C 0 km/h
470 27-08-2008 21:57:01 20.1 C 9.21 g/m*3 20.1 C 0 km/h
471 27-08-2008 22:09:02 20.1 C 9.21 g/m*3 20.1 C 0 km/h
472 27-08-2008 22:21:01 20.2 C 9.27 g/m*3 20.2 C 0 km/h
473 27-08-2008 22:33:02 20 C 9.16 g/m*3 20 C 0 km/h
474 27-08-2008 22:46:02 19.7 C 9.34 g/m*3 19.7 C 0 km/h
475 27-08-2008 22:58:02 19.7 C 9.51 g/m*3 19.7 C 0 km/h
Sensor: Nr:Datum:Temp:Abs-Feuchte:Windchill:Wind:
Aussen-T/F 476 27-08-2008 23:10:02 19.8 C 9.74 g/m*3 19.8 C 0 km/h
477 27-08-2008 23:22:02 19.6 C 9.45 g/m*3 19.6 C 0 km/h
478 27-08-2008 23:34:02 19.7 C 9.68 g/m*3 19.7 C 0 km/h
479 27-08-2008 23:46:02 19.5 C 9.57 g/m*3 19.5 C 0 km/h
480 27-08-2008 23:58:02 19.4 C 9.51 g/m*3 19.4 C 0 km/h
481 28-08-2008 00:10:02 19.4 C 9.68 g/m*3 19.4 C 0 km/h
482 28-08-2008 00:22:02 19.4 C 9.68 g/m*3 19.4 C 0 km/h
483 28-08-2008 00:34:02 19.2 C 9.56 g/m*3 19.2 C 0 km/h
484 28-08-2008 00:46:02 19.1 C 9.67 g/m*3 19.1 C 0 km/h
485 28-08-2008 00:58:02 19.1 C 9.67 g/m*3 19.1 C 0 km/h
486 28-08-2008 01:10:02 19 C 9.61 g/m*3 19 C 0 km/h
487 28-08-2008 01:22:02 19.1 C 9.84 g/m*3 19.1 C 0 km/h
488 28-08-2008 01:34:02 19 C 9.61 g/m*3 19 C 0 km/h
489 28-08-2008 01:46:02 19 C 9.78 g/m*3 19 C 0 km/h
490 28-08-2008 01:58:02 18.9 C 9.88 g/m*3 18.9 C 0 km/h
491 28-08-2008 02:10:02 18.8 C 9.82 g/m*3 18.8 C 0 km/h
492 28-08-2008 02:22:02 18.9 C 10.04 g/m*3 18.9 C 0 km/h
493 28-08-2008 02:34:03 18.9 C 10.04 g/m*3 18.9 C 0 km/h
494 28-08-2008 02:46:03 18.7 C 10.09 g/m*3 18.7 C 0 km/h
495 28-08-2008 02:58:03 18.6 C 10.03 g/m*3 18.6 C 0 km/h
496 28-08-2008 03:10:03 18.6 C 10.03 g/m*3 18.6 C 0 km/h
497 28-08-2008 03:22:03 18.6 C 10.03 g/m*3 18.6 C 0 km/h
498 28-08-2008 03:34:03 18.5 C 10.13 g/m*3 18.5 C 0 km/h
499 28-08-2008 03:46:03 18.5 C 10.13 g/m*3 18.5 C 0 km/h
500 28-08-2008 03:58:03 18.5 C 10.13 g/m*3 18.5 C 0 km/h
Sensor: Nr:Datum:Temp:Abs-Feuchte:Windchill:Wind:
Aussen-T/F 501 28-08-2008 04:10:03 18.4 C 10.22 g/m*3 18.4 C 0 km/h
502 28-08-2008 04:22:03 18.4 C 10.22 g/m*3 18.4 C 0 km/h
503 28-08-2008 04:34:03 18.4 C 10.22 g/m*3 18.4 C 0 km/h
504 28-08-2008 04:46:03 18.3 C 10.16 g/m*3 18.3 C 0 km/h
505 28-08-2008 04:58:03 18.3 C 10.32 g/m*3 18.3 C 0 km/h
506 28-08-2008 05:10:03 18.2 C 10.1 g/m*3 18.2 C 0 km/h
507 28-08-2008 05:22:03 18.2 C 10.26 g/m*3 18.2 C 0 km/h
508 28-08-2008 05:34:03 18.2 C 10.26 g/m*3 18.2 C 0 km/h
509 28-08-2008 05:46:03 18.1 C 10.04 g/m*3 18.1 C 0 km/h
510 28-08-2008 05:58:03 18 C 10.14 g/m*3 18 C 0 km/h
511 28-08-2008 06:10:03 18 C 10.14 g/m*3 18 C 0 km/h
512 28-08-2008 06:22:04 17.9 C 10.23 g/m*3 17.9 C 0 km/h
513 28-08-2008 06:34:04 17.9 C 10.23 g/m*3 17.9 C 0 km/h
514 28-08-2008 06:46:04 17.9 C 10.38 g/m*3 17.9 C 0 km/h
515 28-08-2008 06:58:04 17.8 C 10.32 g/m*3 17.8 C 0 km/h
516 28-08-2008 07:10:02 17.8 C 10.32 g/m*3 17.8 C 0 km/h
517 28-08-2008 07:22:02 17.8 C 10.32 g/m*3 17.8 C 0 km/h
518 28-08-2008 07:34:03 17.8 C 10.32 g/m*3 17.8 C 0 km/h
519 28-08-2008 07:46:02 17.9 C 10.54 g/m*3 17.9 C 0 km/h
520 28-08-2008 07:58:02 18.1 C 10.51 g/m*3 18.1 C 0 km/h
521 28-08-2008 08:10:02 18.1 C 10.51 g/m*3 18.1 C 0 km/h
522 28-08-2008 08:22:02 18.1 C 10.66 g/m*3 18.1 C 0 km/h
523 28-08-2008 08:34:02 18.5 C 10.92 g/m*3 18.5 C 0 km/h
524 28-08-2008 08:46:02 18.6 C 10.66 g/m*3 18.6 C 0 km/h
525 28-08-2008 08:58:02 18.7 C 10.73 g/m*3 18.7 C 0 km/h
Sensor: Nr:Datum:Temp:Abs-Feuchte:Windchill:Wind:
Aussen-T/F 526 28-08-2008 09:10:03 18.9 C 10.69 g/m*3 18.9 C 0 km/h
527 28-08-2008 09:22:02 19.1 C 10.16 g/m*3 19.1 C 0 km/h
528 28-08-2008 09:34:02 19.2 C 10.06 g/m*3 19.2 C 0 km/h
529 28-08-2008 09:46:02 19.3 C 9.79 g/m*3 19.3 C 0 km/h
530 28-08-2008 09:58:02 19.3 C 9.95 g/m*3 19.3 C 0 km/h
531 28-08-2008 10:10:02 19.4 C 9.84 g/m*3 19.4 C 0 km/h
532 28-08-2008 10:22:02 19.6 C 9.79 g/m*3 19.6 C 0 km/h
533 28-08-2008 10:34:02 19.9 C 9.45 g/m*3 19.9 C 0 km/h
534 28-08-2008 10:46:02 20.2 C 8.92 g/m*3 20.2 C 0 km/h
535 28-08-2008 10:58:02 20.5 C 9.07 g/m*3 20.5 C 0 km/h
536 28-08-2008 11:10:02 21 C 8.43 g/m*3 21 C 0 km/h
537 28-08-2008 11:22:02 21.5 C 8.3 g/m*3 21.5 C 0 km/h
538 28-08-2008 11:34:02 21.7 C 8.2 g/m*3 21.7 C 0 km/h
539 28-08-2008 11:46:02 22.1 C 7.81 g/m*3 22.1 C 0 km/h
540 28-08-2008 11:58:02 22.7 C 7.88 g/m*3 22.7 C 0 km/h
541 28-08-2008 12:10:02 23 C 7.6 g/m*3 23 C 0 km/h
542 28-08-2008 12:22:02 22.9 C 7.56 g/m*3 22.9 C 0 km/h
543 28-08-2008 12:34:02 23.1 C 7.44 g/m*3 23.1 C 0 km/h
544 28-08-2008 12:46:02 23.3 C 7.32 g/m*3 23.3 C 0 km/h
545 28-08-2008 12:58:02 23.5 C 7.4 g/m*3 23.5 C 0 km/h
546 28-08-2008 13:10:02 23.6 C 7.44 g/m*3 23.6 C 0 km/h
547 28-08-2008 13:22:02 23.9 C 7.57 g/m*3 23.9 C 0 km/h
548 28-08-2008 13:34:02 23.2 C 7.28 g/m*3 23.2 C 0 km/h
549 28-08-2008 13:46:02 23.1 C 7.65 g/m*3 23.1 C 0 km/h
550 28-08-2008 13:58:02 23.3 C 7.53 g/m*3 23.3 C 0 km/h
Sensor: Nr:Datum:Temp:Abs-Feuchte:Windchill:Wind:
Aussen-T/F 551 28-08-2008 14:10:02 23 C 7.6 g/m*3 23 C 0 km/h
552 28-08-2008 14:22:02 23.3 C 7.74 g/m*3 23.3 C 0 km/h
553 28-08-2008 14:34:02 23.7 C 7.7 g/m*3 23.7 C 0 km/h
554 28-08-2008 14:46:02 23.1 C 7.86 g/m*3 23.1 C 0 km/h
555 28-08-2008 14:58:02 23.6 C 7.87 g/m*3 23.6 C 0 km/h
556 28-08-2008 15:10:02 23.7 C 7.7 g/m*3 23.7 C 0 km/h
557 28-08-2008 15:22:02 24.4 C 7.79 g/m*3 24.4 C 0 km/h
558 28-08-2008 15:34:02 24.2 C 7.48 g/m*3 24.2 C 0 km/h
559 28-08-2008 15:46:01 23.6 C 7.87 g/m*3 23.6 C 0 km/h
560 28-08-2008 15:58:01 23.2 C 7.69 g/m*3 23.2 C 0 km/h
561 28-08-2008 16:10:02 22.6 C 8.04 g/m*3 22.6 C 0 km/h
562 28-08-2008 16:22:02 23 C 8.22 g/m*3 23 C 0 km/h
563 28-08-2008 16:34:02 23.1 C 7.86 g/m*3 23.1 C 0 km/h
564 28-08-2008 16:46:02 23.3 C 8.15 g/m*3 23.3 C 0 km/h
565 28-08-2008 16:58:02 23.4 C 7.78 g/m*3 23.4 C 0 km/h
566 28-08-2008 17:10:02 22.8 C 8.13 g/m*3 22.8 C 0 km/h
567 28-08-2008 17:22:02 22.9 C 8.17 g/m*3 22.9 C 0 km/h
568 28-08-2008 17:34:02 22.6 C 8.04 g/m*3 22.6 C 0 km/h
569 28-08-2008 17:46:02 22 C 7.96 g/m*3 22 C 0 km/h
570 28-08-2008 17:58:02 22 C 7.96 g/m*3 22 C 0 km/h
571 28-08-2008 18:10:03 21.8 C 8.25 g/m*3 21.8 C 0 km/h
572 28-08-2008 18:22:02 22 C 8.15 g/m*3 22 C 0 km/h
573 28-08-2008 18:34:02 22 C 8.15 g/m*3 22 C 0 km/h
574 28-08-2008 18:46:02 21.7 C 8.2 g/m*3 21.7 C 0 km/h
575 28-08-2008 18:58:02 21.7 C 8.2 g/m*3 21.7 C 0 km/h
Sensor: Nr:Datum:Temp:Abs-Feuchte:Windchill:Wind:
Aussen-T/F 576 28-08-2008 19:10:02 21.6 C 8.35 g/m*3 21.6 C 0 km/h
577 28-08-2008 19:22:02 21.6 C 8.72 g/m*3 21.6 C 0 km/h
578 28-08-2008 19:34:02 21.5 C 8.49 g/m*3 21.5 C 0 km/h
579 28-08-2008 19:46:03 21.3 C 8.57 g/m*3 21.3 C 0 km/h
580 28-08-2008 19:58:03 21.1 C 8.84 g/m*3 21.1 C 0 km/h
581 28-08-2008 20:10:02 20.8 C 9.23 g/m*3 20.8 C 0 km/h
582 28-08-2008 20:22:03 20.6 C 9.13 g/m*3 20.6 C 0 km/h
583 28-08-2008 20:34:02 20.4 C 9.38 g/m*3 20.4 C 0 km/h
584 28-08-2008 20:46:03 20.3 C 9.15 g/m*3 20.3 C 0 km/h
585 28-08-2008 20:58:03 20.2 C 9.09 g/m*3 20.2 C 0 km/h
586 28-08-2008 21:10:02 20.1 C 9.04 g/m*3 20.1 C 0 km/h
587 28-08-2008 21:22:02 20 C 9.16 g/m*3 20 C 0 km/h
588 28-08-2008 21:34:02 20 C 9.33 g/m*3 20 C 0 km/h
589 28-08-2008 21:46:02 19.8 C 9.57 g/m*3 19.8 C 0 km/h
590 28-08-2008 21:58:02 19.6 C 9.79 g/m*3 19.6 C 0 km/h
591 28-08-2008 22:10:03 19.5 C 9.9 g/m*3 19.5 C 0 km/h
592 28-08-2008 22:22:02 19.4 C 9.68 g/m*3 19.4 C 0 km/h
593 28-08-2008 22:35:02 19.4 C 9.68 g/m*3 19.4 C 0 km/h
594 28-08-2008 22:47:02 19.3 C 9.79 g/m*3 19.3 C 0 km/h
595 28-08-2008 22:59:02 19.1 C 9.67 g/m*3 19.1 C 0 km/h
596 28-08-2008 23:11:02 19.1 C 9.84 g/m*3 19.1 C 0 km/h
597 28-08-2008 23:23:02 19.2 C 9.89 g/m*3 19.2 C 0 km/h
598 28-08-2008 23:35:02 19.2 C 9.89 g/m*3 19.2 C 0 km/h
599 28-08-2008 23:47:02 19.1 C 9.84 g/m*3 19.1 C 0 km/h
600 28-08-2008 23:59:02 19.1 C 10 g/m*3 19.1 C 0 km/h
Sensor: Nr:Datum:Temp:Abs-Feuchte:Windchill:Wind:
Aussen-T/F 601 29-08-2008 00:11:02 19 C 9.94 g/m*3 19 C 0 km/h
602 29-08-2008 00:23:02 18.9 C 10.04 g/m*3 18.9 C 0 km/h
603 29-08-2008 00:35:02 18.9 C 10.04 g/m*3 18.9 C 0 km/h
604 29-08-2008 00:47:02 18.9 C 10.04 g/m*3 18.9 C 0 km/h
605 29-08-2008 00:59:02 18.8 C 9.99 g/m*3 18.8 C 0 km/h
606 29-08-2008 01:11:02 18.8 C 9.99 g/m*3 18.8 C 0 km/h
607 29-08-2008 01:23:02 18.8 C 9.99 g/m*3 18.8 C 0 km/h
608 29-08-2008 01:35:02 18.7 C 9.93 g/m*3 18.7 C 0 km/h
609 29-08-2008 01:47:02 18.7 C 9.77 g/m*3 18.7 C 0 km/h
610 29-08-2008 01:59:02 18.6 C 9.71 g/m*3 18.6 C 0 km/h
611 29-08-2008 02:11:03 18.6 C 9.71 g/m*3 18.6 C 0 km/h
612 29-08-2008 02:23:03 18.5 C 9.65 g/m*3 18.5 C 0 km/h
613 29-08-2008 02:35:03 18.5 C 9.81 g/m*3 18.5 C 0 km/h
614 29-08-2008 02:47:03 18.5 C 9.49 g/m*3 18.5 C 0 km/h
615 29-08-2008 02:59:03 18.4 C 9.59 g/m*3 18.4 C 0 km/h
616 29-08-2008 03:11:03 18.4 C 9.91 g/m*3 18.4 C 0 km/h
617 29-08-2008 03:23:03 18.3 C 9.69 g/m*3 18.3 C 0 km/h
618 29-08-2008 03:35:03 18.2 C 9.64 g/m*3 18.2 C 0 km/h
619 29-08-2008 03:47:03 18.2 C 9.64 g/m*3 18.2 C 0 km/h
620 29-08-2008 03:59:03 18.1 C 9.58 g/m*3 18.1 C 0 km/h
621 29-08-2008 04:11:03 18.1 C 9.43 g/m*3 18.1 C 0 km/h
622 29-08-2008 04:23:03 18.1 C 9.58 g/m*3 18.1 C 0 km/h
623 29-08-2008 04:35:03 18.1 C 9.43 g/m*3 18.1 C 0 km/h
624 29-08-2008 04:47:03 18.1 C 9.43 g/m*3 18.1 C 0 km/h
625 29-08-2008 04:59:03 18.1 C 9.43 g/m*3 18.1 C 0 km/h
Sensor: Nr:Datum:Temp:Abs-Feuchte:Windchill:Wind:
Aussen-T/F 626 29-08-2008 05:11:03 18 C 9.22 g/m*3 18 C 0 km/h
627 29-08-2008 05:23:03 18 C 9.22 g/m*3 18 C 0 km/h
628 29-08-2008 05:35:03 17.9 C 9.31 g/m*3 17.9 C 0 km/h
629 29-08-2008 05:47:03 17.9 C 9.47 g/m*3 17.9 C 0 km/h
630 29-08-2008 05:59:04 17.9 C 9.31 g/m*3 17.9 C 0 km/h
631 29-08-2008 06:11:04 17.8 C 9.41 g/m*3 17.8 C 0 km/h
632 29-08-2008 06:23:04 17.8 C 9.41 g/m*3 17.8 C 0 km/h
633 29-08-2008 06:35:04 17.8 C 9.41 g/m*3 17.8 C 0 km/h
634 29-08-2008 06:47:04 17.8 C 9.41 g/m*3 17.8 C 0 km/h
635 29-08-2008 06:59:04 17.8 C 9.41 g/m*3 17.8 C 0 km/h
636 29-08-2008 07:11:04 17.8 C 9.56 g/m*3 17.8 C 0 km/h
637 29-08-2008 07:23:04 17.8 C 9.56 g/m*3 17.8 C 0 km/h
638 29-08-2008 07:35:04 17.8 C 9.56 g/m*3 17.8 C 0 km/h
639 29-08-2008 07:47:04 17.9 C 9.62 g/m*3 17.9 C 0 km/h
640 29-08-2008 07:59:04 17.9 C 9.47 g/m*3 17.9 C 0 km/h
641 29-08-2008 08:11:04 17.9 C 9.47 g/m*3 17.9 C 0 km/h
642 29-08-2008 08:23:02 18.1 C 9.43 g/m*3 18.1 C 0 km/h
643 29-08-2008 08:35:02 18.1 C 9.43 g/m*3 18.1 C 0 km/h
644 29-08-2008 08:47:01 18.1 C 9.58 g/m*3 18.1 C 0 km/h
645 29-08-2008 08:59:01 18.2 C 9.79 g/m*3 18.2 C 0 km/h
646 29-08-2008 09:11:02 18.3 C 9.85 g/m*3 18.3 C 0 km/h
647 29-08-2008 09:23:02 18.4 C 9.91 g/m*3 18.4 C 0 km/h
648 29-08-2008 09:35:02 18.5 C 9.97 g/m*3 18.5 C 0 km/h
649 29-08-2008 09:47:02 18.6 C 9.55 g/m*3 18.6 C 0 km/h
650 29-08-2008 09:59:02 18.9 C 9.72 g/m*3 18.9 C 0 km/h
Sensor: Nr:Datum:Temp:Abs-Feuchte:Windchill:Wind:
Aussen-T/F 651 29-08-2008 10:11:03 19.3 C 9.45 g/m*3 19.3 C 0 km/h
652 29-08-2008 10:23:02 19.6 C 9.45 g/m*3 19.6 C 0 km/h
653 29-08-2008 10:35:03 19.8 C 9.39 g/m*3 19.8 C 0 km/h
654 29-08-2008 10:47:02 20.4 C 9.38 g/m*3 20.4 C 0 km/h
655 29-08-2008 10:59:02 20.5 C 9.25 g/m*3 20.5 C 0 km/h
656 29-08-2008 11:11:01 20.7 C 9.36 g/m*3 20.7 C 0 km/h
657 29-08-2008 11:23:02 20.4 C 9.38 g/m*3 20.4 C 0 km/h
658 29-08-2008 11:35:02 20.5 C 9.25 g/m*3 20.5 C 0 km/h
659 29-08-2008 11:47:02 20.8 C 9.42 g/m*3 20.8 C 0 km/h
660 29-08-2008 11:59:02 21.3 C 9.51 g/m*3 21.3 C 0 km/h
661 29-08-2008 12:11:01 21 C 9.34 g/m*3 21 C 0 km/h
662 29-08-2008 12:23:02 21.1 C 9.4 g/m*3 21.1 C 0 km/h
663 29-08-2008 12:35:01 21.5 C 9.62 g/m*3 21.5 C 0 km/h
664 29-08-2008 12:47:02 21.8 C 9.59 g/m*3 21.8 C 0 km/h
665 29-08-2008 12:59:02 22.3 C 9.08 g/m*3 22.3 C 0 km/h
666 29-08-2008 13:11:01 23.1 C 9.1 g/m*3 23.1 C 0 km/h
667 29-08-2008 13:23:02 23.2 C 8.94 g/m*3 23.2 C 0 km/h
668 29-08-2008 13:35:01 23.3 C 8.78 g/m*3 23.3 C 0 km/h
669 29-08-2008 13:47:01 23.8 C 8.6 g/m*3 23.8 C 0 km/h
670 29-08-2008 13:59:01 23.4 C 8.83 g/m*3 23.4 C 0 km/h
671 29-08-2008 14:11:01 23.7 C 8.98 g/m*3 23.7 C 0 km/h
672 29-08-2008 14:23:01 24.5 C 8.95 g/m*3 24.5 C 0 km/h
673 29-08-2008 14:35:01 23.9 C 8.87 g/m*3 23.9 C 0 km/h
674 29-08-2008 14:47:01 24.1 C 8.97 g/m*3 24.1 C 0 km/h
675 29-08-2008 14:59:01 24.5 C 8.95 g/m*3 24.5 C 0 km/h
Sensor: Nr:Datum:Temp:Abs-Feuchte:Windchill:Wind:
Aussen-T/F 676 29-08-2008 15:11:02 24.1 C 8.53 g/m*3 24.1 C 0 km/h
677 29-08-2008 15:23:01 24.1 C 8.75 g/m*3 24.1 C 0 km/h
678 29-08-2008 15:35:02 24.6 C 8.78 g/m*3 24.6 C 0 km/h
679 29-08-2008 15:47:02 25.3 C 8.43 g/m*3 25.3 C 0 km/h
680 29-08-2008 15:59:02 25.7 C 8.62 g/m*3 25.7 C 0 km/h
681 29-08-2008 16:11:02 25.7 C 8.38 g/m*3 25.7 C 0 km/h
682 29-08-2008 16:23:02 25.7 C 8.62 g/m*3 25.7 C 0 km/h
683 29-08-2008 16:35:02 25 C 8.52 g/m*3 25 C 0 km/h
684 29-08-2008 16:47:01 24.7 C 9.05 g/m*3 24.7 C 0 km/h
685 29-08-2008 16:59:01 25.4 C 8.95 g/m*3 25.4 C 0 km/h
686 29-08-2008 17:11:01 26.1 C 8.32 g/m*3 26.1 C 0 km/h
687 29-08-2008 17:23:01 26 C 8.52 g/m*3 26 C 0 km/h
688 29-08-2008 17:35:01 27.4 C 8.42 g/m*3 27.4 C 0 km/h
689 29-08-2008 17:47:03 28.5 C 8.94 g/m*3 28.5 C 0 km/h
690 29-08-2008 17:59:03 28.1 C 8.75 g/m*3 28.1 C 0 km/h
691 29-08-2008 18:11:02 27.9 C 8.65 g/m*3 27.9 C 0 km/h
692 29-08-2008 18:23:03 27.3 C 8.63 g/m*3 27.3 C 0 km/h
693 29-08-2008 18:35:02 27.6 C 8.78 g/m*3 27.6 C 0 km/h
694 29-08-2008 18:47:02 28 C 8.7 g/m*3 28 C 0 km/h
695 29-08-2008 18:59:02 27.9 C 8.38 g/m*3 27.9 C 0 km/h
696 29-08-2008 19:11:03 26.7 C 8.1 g/m*3 26.7 C 0 km/h
697 29-08-2008 19:23:02 25.1 C 8.57 g/m*3 25.1 C 0 km/h
698 29-08-2008 19:35:03 24.9 C 9.16 g/m*3 24.9 C 0 km/h
699 29-08-2008 19:47:02 24.5 C 9.62 g/m*3 24.5 C 0 km/h
700 29-08-2008 19:59:03 23.7 C 9.63 g/m*3 23.7 C 0 km/h
Sensor: Nr:Datum:Temp:Abs-Feuchte:Windchill:Wind:
Aussen-T/F 701 29-08-2008 20:11:01 23.1 C 9.72 g/m*3 23.1 C 0 km/h
702 29-08-2008 20:23:02 22.3 C 10.07 g/m*3 22.3 C 0 km/h
703 29-08-2008 20:35:01 21.4 C 9.94 g/m*3 21.4 C 0 km/h
704 29-08-2008 20:47:02 20.7 C 10.08 g/m*3 20.7 C 0 km/h
705 29-08-2008 20:59:02 20.1 C 10.08 g/m*3 20.1 C 0 km/h
706 29-08-2008 21:11:01 19.8 C 10.42 g/m*3 19.8 C 0 km/h
707 29-08-2008 21:23:02 19.5 C 10.41 g/m*3 19.5 C 0 km/h
708 29-08-2008 21:35:01 19.3 C 10.45 g/m*3 19.3 C 0 km/h
709 29-08-2008 21:47:02 19.3 C 10.45 g/m*3 19.3 C 0 km/h
710 29-08-2008 21:59:02 19 C 10.43 g/m*3 19 C 0 km/h
711 29-08-2008 22:11:01 18.9 C 10.69 g/m*3 18.9 C 0 km/h
712 29-08-2008 22:24:01 18.8 C 10.79 g/m*3 18.8 C 0 km/h
713 29-08-2008 22:36:01 18.6 C 10.82 g/m*3 18.6 C 0 km/h
714 29-08-2008 22:48:01 18.5 C 10.76 g/m*3 18.5 C 0 km/h
715 29-08-2008 23:00:01 18.3 C 10.79 g/m*3 18.3 C 0 km/h
716 29-08-2008 23:12:01 18.1 C 10.82 g/m*3 18.1 C 0 km/h
717 29-08-2008 23:24:01 17.9 C 10.99 g/m*3 17.9 C 0 km/h
718 29-08-2008 23:36:02 17.7 C 11.01 g/m*3 17.7 C 0 km/h
719 29-08-2008 23:48:02 17.4 C 10.97 g/m*3 17.4 C 0 km/h
720 30-08-2008 00:00:02 17.2 C 10.84 g/m*3 17.2 C 0 km/h
721 30-08-2008 00:12:02 17.1 C 10.92 g/m*3 17.1 C 0 km/h
722 30-08-2008 00:24:02 16.9 C 10.93 g/m*3 16.9 C 0 km/h
723 30-08-2008 00:36:02 16.8 C 11.01 g/m*3 16.8 C 0 km/h
724 30-08-2008 00:48:02 16.6 C 10.88 g/m*3 16.6 C 0 km/h
725 30-08-2008 01:00:02 16.4 C 10.89 g/m*3 16.4 C 0 km/h
Sensor: Nr:Datum:Temp:Abs-Feuchte:Windchill:Wind:
Aussen-T/F 726 30-08-2008 01:12:02 16.3 C 10.82 g/m*3 16.3 C 0 km/h
727 30-08-2008 01:24:02 16.2 C 10.89 g/m*3 16.2 C 0 km/h
728 30-08-2008 01:36:02 16.1 C 10.83 g/m*3 16.1 C 0 km/h
729 30-08-2008 01:48:02 15.9 C 10.83 g/m*3 15.9 C 0 km/h
730 30-08-2008 02:00:02 15.8 C 10.77 g/m*3 15.8 C 0 km/h
731 30-08-2008 02:12:02 15.6 C 10.64 g/m*3 15.6 C 0 km/h
732 30-08-2008 02:24:02 15.5 C 10.71 g/m*3 15.5 C 0 km/h
733 30-08-2008 02:36:02 15.4 C 10.64 g/m*3 15.4 C 0 km/h
734 30-08-2008 02:48:02 15.4 C 10.64 g/m*3 15.4 C 0 km/h
735 30-08-2008 03:00:02 15.2 C 10.51 g/m*3 15.2 C 0 km/h
736 30-08-2008 03:12:02 15 C 10.39 g/m*3 15 C 0 km/h
737 30-08-2008 03:24:03 14.9 C 10.45 g/m*3 14.9 C 0 km/h
738 30-08-2008 03:36:03 14.7 C 10.45 g/m*3 14.7 C 0 km/h
739 30-08-2008 03:48:03 14.7 C 10.45 g/m*3 14.7 C 0 km/h
740 30-08-2008 04:00:03 14.7 C 10.45 g/m*3 14.7 C 0 km/h
741 30-08-2008 04:12:03 14.4 C 10.26 g/m*3 14.4 C 0 km/h
742 30-08-2008 04:24:03 14.4 C 10.26 g/m*3 14.4 C 0 km/h
743 30-08-2008 04:36:03 14.3 C 10.2 g/m*3 14.3 C 0 km/h
744 30-08-2008 04:48:03 14.4 C 10.26 g/m*3 14.4 C 0 km/h
745 30-08-2008 05:00:03 14.5 C 10.45 g/m*3 14.5 C 0 km/h
746 30-08-2008 05:12:03 14.5 C 10.45 g/m*3 14.5 C 0 km/h
747 30-08-2008 05:24:03 14.5 C 10.45 g/m*3 14.5 C 0 km/h
748 30-08-2008 05:36:03 14.5 C 10.45 g/m*3 14.5 C 0 km/h
749 30-08-2008 05:48:03 14 C 10.25 g/m*3 14 C 0 km/h
750 30-08-2008 06:00:03 14.5 C 10.57 g/m*3 14.5 C 0 km/h
Sensor: Nr:Datum:Temp:Abs-Feuchte:Windchill:Wind:
Aussen-T/F 751 30-08-2008 06:12:03 14.4 C 10.51 g/m*3 14.4 C 0 km/h
752 30-08-2008 06:24:03 14.3 C 10.57 g/m*3 14.3 C 0 km/h
753 30-08-2008 06:36:03 14.3 C 10.69 g/m*3 14.3 C 0 km/h
754 30-08-2008 06:48:03 14.4 C 10.88 g/m*3 14.4 C 0 km/h
755 30-08-2008 07:00:03 14.6 C 11.01 g/m*3 14.6 C 0 km/h
756 30-08-2008 07:12:04 14.6 C 10.89 g/m*3 14.6 C 0 km/h
757 30-08-2008 07:24:04 14.8 C 11.15 g/m*3 14.8 C 0 km/h
758 30-08-2008 07:36:04 14.9 C 11.09 g/m*3 14.9 C 0 km/h
759 30-08-2008 07:48:04 15.1 C 11.09 g/m*3 15.1 C 0 km/h
760 30-08-2008 08:00:04 15.2 C 11.03 g/m*3 15.2 C 0 km/h
761 30-08-2008 08:12:02 15.4 C 11.04 g/m*3 15.4 C 0 km/h
762 30-08-2008 08:24:01 15.5 C 10.97 g/m*3 15.5 C 0 km/h
763 30-08-2008 08:36:02 15.7 C 11.11 g/m*3 15.7 C 0 km/h
764 30-08-2008 08:48:02 15.8 C 11.04 g/m*3 15.8 C 0 km/h
765 30-08-2008 09:00:02 15.8 C 11.04 g/m*3 15.8 C 0 km/h
766 30-08-2008 09:12:02 16.1 C 11.1 g/m*3 16.1 C 0 km/h
767 30-08-2008 09:24:02 16.4 C 11.17 g/m*3 16.4 C 0 km/h
768 30-08-2008 09:36:02 16.8 C 11.29 g/m*3 16.8 C 0 km/h
769 30-08-2008 09:48:02 17.1 C 11.21 g/m*3 17.1 C 0 km/h
770 30-08-2008 10:00:02 17 C 11.29 g/m*3 17 C 0 km/h
771 30-08-2008 10:12:02 17.4 C 11.71 g/m*3 17.4 C 0 km/h
772 30-08-2008 10:24:02 17.9 C 11.76 g/m*3 17.9 C 0 km/h
773 30-08-2008 10:36:02 18.5 C 11.71 g/m*3 18.5 C 0 km/h
774 30-08-2008 10:48:02 19.1 C 11.8 g/m*3 19.1 C 0 km/h
775 30-08-2008 11:00:02 19.6 C 11.82 g/m*3 19.6 C 0 km/h
Sensor: Nr:Datum:Temp:Abs-Feuchte:Windchill:Wind:
Aussen-T/F 776 30-08-2008 11:12:01 20.2 C 11.19 g/m*3 20.2 C 0 km/h
777 30-08-2008 11:24:02 20.7 C 11.16 g/m*3 20.7 C 0 km/h
778 30-08-2008 11:36:02 21.2 C 10.93 g/m*3 21.2 C 0 km/h
779 30-08-2008 11:48:02 21.8 C 10.94 g/m*3 21.8 C 0 km/h
780 30-08-2008 12:00:02 22.4 C 10.92 g/m*3 22.4 C 0 km/h
781 30-08-2008 12:12:01 22.9 C 10.63 g/m*3 22.9 C 0 km/h
782 30-08-2008 12:24:02 23.5 C 10.79 g/m*3 23.5 C 0 km/h
783 30-08-2008 12:36:01 23.8 C 10.54 g/m*3 23.8 C 0 km/h
784 30-08-2008 12:48:02 24.1 C 10.06 g/m*3 24.1 C 0 km/h
785 30-08-2008 13:00:02 24.5 C 9.85 g/m*3 24.5 C 0 km/h
786 30-08-2008 13:12:02 25.1 C 9.95 g/m*3 25.1 C 0 km/h
787 30-08-2008 13:24:02 25.6 C 10 g/m*3 25.6 C 0 km/h
788 30-08-2008 13:36:03 26.1 C 9.55 g/m*3 26.1 C 0 km/h
789 30-08-2008 13:48:02 26.3 C 9.65 g/m*3 26.3 C 0 km/h
790 30-08-2008 14:00:02 26.9 C 9.47 g/m*3 26.9 C 0 km/h
791 30-08-2008 14:12:02 27.7 C 9.63 g/m*3 27.7 C 0 km/h
792 30-08-2008 14:24:02 28.4 C 9.45 g/m*3 28.4 C 0 km/h
793 30-08-2008 14:36:02 28.9 C 9.14 g/m*3 28.9 C 0 km/h
794 30-08-2008 14:48:02 29.3 C 8.76 g/m*3 29.3 C 0 km/h
795 30-08-2008 15:00:02 29.6 C 8.9 g/m*3 29.6 C 0 km/h
796 30-08-2008 15:12:02 30.3 C 8.94 g/m*3 30.3 C 0 km/h
797 30-08-2008 15:24:01 30.4 C 8.68 g/m*3 30.4 C 0 km/h
798 30-08-2008 15:36:02 30.4 C 8.37 g/m*3 30.4 C 0 km/h
799 30-08-2008 15:48:02 30.7 C 8.19 g/m*3 30.7 C 0 km/h
800 30-08-2008 16:00:02 31 C 8.32 g/m*3 31 C 0 km/h
Sensor: Nr:Datum:Temp:Abs-Feuchte:Windchill:Wind:
Aussen-T/F 801 30-08-2008 16:12:02 31.2 C 8.09 g/m*3 31.2 C 0 km/h
802 30-08-2008 16:24:02 31.2 C 7.76 g/m*3 31.2 C 0 km/h
803 30-08-2008 16:36:02 31.6 C 7.6 g/m*3 31.6 C 0 km/h
804 30-08-2008 16:48:02 31.9 C 7.39 g/m*3 31.9 C 0 km/h
805 30-08-2008 17:00:02 31.4 C 7.19 g/m*3 31.4 C 0 km/h
806 30-08-2008 17:12:02 31.7 C 7.31 g/m*3 31.7 C 0 km/h
807 30-08-2008 17:24:01 32.1 C 7.13 g/m*3 32.1 C 0 km/h
808 30-08-2008 17:36:02 32.1 C 6.79 g/m*3 32.1 C 0 km/h
809 30-08-2008 17:48:02 32.1 C 6.79 g/m*3 32.1 C 0 km/h
810 30-08-2008 18:00:02 32.2 C 6.82 g/m*3 32.2 C 0 km/h
811 30-08-2008 18:12:02 32.3 C 6.86 g/m*3 32.3 C 0 km/h
812 30-08-2008 18:24:02 32 C 6.75 g/m*3 32 C 0 km/h
813 30-08-2008 18:36:02 31.8 C 6.68 g/m*3 31.8 C 0 km/h
814 30-08-2008 18:48:02 31.7 C 7.31 g/m*3 31.7 C 0 km/h
815 30-08-2008 19:00:02 31.3 C 7.48 g/m*3 31.3 C 0 km/h
816 30-08-2008 19:12:02 31 C 8 g/m*3 31 C 0 km/h
817 30-08-2008 19:24:02 30.4 C 8.06 g/m*3 30.4 C 0 km/h
818 30-08-2008 19:36:02 29.4 C 8.51 g/m*3 29.4 C 0 km/h
819 30-08-2008 19:48:02 28.1 C 8.48 g/m*3 28.1 C 0 km/h
820 30-08-2008 20:00:02 26.5 C 8.76 g/m*3 26.5 C 0 km/h
821 30-08-2008 20:12:02 25.2 C 8.85 g/m*3 25.2 C 0 km/h
822 30-08-2008 20:24:02 24.3 C 9.07 g/m*3 24.3 C 0 km/h
823 30-08-2008 20:36:02 23.5 C 9.31 g/m*3 23.5 C 0 km/h
824 30-08-2008 20:48:02 23 C 9.25 g/m*3 23 C 0 km/h
825 30-08-2008 21:00:02 22.7 C 9.7 g/m*3 22.7 C 0 km/h
Sensor: Nr:Datum:Temp:Abs-Feuchte:Windchill:Wind:
Aussen-T/F 826 30-08-2008 21:12:03 22.6 C 9.64 g/m*3 22.6 C 0 km/h
827 30-08-2008 21:24:02 22.2 C 9.62 g/m*3 22.2 C 0 km/h
828 30-08-2008 21:36:03 22 C 9.51 g/m*3 22 C 0 km/h
829 30-08-2008 21:48:02 21.6 C 9.67 g/m*3 21.6 C 0 km/h
830 30-08-2008 22:00:02 21.4 C 9.75 g/m*3 21.4 C 0 km/h
831 30-08-2008 22:12:02 21.2 C 9.82 g/m*3 21.2 C 0 km/h
832 30-08-2008 22:24:02 21 C 9.71 g/m*3 21 C 0 km/h
833 30-08-2008 22:36:02 20.7 C 9.72 g/m*3 20.7 C 0 km/h
834 30-08-2008 22:48:02 20.4 C 9.73 g/m*3 20.4 C 0 km/h
835 30-08-2008 23:00:02 20.4 C 9.73 g/m*3 20.4 C 0 km/h
836 30-08-2008 23:12:01 20.1 C 9.73 g/m*3 20.1 C 0 km/h
837 30-08-2008 23:24:02 20 C 9.68 g/m*3 20 C 0 km/h
838 30-08-2008 23:36:01 19.6 C 9.62 g/m*3 19.6 C 0 km/h
839 30-08-2008 23:49:02 19.4 C 9.68 g/m*3 19.4 C 0 km/h
840 31-08-2008 00:01:02 19.2 C 9.73 g/m*3 19.2 C 0 km/h
841 31-08-2008 00:13:02 19.1 C 9.67 g/m*3 19.1 C 0 km/h
842 31-08-2008 00:25:02 18.8 C 9.82 g/m*3 18.8 C 0 km/h
843 31-08-2008 00:37:02 18.6 C 10.03 g/m*3 18.6 C 0 km/h
844 31-08-2008 00:49:02 18.4 C 9.75 g/m*3 18.4 C 0 km/h
845 31-08-2008 01:01:02 18.2 C 9.79 g/m*3 18.2 C 0 km/h
846 31-08-2008 01:13:02 18.1 C 9.73 g/m*3 18.1 C 0 km/h
847 31-08-2008 01:25:02 17.9 C 9.92 g/m*3 17.9 C 0 km/h
848 31-08-2008 01:37:02 17.7 C 9.81 g/m*3 17.7 C 0 km/h
849 31-08-2008 01:49:02 17.5 C 9.69 g/m*3 17.5 C 0 km/h
850 31-08-2008 02:01:02 17.4 C 10.08 g/m*3 17.4 C 0 km/h
Sensor: Nr:Datum:Temp:Abs-Feuchte:Windchill:Wind:
Aussen-T/F 851 31-08-2008 02:13:02 17.1 C 10.19 g/m*3 17.1 C 0 km/h
852 31-08-2008 02:25:02 16.9 C 10.07 g/m*3 16.9 C 0 km/h
853 31-08-2008 02:37:03 16.8 C 10.29 g/m*3 16.8 C 0 km/h
854 31-08-2008 02:49:03 16.6 C 10.03 g/m*3 16.6 C 0 km/h
855 31-08-2008 03:01:03 16.4 C 9.91 g/m*3 16.4 C 0 km/h
856 31-08-2008 03:13:03 16.1 C 9.6 g/m*3 16.1 C 0 km/h
857 31-08-2008 03:25:03 16 C 9.67 g/m*3 16 C 0 km/h
858 31-08-2008 03:37:03 15.9 C 9.89 g/m*3 15.9 C 0 km/h
859 31-08-2008 03:49:03 15.8 C 10.1 g/m*3 15.8 C 0 km/h
860 31-08-2008 04:01:03 15.6 C 9.97 g/m*3 15.6 C 0 km/h
861 31-08-2008 04:13:03 15.6 C 10.11 g/m*3 15.6 C 0 km/h
862 31-08-2008 04:25:03 15.4 C 10.12 g/m*3 15.4 C 0 km/h
863 31-08-2008 04:37:03 15.2 C 9.99 g/m*3 15.2 C 0 km/h
864 31-08-2008 04:49:03 15.1 C 9.93 g/m*3 15.1 C 0 km/h
865 31-08-2008 05:01:03 14.9 C 9.81 g/m*3 14.9 C 0 km/h
866 31-08-2008 05:13:03 14.8 C 9.88 g/m*3 14.8 C 0 km/h
867 31-08-2008 05:25:03 14.7 C 9.69 g/m*3 14.7 C 0 km/h
868 31-08-2008 05:37:03 14.5 C 9.58 g/m*3 14.5 C 0 km/h
869 31-08-2008 05:49:03 14.5 C 9.58 g/m*3 14.5 C 0 km/h
870 31-08-2008 06:01:03 14.3 C 9.46 g/m*3 14.3 C 0 km/h
871 31-08-2008 06:13:03 14.2 C 9.4 g/m*3 14.2 C 0 km/h
872 31-08-2008 06:25:04 14.1 C 9.47 g/m*3 14.1 C 0 km/h
873 31-08-2008 06:37:04 14 C 9.41 g/m*3 14 C 0 km/h
874 31-08-2008 06:49:04 13.9 C 9.59 g/m*3 13.9 C 0 km/h
875 31-08-2008 07:01:04 14 C 9.65 g/m*3 14 C 0 km/h
Sensor: Nr:Datum:Temp:Abs-Feuchte:Windchill:Wind:
Aussen-T/F 876 31-08-2008 07:13:04 14 C 9.53 g/m*3 14 C 0 km/h
877 31-08-2008 07:25:04 14 C 9.53 g/m*3 14 C 0 km/h
878 31-08-2008 07:37:04 14 C 9.65 g/m*3 14 C 0 km/h
879 31-08-2008 07:49:04 14.1 C 9.71 g/m*3 14.1 C 0 km/h
880 31-08-2008 08:01:04 14.2 C 9.77 g/m*3 14.2 C 0 km/h
881 31-08-2008 08:13:04 14.4 C 9.77 g/m*3 14.4 C 0 km/h
882 31-08-2008 08:25:04 14.5 C 9.83 g/m*3 14.5 C 0 km/h
883 31-08-2008 08:37:04 14.6 C 9.89 g/m*3 14.6 C 0 km/h
884 31-08-2008 08:49:01 14.7 C 9.95 g/m*3 14.7 C 0 km/h
885 31-08-2008 09:01:02 15 C 10 g/m*3 15 C 0 km/h
886 31-08-2008 09:13:02 15.4 C 10.12 g/m*3 15.4 C 0 km/h
887 31-08-2008 09:25:02 15.8 C 10.36 g/m*3 15.8 C 0 km/h
888 31-08-2008 09:37:02 16.5 C 10.39 g/m*3 16.5 C 0 km/h
889 31-08-2008 09:49:03 17.1 C 10.19 g/m*3 17.1 C 0 km/h
890 31-08-2008 10:01:02 17.7 C 10.11 g/m*3 17.7 C 0 km/h
891 31-08-2008 10:13:02 18.4 C 9.91 g/m*3 18.4 C 0 km/h
892 31-08-2008 10:25:02 19 C 9.94 g/m*3 19 C 0 km/h
893 31-08-2008 10:37:02 19.3 C 10.12 g/m*3 19.3 C 0 km/h
894 31-08-2008 10:49:03 20 C 10.02 g/m*3 20 C 0 km/h
895 31-08-2008 11:01:02 20.7 C 10.44 g/m*3 20.7 C 0 km/h
896 31-08-2008 11:13:02 21.4 C 10.12 g/m*3 21.4 C 0 km/h
897 31-08-2008 11:25:03 22.1 C 9.76 g/m*3 22.1 C 0 km/h
898 31-08-2008 11:37:02 22.8 C 9.55 g/m*3 22.8 C 0 km/h
899 31-08-2008 11:49:02 23.5 C 9.31 g/m*3 23.5 C 0 km/h
900 31-08-2008 12:01:02 24.1 C 9.63 g/m*3 24.1 C 0 km/h
Sensor: Nr:Datum:Temp:Abs-Feuchte:Windchill:Wind:
Aussen-T/F 901 31-08-2008 12:13:02 24.9 C 8.93 g/m*3 24.9 C 0 km/h
902 31-08-2008 12:25:02 25.3 C 8.43 g/m*3 25.3 C 0 km/h
903 31-08-2008 12:37:02 25.6 C 8.33 g/m*3 25.6 C 0 km/h
904 31-08-2008 12:49:01 26 C 7.79 g/m*3 26 C 0 km/h
905 31-08-2008 13:01:02 26.1 C 7.83 g/m*3 26.1 C 0 km/h
906 31-08-2008 13:13:02 26.6 C 8.31 g/m*3 26.6 C 0 km/h
907 31-08-2008 13:25:01 26.8 C 8.4 g/m*3 26.8 C 0 km/h
908 31-08-2008 13:37:02 27.9 C 8.65 g/m*3 27.9 C 0 km/h
909 31-08-2008 13:49:02 28.3 C 8.29 g/m*3 28.3 C 0 km/h
910 31-08-2008 14:01:02 28.7 C 8.48 g/m*3 28.7 C 0 km/h
911 31-08-2008 14:13:02 28.7 C 8.48 g/m*3 28.7 C 0 km/h
912 31-08-2008 14:25:02 29.7 C 8.65 g/m*3 29.7 C 0 km/h
913 31-08-2008 14:37:02 30.1 C 8.54 g/m*3 30.1 C 0 km/h
914 31-08-2008 14:49:02 30.3 C 8.32 g/m*3 30.3 C 0 km/h
915 31-08-2008 15:01:01 30.4 C 8.06 g/m*3 30.4 C 0 km/h
916 31-08-2008 15:13:01 30.5 C 8.1 g/m*3 30.5 C 0 km/h
917 31-08-2008 15:25:02 31 C 8 g/m*3 31 C 0 km/h
918 31-08-2008 15:37:01 31.2 C 7.76 g/m*3 31.2 C 0 km/h
919 31-08-2008 15:49:02 31.8 C 7.35 g/m*3 31.8 C 0 km/h
920 31-08-2008 16:01:01 31.8 C 7.68 g/m*3 31.8 C 0 km/h
921 31-08-2008 16:13:01 32 C 7.09 g/m*3 32 C 0 km/h
922 31-08-2008 16:25:02 32 C 7.43 g/m*3 32 C 0 km/h
923 31-08-2008 16:37:01 32.3 C 7.2 g/m*3 32.3 C 0 km/h
924 31-08-2008 16:49:01 31.5 C 7.89 g/m*3 31.5 C 0 km/h
925 31-08-2008 17:01:02 31.8 C 7.68 g/m*3 31.8 C 0 km/h
Sensor: Nr:Datum:Temp:Abs-Feuchte:Windchill:Wind:
Aussen-T/F 926 31-08-2008 17:13:02 31.4 C 8.17 g/m*3 31.4 C 0 km/h
927 31-08-2008 17:25:01 31.4 C 8.17 g/m*3 31.4 C 0 km/h
928 31-08-2008 17:37:02 31.6 C 8.26 g/m*3 31.6 C 0 km/h
929 31-08-2008 17:49:02 31.9 C 8.06 g/m*3 31.9 C 0 km/h
930 31-08-2008 18:01:02 32.4 C 7.59 g/m*3 32.4 C 0 km/h
931 31-08-2008 18:13:02 32.3 C 7.55 g/m*3 32.3 C 0 km/h
932 31-08-2008 18:25:02 32.4 C 7.59 g/m*3 32.4 C 0 km/h
933 31-08-2008 18:37:02 32.1 C 7.81 g/m*3 32.1 C 0 km/h
934 31-08-2008 18:49:02 31.9 C 8.39 g/m*3 31.9 C 0 km/h
935 31-08-2008 19:01:02 31.2 C 8.73 g/m*3 31.2 C 0 km/h
936 31-08-2008 19:13:02 30.9 C 9.23 g/m*3 30.9 C 0 km/h
937 31-08-2008 19:25:02 30.6 C 9.4 g/m*3 30.6 C 0 km/h
938 31-08-2008 19:37:02 29.5 C 10.03 g/m*3 29.5 C 0 km/h
939 31-08-2008 19:49:02 28.2 C 10.17 g/m*3 28.2 C 0 km/h
940 31-08-2008 20:01:02 27.1 C 10.35 g/m*3 27.1 C 0 km/h
941 31-08-2008 20:13:03 26.2 C 10.34 g/m*3 26.2 C 0 km/h
942 31-08-2008 20:25:01 25.5 C 10.65 g/m*3 25.5 C 0 km/h
943 31-08-2008 20:37:02 25 C 10.59 g/m*3 25 C 0 km/h
944 31-08-2008 20:49:02 24.9 C 10.99 g/m*3 24.9 C 0 km/h
945 31-08-2008 21:01:02 24.8 C 11.15 g/m*3 24.8 C 0 km/h
946 31-08-2008 21:13:02 24.5 C 11.19 g/m*3 24.5 C 0 km/h
947 31-08-2008 21:25:02 24.5 C 11.41 g/m*3 24.5 C 0 km/h
948 31-08-2008 21:37:02 24.4 C 11.35 g/m*3 24.4 C 0 km/h
949 31-08-2008 21:49:02 24.3 C 11.29 g/m*3 24.3 C 0 km/h
950 31-08-2008 22:01:01 24.1 C 11.38 g/m*3 24.1 C 0 km/h
Sensor: Nr:Datum:Temp:Abs-Feuchte:Windchill:Wind:
Aussen-T/F 951 31-08-2008 22:13:01 23.7 C 11.55 g/m*3 23.7 C 0 km/h
952 31-08-2008 22:25:02 23.3 C 11.71 g/m*3 23.3 C 0 km/h
953 31-08-2008 22:37:02 23 C 11.92 g/m*3 23 C 0 km/h
954 31-08-2008 22:49:03 23 C 11.92 g/m*3 23 C 0 km/h
955 31-08-2008 23:01:02 22.9 C 11.85 g/m*3 22.9 C 0 km/h
956 31-08-2008 23:13:02 22.6 C 11.85 g/m*3 22.6 C 0 km/h
957 31-08-2008 23:25:03 22.8 C 11.99 g/m*3 22.8 C 0 km/h
958 31-08-2008 23:37:02 22.5 C 11.78 g/m*3 22.5 C 0 km/h
959 31-08-2008 23:49:03 22.3 C 11.85 g/m*3 22.3 C 0 km/h
960 01-09-2008 00:02:02 22.1 C 11.71 g/m*3 22.1 C 0 km/h
961 01-09-2008 00:14:02 22.1 C 11.91 g/m*3 22.1 C 0 km/h
962 01-09-2008 00:26:02 22 C 12.03 g/m*3 22 C 0 km/h
963 01-09-2008 00:38:02 22.2 C 12.17 g/m*3 22.2 C 0 km/h
964 01-09-2008 00:50:02 22 C 12.03 g/m*3 22 C 0 km/h
965 01-09-2008 01:02:03 22 C 12.03 g/m*3 22 C 0 km/h
966 01-09-2008 01:14:03 21.9 C 12.16 g/m*3 21.9 C 0 km/h
967 01-09-2008 01:26:03 21.8 C 12.09 g/m*3 21.8 C 0 km/h
968 01-09-2008 01:38:03 21.7 C 12.02 g/m*3 21.7 C 0 km/h
969 01-09-2008 01:50:03 21.8 C 11.9 g/m*3 21.8 C 0 km/h
970 01-09-2008 02:02:03 21.6 C 11.76 g/m*3 21.6 C 0 km/h
971 01-09-2008 02:14:03 21.7 C 11.83 g/m*3 21.7 C 0 km/h
972 01-09-2008 02:26:03 21.7 C 11.83 g/m*3 21.7 C 0 km/h
973 01-09-2008 02:38:03 21.3 C 12.49 g/m*3 21.3 C 0 km/h
974 01-09-2008 02:50:03 20.8 C 12.86 g/m*3 20.8 C 0 km/h
975 01-09-2008 03:02:03 20.6 C 12.35 g/m*3 20.6 C 0 km/h
Sensor: Nr:Datum:Temp:Abs-Feuchte:Windchill:Wind:
Aussen-T/F 976 01-09-2008 03:14:03 20.7 C 11.88 g/m*3 20.7 C 0 km/h
977 01-09-2008 03:26:03 20.9 C 11.47 g/m*3 20.9 C 0 km/h
978 01-09-2008 03:38:03 20.9 C 11.66 g/m*3 20.9 C 0 km/h
979 01-09-2008 03:50:03 20.9 C 11.84 g/m*3 20.9 C 0 km/h
980 01-09-2008 04:02:03 20.8 C 11.77 g/m*3 20.8 C 0 km/h
981 01-09-2008 04:14:03 20.8 C 11.59 g/m*3 20.8 C 0 km/h
982 01-09-2008 04:26:03 20.8 C 11.77 g/m*3 20.8 C 0 km/h
983 01-09-2008 04:38:03 20.8 C 11.59 g/m*3 20.8 C 0 km/h
984 01-09-2008 04:50:04 20.2 C 11.89 g/m*3 20.2 C 0 km/h
985 01-09-2008 05:02:04 20 C 12.1 g/m*3 20 C 0 km/h
986 01-09-2008 05:14:04 19.4 C 12.68 g/m*3 19.4 C 0 km/h
987 01-09-2008 05:26:04 19.1 C 12.95 g/m*3 19.1 C 0 km/h
988 01-09-2008 05:38:04 18.8 C 13.21 g/m*3 18.8 C 0 km/h
989 01-09-2008 05:50:04 18.9 C 13.45 g/m*3 18.9 C 0 km/h
990 01-09-2008 06:02:04 19.1 C 13.44 g/m*3 19.1 C 0 km/h
991 01-09-2008 06:14:04 19.3 C 13.44 g/m*3 19.3 C 0 km/h
992 01-09-2008 06:26:04 19.3 C 13.1 g/m*3 19.3 C 0 km/h
993 01-09-2008 06:38:04 19.1 C 13.11 g/m*3 19.1 C 0 km/h
994 01-09-2008 06:50:04 18.9 C 13.28 g/m*3 18.9 C 0 km/h
995 01-09-2008 07:02:04 18.7 C 13.45 g/m*3 18.7 C 0 km/h
996 01-09-2008 07:14:04 18.6 C 13.53 g/m*3 18.6 C 0 km/h
997 01-09-2008 07:26:04 18.7 C 13.61 g/m*3 18.7 C 0 km/h
998 01-09-2008 07:38:04 18.8 C 13.69 g/m*3 18.8 C 0 km/h
999 01-09-2008 07:50:04 18.9 C 13.77 g/m*3 18.9 C 0 km/h
1000 01-09-2008 08:02:04 18.9 C 13.45 g/m*3 18.9 C 0 km/h
Sensor: Nr:Datum:Temp:Abs-Feuchte:Windchill:Wind:
Aussen-T/F 1001 01-09-2008 08:14:04 19.1 C 13.44 g/m*3 19.1 C 0 km/h
1002 01-09-2008 08:26:04 19.3 C 13.44 g/m*3 19.3 C 0 km/h
1003 01-09-2008 08:38:05 19.1 C 13.11 g/m*3 19.1 C 0 km/h
1004 01-09-2008 08:50:05 19.2 C 13.36 g/m*3 19.2 C 0 km/h
1005 01-09-2008 09:02:05 19.3 C 13.44 g/m*3 19.3 C 0 km/h
1006 01-09-2008 09:14:05 19.3 C 13.44 g/m*3 19.3 C 0 km/h
1007 01-09-2008 09:26:05 19.4 C 13.18 g/m*3 19.4 C 0 km/h
1008 01-09-2008 09:38:03 20.7 C 13.14 g/m*3 20.7 C 0 km/h
1009 01-09-2008 09:50:02 21.2 C 12.23 g/m*3 21.2 C 0 km/h
1010 01-09-2008 10:02:01 21.5 C 11.88 g/m*3 21.5 C 0 km/h
1011 01-09-2008 10:14:01 21.4 C 11.81 g/m*3 21.4 C 0 km/h
1012 01-09-2008 10:26:02 21.2 C 11.68 g/m*3 21.2 C 0 km/h
1013 01-09-2008 10:38:01 21.3 C 11.74 g/m*3 21.3 C 0 km/h
1014 01-09-2008 10:50:01 21.7 C 11.45 g/m*3 21.7 C 0 km/h
1015 01-09-2008 11:02:01 22.1 C 10.93 g/m*3 22.1 C 0 km/h
1016 01-09-2008 11:14:01 22.4 C 10.53 g/m*3 22.4 C 0 km/h
1017 01-09-2008 11:26:01 22.4 C 10.53 g/m*3 22.4 C 0 km/h
1018 01-09-2008 11:38:01 22.6 C 10.45 g/m*3 22.6 C 0 km/h
1019 01-09-2008 11:50:01 22.6 C 9.84 g/m*3 22.6 C 0 km/h
1020 01-09-2008 12:02:02 22.6 C 9.84 g/m*3 22.6 C 0 km/h
1021 01-09-2008 12:14:02 22.5 C 9.99 g/m*3 22.5 C 0 km/h
1022 01-09-2008 12:26:01 21.4 C 9.56 g/m*3 21.4 C 0 km/h
1023 01-09-2008 12:38:02 21.5 C 9.81 g/m*3 21.5 C 0 km/h
1024 01-09-2008 12:50:02 21.5 C 9.81 g/m*3 21.5 C 0 km/h
1025 01-09-2008 13:02:02 22 C 9.9 g/m*3 22 C 0 km/h
Sensor: Nr:Datum:Temp:Abs-Feuchte:Windchill:Wind:
Aussen-T/F 1026 01-09-2008 13:14:02 22.6 C 10.04 g/m*3 22.6 C 0 km/h
1027 01-09-2008 13:26:02 24.1 C 9.63 g/m*3 24.1 C 0 km/h
1028 01-09-2008 13:38:02 24.1 C 7.66 g/m*3 24.1 C 0 km/h
1029 01-09-2008 13:50:02 24 C 7.4 g/m*3 24 C 0 km/h
1030 01-09-2008 14:02:03 24.9 C 7.32 g/m*3 24.9 C 0 km/h
1031 01-09-2008 14:14:03 24.8 C 7.74 g/m*3 24.8 C 0 km/h
1032 01-09-2008 14:26:02 24.5 C 7.39 g/m*3 24.5 C 0 km/h
1033 01-09-2008 14:38:03 24.1 C 7.22 g/m*3 24.1 C 0 km/h
1034 01-09-2008 14:50:02 23.7 C 7.49 g/m*3 23.7 C 0 km/h
1035 01-09-2008 15:02:01 23.5 C 7.82 g/m*3 23.5 C 0 km/h
1036 01-09-2008 15:14:01 23.5 C 8.04 g/m*3 23.5 C 0 km/h
1037 01-09-2008 15:26:02 23.9 C 7.57 g/m*3 23.9 C 0 km/h
1038 01-09-2008 15:38:01 23.5 C 7.19 g/m*3 23.5 C 0 km/h
1039 01-09-2008 15:50:02 23.4 C 7.36 g/m*3 23.4 C 0 km/h
1040 01-09-2008 16:02:01 23.4 C 7.15 g/m*3 23.4 C 0 km/h
1041 01-09-2008 16:14:01 23.4 C 7.36 g/m*3 23.4 C 0 km/h
1042 01-09-2008 16:26:02 23.2 C 7.07 g/m*3 23.2 C 0 km/h
1043 01-09-2008 16:38:01 23.3 C 6.9 g/m*3 23.3 C 0 km/h
1044 01-09-2008 16:50:02 23.3 C 6.9 g/m*3 23.3 C 0 km/h
1045 01-09-2008 17:02:01 23.2 C 6.86 g/m*3 23.2 C 0 km/h
1046 01-09-2008 17:14:01 23.1 C 6.82 g/m*3 23.1 C 0 km/h
1047 01-09-2008 17:26:02 22.9 C 6.95 g/m*3 22.9 C 0 km/h
1048 01-09-2008 17:38:01 22.8 C 7.11 g/m*3 22.8 C 0 km/h
1049 01-09-2008 17:50:01 22.5 C 6.99 g/m*3 22.5 C 0 km/h
1050 01-09-2008 18:02:01 22.5 C 6.99 g/m*3 22.5 C 0 km/h
Sensor: Nr:Datum:Temp:Abs-Feuchte:Windchill:Wind:
Aussen-T/F 1051 01-09-2008 18:14:01 22.7 C 7.07 g/m*3 22.7 C 0 km/h
1052 01-09-2008 18:26:02 22.6 C 6.83 g/m*3 22.6 C 0 km/h
1053 01-09-2008 18:38:01 22 C 6.79 g/m*3 22 C 0 km/h
1054 01-09-2008 18:50:01 21.9 C 7.33 g/m*3 21.9 C 0 km/h
1055 01-09-2008 19:02:02 21.6 C 7.21 g/m*3 21.6 C 0 km/h
1056 01-09-2008 19:14:03 21.4 C 7.31 g/m*3 21.4 C 0 km/h
1057 01-09-2008 19:26:01 21.3 C 7.64 g/m*3 21.3 C 0 km/h
1058 01-09-2008 19:38:02 21 C 7.69 g/m*3 21 C 0 km/h
1059 01-09-2008 19:50:02 20.6 C 7.87 g/m*3 20.6 C 0 km/h
1060 01-09-2008 20:02:02 20 C 7.95 g/m*3 20 C 0 km/h
1061 01-09-2008 20:14:02 19.6 C 7.93 g/m*3 19.6 C 0 km/h
1062 01-09-2008 20:26:02 19.5 C 8.06 g/m*3 19.5 C 0 km/h
1063 01-09-2008 20:38:02 19.4 C 8.18 g/m*3 19.4 C 0 km/h
1064 01-09-2008 20:50:02 19.4 C 8.18 g/m*3 19.4 C 0 km/h
1065 01-09-2008 21:02:02 19.3 C 8.29 g/m*3 19.3 C 0 km/h
1066 01-09-2008 21:14:02 18.9 C 8.26 g/m*3 18.9 C 0 km/h
1067 01-09-2008 21:26:02 18.6 C 8.59 g/m*3 18.6 C 0 km/h
1068 01-09-2008 21:38:02 18.2 C 8.39 g/m*3 18.2 C 0 km/h
1069 01-09-2008 21:50:02 18 C 8.45 g/m*3 18 C 0 km/h
1070 01-09-2008 22:02:02 17.9 C 8.55 g/m*3 17.9 C 0 km/h
1071 01-09-2008 22:14:02 17.7 C 8.6 g/m*3 17.7 C 0 km/h
1072 01-09-2008 22:27:03 17.5 C 8.65 g/m*3 17.5 C 0 km/h
1073 01-09-2008 22:39:03 17.3 C 8.69 g/m*3 17.3 C 0 km/h
1074 01-09-2008 22:51:03 17.3 C 8.69 g/m*3 17.3 C 0 km/h
1075 01-09-2008 23:03:03 17.2 C 8.79 g/m*3 17.2 C 0 km/h
Sensor: Nr:Datum:Temp:Abs-Feuchte:Windchill:Wind:
Aussen-T/F 1076 01-09-2008 23:15:03 17 C 8.83 g/m*3 17 C 0 km/h
1077 01-09-2008 23:27:03 17 C 8.83 g/m*3 17 C 0 km/h
1078 01-09-2008 23:39:03 16.9 C 9.06 g/m*3 16.9 C 0 km/h
1079 01-09-2008 23:51:03 16.8 C 9.15 g/m*3 16.8 C 0 km/h
1080 02-09-2008 00:03:03 16.7 C 9.1 g/m*3 16.7 C 0 km/h
1081 02-09-2008 00:15:03 16.6 C 9.18 g/m*3 16.6 C 0 km/h
1082 02-09-2008 00:27:03 16.6 C 9.18 g/m*3 16.6 C 0 km/h
1083 02-09-2008 00:39:03 16.6 C 9.18 g/m*3 16.6 C 0 km/h
1084 02-09-2008 00:51:03 16.4 C 9.21 g/m*3 16.4 C 0 km/h
1085 02-09-2008 01:03:04 16 C 9.26 g/m*3 16 C 0 km/h
1086 02-09-2008 01:15:04 15.9 C 9.48 g/m*3 15.9 C 0 km/h
1087 02-09-2008 01:27:04 15.7 C 9.5 g/m*3 15.7 C 0 km/h
1088 02-09-2008 01:39:04 15.6 C 9.44 g/m*3 15.6 C 0 km/h
1089 02-09-2008 01:51:04 15.7 C 9.5 g/m*3 15.7 C 0 km/h
1090 02-09-2008 02:03:04 15.6 C 9.44 g/m*3 15.6 C 0 km/h
1091 02-09-2008 02:15:04 15.4 C 9.33 g/m*3 15.4 C 0 km/h
1092 02-09-2008 02:27:04 15.1 C 9.29 g/m*3 15.1 C 0 km/h
1093 02-09-2008 02:39:04 14.9 C 9.43 g/m*3 14.9 C 0 km/h
1094 02-09-2008 02:51:04 14.7 C 9.44 g/m*3 14.7 C 0 km/h
1095 02-09-2008 03:03:04 14.2 C 9.16 g/m*3 14.2 C 0 km/h
1096 02-09-2008 03:15:04 14.3 C 9.34 g/m*3 14.3 C 0 km/h
1097 02-09-2008 03:27:04 14.2 C 9.4 g/m*3 14.2 C 0 km/h
1098 02-09-2008 03:39:04 14 C 9.41 g/m*3 14 C 0 km/h
1099 02-09-2008 03:51:04 14 C 9.53 g/m*3 14 C 0 km/h
1100 02-09-2008 04:03:04 14 C 9.53 g/m*3 14 C 0 km/h
Sensor: Nr:Datum:Temp:Abs-Feuchte:Windchill:Wind:
Aussen-T/F 1101 02-09-2008 04:15:04 13.9 C 9.47 g/m*3 13.9 C 0 km/h
1102 02-09-2008 04:27:04 13.8 C 9.41 g/m*3 13.8 C 0 km/h
1103 02-09-2008 04:39:04 13.5 C 9.36 g/m*3 13.5 C 0 km/h
1104 02-09-2008 04:51:04 13.4 C 9.3 g/m*3 13.4 C 0 km/h
1105 02-09-2008 05:03:05 13.4 C 9.42 g/m*3 13.4 C 0 km/h
1106 02-09-2008 05:15:05 13.3 C 9.36 g/m*3 13.3 C 0 km/h
1107 02-09-2008 05:27:05 13.3 C 9.36 g/m*3 13.3 C 0 km/h
1108 02-09-2008 05:39:05 13.2 C 9.42 g/m*3 13.2 C 0 km/h
1109 02-09-2008 05:51:05 13 C 9.3 g/m*3 13 C 0 km/h
1110 02-09-2008 06:03:05 12.9 C 9.35 g/m*3 12.9 C 0 km/h
1111 02-09-2008 06:15:05 12.8 C 9.3 g/m*3 12.8 C 0 km/h
1112 02-09-2008 06:27:05 12.6 C 9.18 g/m*3 12.6 C 0 km/h
1113 02-09-2008 06:39:05 12.5 C 9.24 g/m*3 12.5 C 0 km/h
1114 02-09-2008 06:51:05 12.4 C 9.18 g/m*3 12.4 C 0 km/h
1115 02-09-2008 07:03:02 12.4 C 9.18 g/m*3 12.4 C 0 km/h
1116 02-09-2008 07:15:02 12.4 C 9.18 g/m*3 12.4 C 0 km/h
1117 02-09-2008 07:27:02 12.5 C 9.24 g/m*3 12.5 C 0 km/h
1118 02-09-2008 07:39:02 12.6 C 9.29 g/m*3 12.6 C 0 km/h
1119 02-09-2008 07:51:01 12.7 C 9.35 g/m*3 12.7 C 0 km/h
1120 02-09-2008 08:03:02 12.8 C 9.52 g/m*3 12.8 C 0 km/h
1121 02-09-2008 08:15:01 13.2 C 9.64 g/m*3 13.2 C 0 km/h
1122 02-09-2008 08:27:01 14 C 10.01 g/m*3 14 C 0 km/h
1123 02-09-2008 08:39:01 14.6 C 10.26 g/m*3 14.6 C 0 km/h
1124 02-09-2008 08:51:01 14.8 C 10.01 g/m*3 14.8 C 0 km/h
1125 02-09-2008 09:03:01 14.6 C 9.64 g/m*3 14.6 C 0 km/h
Sensor: Nr:Datum:Temp:Abs-Feuchte:Windchill:Wind:
Aussen-T/F 1126 02-09-2008 09:15:02 14.8 C 9.88 g/m*3 14.8 C 0 km/h
1127 02-09-2008 09:27:02 15.4 C 9.99 g/m*3 15.4 C 0 km/h
1128 02-09-2008 09:39:01 16.4 C 9.91 g/m*3 16.4 C 0 km/h
1129 02-09-2008 09:51:02 17.2 C 9.81 g/m*3 17.2 C 0 km/h
1130 02-09-2008 10:03:02 17.8 C 10.02 g/m*3 17.8 C 0 km/h
1131 02-09-2008 10:15:02 18.3 C 10.01 g/m*3 18.3 C 0 km/h
1132 02-09-2008 10:27:02 18.6 C 9.87 g/m*3 18.6 C 0 km/h
1133 02-09-2008 10:39:02 19 C 10.1 g/m*3 19 C 0 km/h
1134 02-09-2008 10:51:02 19.5 C 10.07 g/m*3 19.5 C 0 km/h
1135 02-09-2008 11:03:03 20 C 9.68 g/m*3 20 C 0 km/h
1136 02-09-2008 11:15:02 20.3 C 9.15 g/m*3 20.3 C 0 km/h
1137 02-09-2008 11:27:02 20.8 C 9.05 g/m*3 20.8 C 0 km/h
1138 02-09-2008 11:39:03 21.6 C 8.91 g/m*3 21.6 C 0 km/h
1139 02-09-2008 11:51:02 21.9 C 8.88 g/m*3 21.9 C 0 km/h
1140 02-09-2008 12:03:02 21.9 C 8.88 g/m*3 21.9 C 0 km/h
1141 02-09-2008 12:15:02 22 C 8.54 g/m*3 22 C 0 km/h
1142 02-09-2008 12:27:02 22.7 C 8.49 g/m*3 22.7 C 0 km/h
1143 02-09-2008 12:39:01 23 C 8.22 g/m*3 23 C 0 km/h
1144 02-09-2008 12:51:02 23.4 C 8.41 g/m*3 23.4 C 0 km/h
1145 02-09-2008 13:03:02 23.7 C 8.13 g/m*3 23.7 C 0 km/h
1146 02-09-2008 13:15:02 23.5 C 7.61 g/m*3 23.5 C 0 km/h
1147 02-09-2008 13:27:02 23.4 C 7.57 g/m*3 23.4 C 0 km/h
1148 02-09-2008 13:39:02 23.6 C 7.66 g/m*3 23.6 C 0 km/h
1149 02-09-2008 13:51:02 23.6 C 7.44 g/m*3 23.6 C 0 km/h
1150 02-09-2008 14:03:02 24.8 C 7.74 g/m*3 24.8 C 0 km/h
Sensor: Nr:Datum:Temp:Abs-Feuchte:Windchill:Wind:
Aussen-T/F 1151 02-09-2008 14:15:02 24.5 C 7.39 g/m*3 24.5 C 0 km/h
1152 02-09-2008 14:27:02 25.1 C 7.18 g/m*3 25.1 C 0 km/h
1153 02-09-2008 14:39:02 24.8 C 7.28 g/m*3 24.8 C 0 km/h
1154 02-09-2008 14:51:02 25.2 C 7.22 g/m*3 25.2 C 0 km/h
1155 02-09-2008 15:03:02 24.7 C 7.24 g/m*3 24.7 C 0 km/h
1156 02-09-2008 15:15:01 25.5 C 7.34 g/m*3 25.5 C 0 km/h
1157 02-09-2008 15:27:01 25.5 C 7.1 g/m*3 25.5 C 0 km/h
1158 02-09-2008 15:39:02 25.7 C 7.42 g/m*3 25.7 C 0 km/h
1159 02-09-2008 15:51:02 24.9 C 7.32 g/m*3 24.9 C 0 km/h
1160 02-09-2008 16:03:02 24.8 C 7.06 g/m*3 24.8 C 0 km/h
1161 02-09-2008 16:15:02 24.6 C 7.2 g/m*3 24.6 C 0 km/h
1162 02-09-2008 16:27:03 24.4 C 7.12 g/m*3 24.4 C 0 km/h
1163 02-09-2008 16:39:02 24.5 C 7.16 g/m*3 24.5 C 0 km/h
1164 02-09-2008 16:51:02 24.1 C 7.22 g/m*3 24.1 C 0 km/h
1165 02-09-2008 17:03:02 24 C 7.18 g/m*3 24 C 0 km/h
1166 02-09-2008 17:15:02 24 C 7.4 g/m*3 24 C 0 km/h
1167 02-09-2008 17:27:02 24.1 C 7.44 g/m*3 24.1 C 0 km/h
1168 02-09-2008 17:39:01 25.1 C 7.64 g/m*3 25.1 C 0 km/h
1169 02-09-2008 17:51:01 24.8 C 7.74 g/m*3 24.8 C 0 km/h
1170 02-09-2008 18:03:02 24.3 C 7.75 g/m*3 24.3 C 0 km/h
1171 02-09-2008 18:15:02 24.1 C 7.88 g/m*3 24.1 C 0 km/h
1172 02-09-2008 18:27:02 23.9 C 8 g/m*3 23.9 C 0 km/h
1173 02-09-2008 18:39:02 23.7 C 8.13 g/m*3 23.7 C 0 km/h
1174 02-09-2008 18:51:01 23.6 C 7.87 g/m*3 23.6 C 0 km/h
1175 02-09-2008 19:03:02 23.9 C 8 g/m*3 23.9 C 0 km/h
Sensor: Nr:Datum:Temp:Abs-Feuchte:Windchill:Wind:
Aussen-T/F 1176 02-09-2008 19:15:01 23.7 C 8.13 g/m*3 23.7 C 0 km/h
1177 02-09-2008 19:27:01 23.3 C 7.95 g/m*3 23.3 C 0 km/h
1178 02-09-2008 19:39:02 22.8 C 8.13 g/m*3 22.8 C 0 km/h
1179 02-09-2008 19:51:02 22.5 C 8.19 g/m*3 22.5 C 0 km/h
1180 02-09-2008 20:03:02 22.3 C 8.29 g/m*3 22.3 C 0 km/h
1181 02-09-2008 20:15:02 22.1 C 8.2 g/m*3 22.1 C 0 km/h
1182 02-09-2008 20:27:02 22 C 8.15 g/m*3 22 C 0 km/h
1183 02-09-2008 20:39:02 21.8 C 8.63 g/m*3 21.8 C 0 km/h
1184 02-09-2008 20:51:01 21.6 C 8.53 g/m*3 21.6 C 0 km/h
1185 02-09-2008 21:03:02 21.4 C 8.62 g/m*3 21.4 C 0 km/h
1186 02-09-2008 21:15:01 21.2 C 8.71 g/m*3 21.2 C 0 km/h
1187 02-09-2008 21:27:01 21.1 C 8.84 g/m*3 21.1 C 0 km/h
1188 02-09-2008 21:39:02 20.9 C 8.92 g/m*3 20.9 C 0 km/h
1189 02-09-2008 21:51:02 20.8 C 9.05 g/m*3 20.8 C 0 km/h
1190 02-09-2008 22:03:01 20.7 C 9 g/m*3 20.7 C 0 km/h
1191 02-09-2008 22:16:05 20.2 C 9.09 g/m*3 20.2 C 0 km/h
1192 02-09-2008 22:28:05 20 C 8.99 g/m*3 20 C 0 km/h
1193 02-09-2008 22:40:05 20 C 9.16 g/m*3 20 C 0 km/h
1194 02-09-2008 22:52:05 20.3 C 9.15 g/m*3 20.3 C 0 km/h
1195 02-09-2008 23:04:05 20.2 C 9.27 g/m*3 20.2 C 0 km/h
1196 02-09-2008 23:16:05 20.2 C 9.27 g/m*3 20.2 C 0 km/h
1197 02-09-2008 23:28:05 20.1 C 9.39 g/m*3 20.1 C 0 km/h
1198 02-09-2008 23:40:05 20.2 C 9.44 g/m*3 20.2 C 0 km/h
1199 02-09-2008 23:52:05 20.4 C 9.38 g/m*3 20.4 C 0 km/h
1200 03-09-2008 00:04:05 20.7 C 9.36 g/m*3 20.7 C 0 km/h
Sensor: Nr:Datum:Temp:Abs-Feuchte:Windchill:Wind:
Aussen-T/F 1201 03-09-2008 00:16:05 20.8 C 9.42 g/m*3 20.8 C 0 km/h
1202 03-09-2008 00:28:05 20.4 C 9.73 g/m*3 20.4 C 0 km/h
1203 03-09-2008 00:40:05 18.4 C 11.17 g/m*3 18.4 C 0 km/h
1204 03-09-2008 00:52:06 18 C 11.83 g/m*3 18 C 0 km/h
1205 03-09-2008 01:04:06 17.8 C 12.29 g/m*3 17.8 C 0 km/h
1206 03-09-2008 01:16:06 18 C 12.44 g/m*3 18 C 0 km/h
1207 03-09-2008 01:28:06 18.4 C 12.58 g/m*3 18.4 C 0 km/h
1208 03-09-2008 01:40:06 18.5 C 12.5 g/m*3 18.5 C 0 km/h
1209 03-09-2008 01:52:06 18.6 C 12.41 g/m*3 18.6 C 0 km/h
1210 03-09-2008 02:04:06 18.6 C 12.26 g/m*3 18.6 C 0 km/h
1211 03-09-2008 02:16:06 18.4 C 12.11 g/m*3 18.4 C 0 km/h
1212 03-09-2008 02:28:06 18.4 C 11.95 g/m*3 18.4 C 0 km/h
1213 03-09-2008 02:40:06 18.3 C 11.88 g/m*3 18.3 C 0 km/h
1214 03-09-2008 02:52:06 18.3 C 11.73 g/m*3 18.3 C 0 km/h
1215 03-09-2008 03:04:06 18.5 C 11.87 g/m*3 18.5 C 0 km/h
1216 03-09-2008 03:16:06 18.6 C 11.78 g/m*3 18.6 C 0 km/h
1217 03-09-2008 03:28:06 18.5 C 11.71 g/m*3 18.5 C 0 km/h
1218 03-09-2008 03:40:06 17.5 C 12.37 g/m*3 17.5 C 0 km/h
1219 03-09-2008 03:52:06 17 C 12.3 g/m*3 17 C 0 km/h
1220 03-09-2008 04:04:06 16.6 C 12.29 g/m*3 16.6 C 0 km/h
1221 03-09-2008 04:16:06 16.4 C 12.42 g/m*3 16.4 C 0 km/h
1222 03-09-2008 04:28:06 16.2 C 12.27 g/m*3 16.2 C 0 km/h
1223 03-09-2008 04:40:06 16.2 C 12.41 g/m*3 16.2 C 0 km/h
1224 03-09-2008 04:52:06 16 C 12.26 g/m*3 16 C 0 km/h
1225 03-09-2008 05:04:07 15.9 C 12.32 g/m*3 15.9 C 0 km/h
Sensor: Nr:Datum:Temp:Abs-Feuchte:Windchill:Wind:
Aussen-T/F 1226 03-09-2008 05:16:07 15.9 C 12.46 g/m*3 15.9 C 0 km/h
1227 03-09-2008 05:28:07 15.8 C 12.38 g/m*3 15.8 C 0 km/h
1228 03-09-2008 05:40:07 15.8 C 12.38 g/m*3 15.8 C 0 km/h
1229 03-09-2008 05:52:07 15.7 C 12.31 g/m*3 15.7 C 0 km/h
1230 03-09-2008 06:04:02 15.6 C 12.37 g/m*3 15.6 C 0 km/h
1231 03-09-2008 06:16:02 15.5 C 12.29 g/m*3 15.5 C 0 km/h
1232 03-09-2008 06:28:02 15.5 C 12.29 g/m*3 15.5 C 0 km/h
1233 03-09-2008 06:40:02 15.5 C 12.29 g/m*3 15.5 C 0 km/h
1234 03-09-2008 06:52:02 15.4 C 12.22 g/m*3 15.4 C 0 km/h
1235 03-09-2008 07:04:02 15.1 C 11.87 g/m*3 15.1 C 0 km/h
1236 03-09-2008 07:16:02 14.8 C 11.53 g/m*3 14.8 C 0 km/h
1237 03-09-2008 07:28:02 14.8 C 11.53 g/m*3 14.8 C 0 km/h
1238 03-09-2008 07:40:02 14.9 C 11.6 g/m*3 14.9 C 0 km/h
1239 03-09-2008 07:52:02 14.8 C 11.4 g/m*3 14.8 C 0 km/h
1240 03-09-2008 08:04:02 15 C 10.9 g/m*3 15 C 0 km/h
1241 03-09-2008 08:16:02 15.1 C 10.71 g/m*3 15.1 C 0 km/h
1242 03-09-2008 08:28:02 15 C 10.51 g/m*3 15 C 0 km/h
1243 03-09-2008 08:40:02 15.1 C 10.06 g/m*3 15.1 C 0 km/h
1244 03-09-2008 08:52:01 15.2 C 9.99 g/m*3 15.2 C 0 km/h
1245 03-09-2008 09:04:02 15.6 C 10.24 g/m*3 15.6 C 0 km/h
1246 03-09-2008 09:16:01 15.9 C 10.16 g/m*3 15.9 C 0 km/h
1247 03-09-2008 09:28:01 15.8 C 9.83 g/m*3 15.8 C 0 km/h
1248 03-09-2008 09:40:02 16.1 C 10.01 g/m*3 16.1 C 0 km/h
1249 03-09-2008 09:52:01 16.1 C 9.6 g/m*3 16.1 C 0 km/h
1250 03-09-2008 10:04:01 16 C 9.26 g/m*3 16 C 0 km/h
Sensor: Nr:Datum:Temp:Abs-Feuchte:Windchill:Wind:
Aussen-T/F 1251 03-09-2008 10:16:02 16.2 C 9.24 g/m*3 16.2 C 0 km/h
1252 03-09-2008 10:28:02 16.6 C 9.04 g/m*3 16.6 C 0 km/h
1253 03-09-2008 10:40:01 16.7 C 9.24 g/m*3 16.7 C 0 km/h
1254 03-09-2008 10:52:01 16.6 C 8.9 g/m*3 16.6 C 0 km/h
1255 03-09-2008 11:04:02 16.8 C 9.01 g/m*3 16.8 C 0 km/h
1256 03-09-2008 11:16:01 16.6 C 8.9 g/m*3 16.6 C 0 km/h
1257 03-09-2008 11:28:01 16.8 C 8.86 g/m*3 16.8 C 0 km/h
1258 03-09-2008 11:40:02 16.6 C 8.9 g/m*3 16.6 C 0 km/h
1259 03-09-2008 11:52:02 16.5 C 8.57 g/m*3 16.5 C 0 km/h
1260 03-09-2008 12:04:02 16.7 C 8.67 g/m*3 16.7 C 0 km/h
1261 03-09-2008 12:16:02 16.9 C 8.77 g/m*3 16.9 C 0 km/h
1262 03-09-2008 12:28:02 17 C 9.55 g/m*3 17 C 0 km/h
1263 03-09-2008 12:40:02 17.2 C 9.37 g/m*3 17.2 C 0 km/h
1264 03-09-2008 12:52:01 17.5 C 8.65 g/m*3 17.5 C 0 km/h
1265 03-09-2008 13:04:02 17.7 C 8.3 g/m*3 17.7 C 0 km/h
1266 03-09-2008 13:16:01 17.4 C 8.45 g/m*3 17.4 C 0 km/h
1267 03-09-2008 13:28:01 17.3 C 8.25 g/m*3 17.3 C 0 km/h
1268 03-09-2008 13:40:02 17 C 8.39 g/m*3 17 C 0 km/h
1269 03-09-2008 13:52:02 15.9 C 9.34 g/m*3 15.9 C 0 km/h
1270 03-09-2008 14:04:02 14.9 C 9.94 g/m*3 14.9 C 0 km/h
1271 03-09-2008 14:16:02 14.9 C 10.32 g/m*3 14.9 C 0 km/h
1272 03-09-2008 14:28:03 14.4 C 10.01 g/m*3 14.4 C 0 km/h
1273 03-09-2008 14:40:02 13.6 C 9.42 g/m*3 13.6 C 0 km/h
1274 03-09-2008 14:52:02 13.6 C 9.65 g/m*3 13.6 C 0 km/h
1275 03-09-2008 15:04:02 13.8 C 10.01 g/m*3 13.8 C 0 km/h
Sensor: Nr:Datum:Temp:Abs-Feuchte:Windchill:Wind:
Aussen-T/F 1276 03-09-2008 15:16:02 13.9 C 10.19 g/m*3 13.9 C 0 km/h
1277 03-09-2008 15:28:02 13.8 C 10.25 g/m*3 13.8 C 0 km/h
1278 03-09-2008 15:40:02 13.8 C 10.13 g/m*3 13.8 C 0 km/h
1279 03-09-2008 15:52:01 13.7 C 10.18 g/m*3 13.7 C 0 km/h
1280 03-09-2008 16:04:02 13.7 C 10.18 g/m*3 13.7 C 0 km/h
1281 03-09-2008 16:16:02 13.5 C 10.06 g/m*3 13.5 C 0 km/h
1282 03-09-2008 16:28:02 13.7 C 10.3 g/m*3 13.7 C 0 km/h
1283 03-09-2008 16:40:02 14 C 10.49 g/m*3 14 C 0 km/h
1284 03-09-2008 16:52:02 14 C 10.49 g/m*3 14 C 0 km/h
1285 03-09-2008 17:04:02 13.6 C 10.36 g/m*3 13.6 C 0 km/h
1286 03-09-2008 17:16:02 13.5 C 10.29 g/m*3 13.5 C 0 km/h
1287 03-09-2008 17:28:02 14 C 10.61 g/m*3 14 C 0 km/h
1288 03-09-2008 17:40:02 13.9 C 10.67 g/m*3 13.9 C 0 km/h
1289 03-09-2008 17:52:01 14.1 C 10.68 g/m*3 14.1 C 0 km/h
1290 03-09-2008 18:04:02 13.9 C 10.67 g/m*3 13.9 C 0 km/h
1291 03-09-2008 18:16:01 13.7 C 10.54 g/m*3 13.7 C 0 km/h
1292 03-09-2008 18:28:01 13.7 C 10.54 g/m*3 13.7 C 0 km/h
1293 03-09-2008 18:40:02 13.5 C 10.41 g/m*3 13.5 C 0 km/h
1294 03-09-2008 18:52:02 13.4 C 10.35 g/m*3 13.4 C 0 km/h
1295 03-09-2008 19:04:02 13.3 C 10.28 g/m*3 13.3 C 0 km/h
1296 03-09-2008 19:16:02 13 C 9.98 g/m*3 13 C 0 km/h
1297 03-09-2008 19:28:02 12.8 C 9.86 g/m*3 12.8 C 0 km/h
1298 03-09-2008 19:40:02 12.8 C 9.97 g/m*3 12.8 C 0 km/h
1299 03-09-2008 19:52:02 12.7 C 9.8 g/m*3 12.7 C 0 km/h
1300 03-09-2008 20:04:01 12.8 C 9.97 g/m*3 12.8 C 0 km/h
Sensor: Nr:Datum:Temp:Abs-Feuchte:Windchill:Wind:
Aussen-T/F 1301 03-09-2008 20:16:02 12.7 C 9.8 g/m*3 12.7 C 0 km/h
1302 03-09-2008 20:28:02 12.5 C 9.57 g/m*3 12.5 C 0 km/h
1303 03-09-2008 20:40:02 12.4 C 9.4 g/m*3 12.4 C 0 km/h
1304 03-09-2008 20:52:02 12.4 C 9.4 g/m*3 12.4 C 0 km/h
1305 03-09-2008 21:04:02 12.4 C 9.4 g/m*3 12.4 C 0 km/h
1306 03-09-2008 21:16:01 12.2 C 9.28 g/m*3 12.2 C 0 km/h
1307 03-09-2008 21:28:01 12.1 C 9.22 g/m*3 12.1 C 0 km/h
1308 03-09-2008 21:40:02 12.1 C 9.22 g/m*3 12.1 C 0 km/h
1309 03-09-2008 21:52:02 12.1 C 9.12 g/m*3 12.1 C 0 km/h
1310 03-09-2008 22:04:02 12 C 9.06 g/m*3 12 C 0 km/h
1311 03-09-2008 22:16:02 11.8 C 8.95 g/m*3 11.8 C 0 km/h
1312 03-09-2008 22:28:02 11.7 C 8.89 g/m*3 11.7 C 0 km/h
1313 03-09-2008 22:41:02 11.6 C 8.73 g/m*3 11.6 C 0 km/h
1314 03-09-2008 22:53:02 11.5 C 8.68 g/m*3 11.5 C 0 km/h
1315 03-09-2008 23:05:02 11.4 C 8.72 g/m*3 11.4 C 0 km/h
1316 03-09-2008 23:17:02 11.3 C 8.77 g/m*3 11.3 C 0 km/h
1317 03-09-2008 23:29:02 11.3 C 8.77 g/m*3 11.3 C 0 km/h
1318 03-09-2008 23:41:02 11.4 C 8.83 g/m*3 11.4 C 0 km/h
1319 03-09-2008 23:53:02 11.4 C 8.72 g/m*3 11.4 C 0 km/h
1320 04-09-2008 00:05:02 11.2 C 8.51 g/m*3 11.2 C 0 km/h
1321 04-09-2008 00:17:02 11.1 C 8.46 g/m*3 11.1 C 0 km/h
1322 04-09-2008 00:29:02 11 C 8.51 g/m*3 11 C 0 km/h
1323 04-09-2008 00:41:02 10.8 C 8.4 g/m*3 10.8 C 0 km/h
1324 04-09-2008 00:53:02 10.5 C 8.34 g/m*3 10.5 C 0 km/h
1325 04-09-2008 01:05:02 10.1 C 8.13 g/m*3 10.1 C 0 km/h
Sensor: Nr:Datum:Temp:Abs-Feuchte:Windchill:Wind:
Aussen-T/F 1326 04-09-2008 01:17:02 10 C 8.17 g/m*3 10 C 0 km/h
1327 04-09-2008 01:29:03 10.1 C 8.32 g/m*3 10.1 C 0 km/h
1328 04-09-2008 01:41:03 10.1 C 8.32 g/m*3 10.1 C 0 km/h
1329 04-09-2008 01:53:03 10.4 C 8.58 g/m*3 10.4 C 0 km/h
1330 04-09-2008 02:05:03 10.4 C 8.48 g/m*3 10.4 C 0 km/h
1331 04-09-2008 02:17:03 10.4 C 8.48 g/m*3 10.4 C 0 km/h
1332 04-09-2008 02:29:03 10.3 C 8.33 g/m*3 10.3 C 0 km/h
1333 04-09-2008 02:41:03 10.1 C 8.23 g/m*3 10.1 C 0 km/h
1334 04-09-2008 02:53:03 10 C 8.17 g/m*3 10 C 0 km/h
1335 04-09-2008 03:05:03 9.7 C 8.2 g/m*3 9.7 C 0 km/h
1336 04-09-2008 03:17:03 9.6 C 8.15 g/m*3 9.6 C 0 km/h
1337 04-09-2008 03:29:03 9.5 C 8.1 g/m*3 9.5 C 0 km/h
1338 04-09-2008 03:41:03 9.5 C 8.19 g/m*3 9.5 C 0 km/h
1339 04-09-2008 03:53:03 9.4 C 8.14 g/m*3 9.4 C 0 km/h
1340 04-09-2008 04:05:03 9.4 C 8.14 g/m*3 9.4 C 0 km/h
1341 04-09-2008 04:17:03 9.4 C 8.14 g/m*3 9.4 C 0 km/h
1342 04-09-2008 04:29:03 9.4 C 8.14 g/m*3 9.4 C 0 km/h
1343 04-09-2008 04:41:03 9.3 C 8.09 g/m*3 9.3 C 0 km/h
1344 04-09-2008 04:53:03 9.2 C 8.04 g/m*3 9.2 C 0 km/h
1345 04-09-2008 05:05:03 9.2 C 8.13 g/m*3 9.2 C 0 km/h
1346 04-09-2008 05:17:03 9.2 C 8.13 g/m*3 9.2 C 0 km/h
1347 04-09-2008 05:29:04 9.1 C 8.07 g/m*3 9.1 C 0 km/h
1348 04-09-2008 05:41:04 9 C 8.02 g/m*3 9 C 0 km/h
1349 04-09-2008 05:53:04 8.9 C 8.06 g/m*3 8.9 C 0 km/h
1350 04-09-2008 06:05:04 8.7 C 7.96 g/m*3 8.7 C 0 km/h
Sensor: Nr:Datum:Temp:Abs-Feuchte:Windchill:Wind:
Aussen-T/F 1351 04-09-2008 06:17:04 8.6 C 7.91 g/m*3 8.6 C 0 km/h
1352 04-09-2008 06:29:04 8.5 C 7.85 g/m*3 8.5 C 0 km/h
1353 04-09-2008 06:41:04 8.6 C 7.91 g/m*3 8.6 C 0 km/h
1354 04-09-2008 06:53:04 8.8 C 8.09 g/m*3 8.8 C 0 km/h
1355 04-09-2008 07:05:02 9.1 C 8.16 g/m*3 9.1 C 0 km/h
1356 04-09-2008 07:17:01 9.3 C 8.27 g/m*3 9.3 C 0 km/h
1357 04-09-2008 07:29:01 9.4 C 8.32 g/m*3 9.4 C 0 km/h
1358 04-09-2008 07:41:02 9.5 C 8.37 g/m*3 9.5 C 0 km/h
1359 04-09-2008 07:53:02 9.5 C 8.28 g/m*3 9.5 C 0 km/h
1360 04-09-2008 08:05:02 9.5 C 8.28 g/m*3 9.5 C 0 km/h
1361 04-09-2008 08:17:02 9.8 C 8.44 g/m*3 9.8 C 0 km/h
1362 04-09-2008 08:29:02 9.9 C 8.5 g/m*3 9.9 C 0 km/h
1363 04-09-2008 08:41:02 10.1 C 8.42 g/m*3 10.1 C 0 km/h
1364 04-09-2008 08:53:01 10.4 C 8.58 g/m*3 10.4 C 0 km/h
1365 04-09-2008 09:05:02 10.6 C 8.69 g/m*3 10.6 C 0 km/h
1366 04-09-2008 09:17:01 10.8 C 8.8 g/m*3 10.8 C 0 km/h
1367 04-09-2008 09:29:01 11.2 C 8.92 g/m*3 11.2 C 0 km/h
1368 04-09-2008 09:41:02 12 C 9.06 g/m*3 12 C 0 km/h
1369 04-09-2008 09:53:02 12.6 C 8.96 g/m*3 12.6 C 0 km/h
1370 04-09-2008 10:05:02 13.5 C 8.54 g/m*3 13.5 C 0 km/h
1371 04-09-2008 10:17:02 14 C 8.2 g/m*3 14 C 0 km/h
1372 04-09-2008 10:29:02 14.5 C 8.21 g/m*3 14.5 C 0 km/h
1373 04-09-2008 10:41:02 14.8 C 8.11 g/m*3 14.8 C 0 km/h
1374 04-09-2008 10:53:02 14.7 C 7.93 g/m*3 14.7 C 0 km/h
1375 04-09-2008 11:05:03 15.2 C 7.79 g/m*3 15.2 C 0 km/h
Sensor: Nr:Datum:Temp:Abs-Feuchte:Windchill:Wind:
Aussen-T/F 1376 04-09-2008 11:17:02 14.5 C 7.59 g/m*3 14.5 C 0 km/h
1377 04-09-2008 11:29:02 14.5 C 7.59 g/m*3 14.5 C 0 km/h
1378 04-09-2008 11:41:03 14.7 C 7.68 g/m*3 14.7 C 0 km/h
1379 04-09-2008 11:53:02 15.6 C 7.58 g/m*3 15.6 C 0 km/h
1380 04-09-2008 12:05:02 16.2 C 7.45 g/m*3 16.2 C 0 km/h
1381 04-09-2008 12:17:02 16.4 C 7.54 g/m*3 16.4 C 0 km/h
1382 04-09-2008 12:29:02 16.6 C 7.63 g/m*3 16.6 C 0 km/h
1383 04-09-2008 12:41:02 17.1 C 7.42 g/m*3 17.1 C 0 km/h
1384 04-09-2008 12:53:02 16.8 C 7.58 g/m*3 16.8 C 0 km/h
1385 04-09-2008 13:05:01 17.2 C 7.32 g/m*3 17.2 C 0 km/h
1386 04-09-2008 13:17:02 17.6 C 7.5 g/m*3 17.6 C 0 km/h
1387 04-09-2008 13:29:03 17.7 C 7.24 g/m*3 17.7 C 0 km/h
1388 04-09-2008 13:41:01 18 C 7.07 g/m*3 18 C 0 km/h
1389 04-09-2008 13:53:03 17.2 C 6.88 g/m*3 17.2 C 0 km/h
1390 04-09-2008 14:05:02 17.1 C 6.84 g/m*3 17.1 C 0 km/h
1391 04-09-2008 14:17:02 17.2 C 6.74 g/m*3 17.2 C 0 km/h
1392 04-09-2008 14:29:02 17.2 C 6.59 g/m*3 17.2 C 0 km/h
1393 04-09-2008 14:41:02 17.2 C 6.59 g/m*3 17.2 C 0 km/h
1394 04-09-2008 14:53:03 17.1 C 6.55 g/m*3 17.1 C 0 km/h
1395 04-09-2008 15:05:02 17.5 C 6.86 g/m*3 17.5 C 0 km/h
1396 04-09-2008 15:17:02 17.6 C 6.75 g/m*3 17.6 C 0 km/h
1397 04-09-2008 15:29:02 17.4 C 6.52 g/m*3 17.4 C 0 km/h
1398 04-09-2008 15:41:02 18 C 6.45 g/m*3 18 C 0 km/h
1399 04-09-2008 15:53:02 19 C 6.52 g/m*3 19 C 0 km/h
1400 04-09-2008 16:05:02 19.9 C 6.53 g/m*3 19.9 C 0 km/h
Sensor: Nr:Datum:Temp:Abs-Feuchte:Windchill:Wind:
Aussen-T/F 1401 04-09-2008 16:17:02 18.8 C 6.28 g/m*3 18.8 C 0 km/h
1402 04-09-2008 16:29:02 18.6 C 6.05 g/m*3 18.6 C 0 km/h
1403 04-09-2008 16:41:03 19.2 C 6.27 g/m*3 19.2 C 0 km/h
1404 04-09-2008 16:53:02 19 C 5.87 g/m*3 19 C 0 km/h
1405 04-09-2008 17:05:02 19.8 C 5.81 g/m*3 19.8 C 0 km/h
1406 04-09-2008 17:17:02 20 C 5.88 g/m*3 20 C 0 km/h
1407 04-09-2008 17:29:02 19.8 C 5.81 g/m*3 19.8 C 0 km/h
1408 04-09-2008 17:41:02 19.6 C 5.91 g/m*3 19.6 C 0 km/h
1409 04-09-2008 17:53:02 19.3 C 5.81 g/m*3 19.3 C 0 km/h
1410 04-09-2008 18:05:01 19.3 C 6.14 g/m*3 19.3 C 0 km/h
1411 04-09-2008 18:17:01 19.1 C 5.9 g/m*3 19.1 C 0 km/h
1412 04-09-2008 18:29:01 18.8 C 6.12 g/m*3 18.8 C 0 km/h
1413 04-09-2008 18:41:01 18.3 C 5.94 g/m*3 18.3 C 0 km/h
1414 04-09-2008 18:53:02 17.8 C 6.07 g/m*3 17.8 C 0 km/h
1415 04-09-2008 19:05:02 17.7 C 6.34 g/m*3 17.7 C 0 km/h
1416 04-09-2008 19:17:02 17.3 C 6.33 g/m*3 17.3 C 0 km/h
1417 04-09-2008 19:29:02 16.8 C 6.58 g/m*3 16.8 C 0 km/h
1418 04-09-2008 19:41:02 16.5 C 6.88 g/m*3 16.5 C 0 km/h
1419 04-09-2008 19:53:03 16.1 C 6.99 g/m*3 16.1 C 0 km/h
1420 04-09-2008 20:05:02 15.6 C 7.31 g/m*3 15.6 C 0 km/h
1421 04-09-2008 20:17:02 15.2 C 7.4 g/m*3 15.2 C 0 km/h
1422 04-09-2008 20:29:02 14.9 C 7.52 g/m*3 14.9 C 0 km/h
1423 04-09-2008 20:41:02 14.7 C 7.3 g/m*3 14.7 C 0 km/h
1424 04-09-2008 20:53:02 14.3 C 7.13 g/m*3 14.3 C 0 km/h
1425 04-09-2008 21:05:02 14.3 C 7.13 g/m*3 14.3 C 0 km/h
Sensor: Nr:Datum:Temp:Abs-Feuchte:Windchill:Wind:
Aussen-T/F 1426 04-09-2008 21:17:02 14.4 C 7.17 g/m*3 14.4 C 0 km/h
1427 04-09-2008 21:29:02 14.7 C 6.8 g/m*3 14.7 C 0 km/h
1428 04-09-2008 21:41:02 14.7 C 6.92 g/m*3 14.7 C 0 km/h
1429 04-09-2008 21:54:03 14.4 C 7.05 g/m*3 14.4 C 0 km/h
1430 04-09-2008 22:06:03 14.4 C 7.29 g/m*3 14.4 C 0 km/h
1431 04-09-2008 22:18:03 14.3 C 7.37 g/m*3 14.3 C 0 km/h
1432 04-09-2008 22:30:03 14.2 C 7.57 g/m*3 14.2 C 0 km/h
1433 04-09-2008 22:42:03 14 C 7.72 g/m*3 14 C 0 km/h
1434 04-09-2008 22:54:03 14 C 7.84 g/m*3 14 C 0 km/h
1435 04-09-2008 23:06:03 13.9 C 8.03 g/m*3 13.9 C 0 km/h
1436 04-09-2008 23:18:03 13.9 C 8.15 g/m*3 13.9 C 0 km/h
1437 04-09-2008 23:30:03 13.8 C 8.34 g/m*3 13.8 C 0 km/h
1438 04-09-2008 23:42:03 13.8 C 8.34 g/m*3 13.8 C 0 km/h
1439 04-09-2008 23:54:04 13.8 C 8.34 g/m*3 13.8 C 0 km/h
1440 05-09-2008 00:06:04 13.8 C 8.34 g/m*3 13.8 C 0 km/h
1441 05-09-2008 00:18:04 13.7 C 8.29 g/m*3 13.7 C 0 km/h
1442 05-09-2008 00:30:04 13.6 C 8.36 g/m*3 13.6 C 0 km/h
1443 05-09-2008 00:42:04 13.6 C 8.47 g/m*3 13.6 C 0 km/h
1444 05-09-2008 00:54:04 13.3 C 8.55 g/m*3 13.3 C 0 km/h
1445 05-09-2008 01:06:04 13.2 C 8.84 g/m*3 13.2 C 0 km/h
1446 05-09-2008 01:18:04 13.2 C 8.96 g/m*3 13.2 C 0 km/h
1447 05-09-2008 01:30:04 13.3 C 9.01 g/m*3 13.3 C 0 km/h
1448 05-09-2008 01:42:04 13.3 C 9.01 g/m*3 13.3 C 0 km/h
1449 05-09-2008 01:54:04 13.2 C 8.84 g/m*3 13.2 C 0 km/h
1450 05-09-2008 02:06:04 13.2 C 8.84 g/m*3 13.2 C 0 km/h
Sensor: Nr:Datum:Temp:Abs-Feuchte:Windchill:Wind:
Aussen-T/F 1451 05-09-2008 02:18:04 13.3 C 8.9 g/m*3 13.3 C 0 km/h
1452 05-09-2008 02:30:04 13.2 C 8.84 g/m*3 13.2 C 0 km/h
1453 05-09-2008 02:42:04 13.2 C 8.96 g/m*3 13.2 C 0 km/h
1454 05-09-2008 02:54:04 13 C 8.96 g/m*3 13 C 0 km/h
1455 05-09-2008 03:06:04 13 C 9.19 g/m*3 13 C 0 km/h
1456 05-09-2008 03:18:04 13 C 9.19 g/m*3 13 C 0 km/h
1457 05-09-2008 03:30:04 12.8 C 9.3 g/m*3 12.8 C 0 km/h
1458 05-09-2008 03:42:04 12.7 C 9.35 g/m*3 12.7 C 0 km/h
1459 05-09-2008 03:54:04 12.7 C 9.46 g/m*3 12.7 C 0 km/h
1460 05-09-2008 04:06:05 12.8 C 9.52 g/m*3 12.8 C 0 km/h
1461 05-09-2008 04:18:05 12.7 C 9.46 g/m*3 12.7 C 0 km/h
1462 05-09-2008 04:30:05 12.5 C 9.35 g/m*3 12.5 C 0 km/h
1463 05-09-2008 04:42:05 12.3 C 9.23 g/m*3 12.3 C 0 km/h
1464 05-09-2008 04:54:05 12.1 C 9.22 g/m*3 12.1 C 0 km/h
1465 05-09-2008 05:06:05 12.1 C 9.22 g/m*3 12.1 C 0 km/h
1466 05-09-2008 05:18:05 12.1 C 9.22 g/m*3 12.1 C 0 km/h
1467 05-09-2008 05:30:05 12.3 C 9.45 g/m*3 12.3 C 0 km/h
1468 05-09-2008 05:42:05 12.3 C 9.45 g/m*3 12.3 C 0 km/h
1469 05-09-2008 05:54:05 12.4 C 9.29 g/m*3 12.4 C 0 km/h
1470 05-09-2008 06:06:05 12.3 C 9.23 g/m*3 12.3 C 0 km/h
1471 05-09-2008 06:18:05 12.4 C 9.29 g/m*3 12.4 C 0 km/h
1472 05-09-2008 06:30:05 12.5 C 9.35 g/m*3 12.5 C 0 km/h
1473 05-09-2008 06:42:05 12.8 C 9.63 g/m*3 12.8 C 0 km/h
1474 05-09-2008 06:54:05 13 C 9.53 g/m*3 13 C 0 km/h
1475 05-09-2008 07:06:04 13.1 C 9.47 g/m*3 13.1 C 0 km/h
Sensor: Nr:Datum:Temp:Abs-Feuchte:Windchill:Wind:
Aussen-T/F 1476 05-09-2008 07:18:04 13 C 9.41 g/m*3 13 C 0 km/h
1477 05-09-2008 07:30:04 13 C 9.41 g/m*3 13 C 0 km/h
1478 05-09-2008 07:42:04 13.4 C 9.65 g/m*3 13.4 C 0 km/h
1479 05-09-2008 07:54:03 13.4 C 9.53 g/m*3 13.4 C 0 km/h
1480 05-09-2008 08:06:02 13.5 C 9.59 g/m*3 13.5 C 0 km/h
1481 05-09-2008 08:18:02 13.6 C 9.53 g/m*3 13.6 C 0 km/h
1482 05-09-2008 08:30:03 13.5 C 9.59 g/m*3 13.5 C 0 km/h
1483 05-09-2008 08:42:02 13.4 C 9.53 g/m*3 13.4 C 0 km/h
1484 05-09-2008 08:54:02 13.4 C 9.65 g/m*3 13.4 C 0 km/h
1485 05-09-2008 09:06:02 13.7 C 9.95 g/m*3 13.7 C 0 km/h
1486 05-09-2008 09:18:02 14.3 C 10.2 g/m*3 14.3 C 0 km/h
1487 05-09-2008 09:30:02 15.2 C 9.99 g/m*3 15.2 C 0 km/h
1488 05-09-2008 09:42:03 15.8 C 10.23 g/m*3 15.8 C 0 km/h
1489 05-09-2008 09:54:02 16.4 C 10.05 g/m*3 16.4 C 0 km/h
1490 05-09-2008 10:06:03 16.7 C 9.95 g/m*3 16.7 C 0 km/h
1491 05-09-2008 10:18:02 17.2 C 9.81 g/m*3 17.2 C 0 km/h
1492 05-09-2008 10:30:02 17.6 C 9.75 g/m*3 17.6 C 0 km/h
1493 05-09-2008 10:42:02 17.8 C 9.71 g/m*3 17.8 C 0 km/h
1494 05-09-2008 10:54:02 18.1 C 9.58 g/m*3 18.1 C 0 km/h
1495 05-09-2008 11:06:02 18.3 C 9.38 g/m*3 18.3 C 0 km/h
1496 05-09-2008 11:18:01 18.3 C 9.54 g/m*3 18.3 C 0 km/h
1497 05-09-2008 11:30:01 18.5 C 9.65 g/m*3 18.5 C 0 km/h
1498 05-09-2008 11:42:02 19.4 C 9.84 g/m*3 19.4 C 0 km/h
1499 05-09-2008 11:54:02 19.8 C 9.57 g/m*3 19.8 C 0 km/h
1500 05-09-2008 12:06:03 20.1 C 9.56 g/m*3 20.1 C 0 km/h
Sensor: Nr:Datum:Temp:Abs-Feuchte:Windchill:Wind:
Aussen-T/F 1501 05-09-2008 12:18:02 19.9 C 9.62 g/m*3 19.9 C 0 km/h
1502 05-09-2008 12:30:02 21.1 C 9.58 g/m*3 21.1 C 0 km/h
1503 05-09-2008 12:42:02 21.4 C 9.56 g/m*3 21.4 C 0 km/h
1504 05-09-2008 12:54:02 21.2 C 9.45 g/m*3 21.2 C 0 km/h
1505 05-09-2008 13:06:01 21.2 C 9.45 g/m*3 21.2 C 0 km/h
1506 05-09-2008 13:18:02 22.1 C 9.56 g/m*3 22.1 C 0 km/h
1507 05-09-2008 13:30:03 22.5 C 9.79 g/m*3 22.5 C 0 km/h
1508 05-09-2008 13:42:01 22.5 C 9.79 g/m*3 22.5 C 0 km/h
1509 05-09-2008 13:54:02 21.9 C 9.84 g/m*3 21.9 C 0 km/h
1510 05-09-2008 14:06:01 22.3 C 9.68 g/m*3 22.3 C 0 km/h
1511 05-09-2008 14:18:02 22.2 C 9.82 g/m*3 22.2 C 0 km/h
1512 05-09-2008 14:30:02 22.1 C 9.96 g/m*3 22.1 C 0 km/h
1513 05-09-2008 14:42:01 21.9 C 10.03 g/m*3 21.9 C 0 km/h
1514 05-09-2008 14:54:02 21.6 C 10.24 g/m*3 21.6 C 0 km/h
1515 05-09-2008 15:06:02 20.9 C 10.2 g/m*3 20.9 C 0 km/h
1516 05-09-2008 15:18:02 20.8 C 10.5 g/m*3 20.8 C 0 km/h
1517 05-09-2008 15:30:02 20.8 C 10.5 g/m*3 20.8 C 0 km/h
1518 05-09-2008 15:42:02 20.9 C 10.56 g/m*3 20.9 C 0 km/h
1519 05-09-2008 15:54:01 21.2 C 10.56 g/m*3 21.2 C 0 km/h
1520 05-09-2008 16:06:02 21.7 C 10.68 g/m*3 21.7 C 0 km/h
1521 05-09-2008 16:18:01 22.1 C 10.35 g/m*3 22.1 C 0 km/h
1522 05-09-2008 16:30:01 22 C 10.48 g/m*3 22 C 0 km/h
1523 05-09-2008 16:42:02 22.1 C 10.54 g/m*3 22.1 C 0 km/h
1524 05-09-2008 16:54:02 22.6 C 10.65 g/m*3 22.6 C 0 km/h
1525 05-09-2008 17:06:01 22.5 C 10.99 g/m*3 22.5 C 0 km/h
Sensor: Nr:Datum:Temp:Abs-Feuchte:Windchill:Wind:
Aussen-T/F 1526 05-09-2008 17:18:02 21.8 C 10.74 g/m*3 21.8 C 0 km/h
1527 05-09-2008 17:30:02 21.9 C 10.81 g/m*3 21.9 C 0 km/h
1528 05-09-2008 17:42:02 21.7 C 10.49 g/m*3 21.7 C 0 km/h
1529 05-09-2008 17:54:03 21.6 C 10.43 g/m*3 21.6 C 0 km/h
1530 05-09-2008 18:06:02 21.6 C 10.62 g/m*3 21.6 C 0 km/h
1531 05-09-2008 18:18:03 21.6 C 10.81 g/m*3 21.6 C 0 km/h
1532 05-09-2008 18:30:03 21.5 C 10.94 g/m*3 21.5 C 0 km/h
1533 05-09-2008 18:42:02 21.4 C 10.87 g/m*3 21.4 C 0 km/h
1534 05-09-2008 18:54:02 21.5 C 11.13 g/m*3 21.5 C 0 km/h
1535 05-09-2008 19:06:02 21.5 C 11.13 g/m*3 21.5 C 0 km/h
1536 05-09-2008 19:18:02 21 C 11.36 g/m*3 21 C 0 km/h
1537 05-09-2008 19:30:02 20 C 11.92 g/m*3 20 C 0 km/h
1538 05-09-2008 19:42:02 19.5 C 12.25 g/m*3 19.5 C 0 km/h
1539 05-09-2008 19:54:01 18.1 C 11.43 g/m*3 18.1 C 0 km/h
1540 05-09-2008 20:06:02 17.2 C 12.15 g/m*3 17.2 C 0 km/h
1541 05-09-2008 20:18:01 17 C 12.3 g/m*3 17 C 0 km/h
1542 05-09-2008 20:30:01 16.9 C 12.66 g/m*3 16.9 C 0 km/h
1543 05-09-2008 20:42:02 16.9 C 12.8 g/m*3 16.9 C 0 km/h
1544 05-09-2008 20:54:02 16.9 C 12.94 g/m*3 16.9 C 0 km/h
1545 05-09-2008 21:06:02 16.9 C 12.94 g/m*3 16.9 C 0 km/h
1546 05-09-2008 21:18:02 16.9 C 13.09 g/m*3 16.9 C 0 km/h
1547 05-09-2008 21:30:02 17 C 13.17 g/m*3 17 C 0 km/h
1548 05-09-2008 21:42:02 17 C 13.17 g/m*3 17 C 0 km/h
1549 05-09-2008 21:54:02 17.1 C 13.39 g/m*3 17.1 C 0 km/h
1550 05-09-2008 22:06:02 17.1 C 13.39 g/m*3 17.1 C 0 km/h
Sensor: Nr:Datum:Temp:Abs-Feuchte:Windchill:Wind:
Aussen-T/F 1551 05-09-2008 22:19:02 17.1 C 13.39 g/m*3 17.1 C 0 km/h
1552 05-09-2008 22:31:02 17.2 C 13.62 g/m*3 17.2 C 0 km/h
1553 05-09-2008 22:43:02 17.2 C 13.62 g/m*3 17.2 C 0 km/h
1554 05-09-2008 22:55:02 17.1 C 13.54 g/m*3 17.1 C 0 km/h
1555 05-09-2008 23:07:02 17 C 13.46 g/m*3 17 C 0 km/h
1556 05-09-2008 23:19:02 16.9 C 13.52 g/m*3 16.9 C 0 km/h
1557 05-09-2008 23:31:02 16.8 C 13.44 g/m*3 16.8 C 0 km/h
1558 05-09-2008 23:43:03 16.8 C 13.44 g/m*3 16.8 C 0 km/h
1559 05-09-2008 23:55:03 16.7 C 13.36 g/m*3 16.7 C 0 km/h
1560 06-09-2008 00:07:03 16.5 C 13.2 g/m*3 16.5 C 0 km/h
1561 06-09-2008 00:19:03 16.4 C 13.12 g/m*3 16.4 C 0 km/h
1562 06-09-2008 00:31:03 16.4 C 13.12 g/m*3 16.4 C 0 km/h
1563 06-09-2008 00:43:03 16.4 C 13.12 g/m*3 16.4 C 0 km/h
1564 06-09-2008 00:55:03 16.4 C 13.26 g/m*3 16.4 C 0 km/h
1565 06-09-2008 01:07:03 16.1 C 12.88 g/m*3 16.1 C 0 km/h
1566 06-09-2008 01:19:03 16 C 12.81 g/m*3 16 C 0 km/h
1567 06-09-2008 01:31:03 15.9 C 12.87 g/m*3 15.9 C 0 km/h
1568 06-09-2008 01:43:03 15.7 C 12.71 g/m*3 15.7 C 0 km/h
1569 06-09-2008 01:55:03 15.6 C 12.63 g/m*3 15.6 C 0 km/h
1570 06-09-2008 02:07:03 15.6 C 12.63 g/m*3 15.6 C 0 km/h
1571 06-09-2008 02:19:03 15.7 C 12.71 g/m*3 15.7 C 0 km/h
1572 06-09-2008 02:31:03 15.7 C 12.71 g/m*3 15.7 C 0 km/h
1573 06-09-2008 02:43:03 15.7 C 12.71 g/m*3 15.7 C 0 km/h
1574 06-09-2008 02:55:03 15.7 C 12.71 g/m*3 15.7 C 0 km/h
1575 06-09-2008 03:07:03 15.6 C 12.5 g/m*3 15.6 C 0 km/h
Sensor: Nr:Datum:Temp:Abs-Feuchte:Windchill:Wind:
Aussen-T/F 1576 06-09-2008 03:19:03 15.6 C 12.5 g/m*3 15.6 C 0 km/h
1577 06-09-2008 03:31:04 15.6 C 12.5 g/m*3 15.6 C 0 km/h
1578 06-09-2008 03:43:04 15.6 C 12.5 g/m*3 15.6 C 0 km/h
1579 06-09-2008 03:55:04 15.5 C 12.56 g/m*3 15.5 C 0 km/h
1580 06-09-2008 04:07:04 15.5 C 12.56 g/m*3 15.5 C 0 km/h
1581 06-09-2008 04:19:04 15.5 C 12.56 g/m*3 15.5 C 0 km/h
1582 06-09-2008 04:31:04 15.4 C 12.48 g/m*3 15.4 C 0 km/h
1583 06-09-2008 04:43:04 15.4 C 12.48 g/m*3 15.4 C 0 km/h
1584 06-09-2008 04:55:04 15.2 C 12.33 g/m*3 15.2 C 0 km/h
1585 06-09-2008 05:07:04 15.2 C 12.33 g/m*3 15.2 C 0 km/h
1586 06-09-2008 05:19:04 15.2 C 12.33 g/m*3 15.2 C 0 km/h
1587 06-09-2008 05:31:04 15.3 C 12.41 g/m*3 15.3 C 0 km/h
1588 06-09-2008 05:43:04 15.3 C 12.41 g/m*3 15.3 C 0 km/h
1589 06-09-2008 05:55:04 15.4 C 12.48 g/m*3 15.4 C 0 km/h
1590 06-09-2008 06:07:04 15.6 C 12.63 g/m*3 15.6 C 0 km/h
1591 06-09-2008 06:19:04 15.7 C 12.71 g/m*3 15.7 C 0 km/h
1592 06-09-2008 06:31:04 15.8 C 12.79 g/m*3 15.8 C 0 km/h
1593 06-09-2008 06:43:04 15.8 C 12.79 g/m*3 15.8 C 0 km/h
1594 06-09-2008 06:55:04 15.7 C 12.71 g/m*3 15.7 C 0 km/h
1595 06-09-2008 07:07:04 15.8 C 12.79 g/m*3 15.8 C 0 km/h
1596 06-09-2008 07:19:05 15.7 C 12.71 g/m*3 15.7 C 0 km/h
1597 06-09-2008 07:31:05 16 C 12.81 g/m*3 16 C 0 km/h
1598 06-09-2008 07:43:05 16.2 C 12.82 g/m*3 16.2 C 0 km/h
1599 06-09-2008 07:55:05 16.3 C 12.62 g/m*3 16.3 C 0 km/h
1600 06-09-2008 08:07:02 16.3 C 12.35 g/m*3 16.3 C 0 km/h
Sensor: Nr:Datum:Temp:Abs-Feuchte:Windchill:Wind:
Aussen-T/F 1601 06-09-2008 08:19:02 16.3 C 12.35 g/m*3 16.3 C 0 km/h
1602 06-09-2008 08:31:02 16.6 C 12.57 g/m*3 16.6 C 0 km/h
1603 06-09-2008 08:43:02 17 C 12.44 g/m*3 17 C 0 km/h
1604 06-09-2008 08:55:02 17.1 C 12.23 g/m*3 17.1 C 0 km/h
1605 06-09-2008 09:07:03 17.4 C 12.45 g/m*3 17.4 C 0 km/h
1606 06-09-2008 09:19:02 18 C 12.13 g/m*3 18 C 0 km/h
1607 06-09-2008 09:31:02 18.5 C 12.02 g/m*3 18.5 C 0 km/h
1608 06-09-2008 09:43:02 18.5 C 11.71 g/m*3 18.5 C 0 km/h
1609 06-09-2008 09:55:02 19.1 C 11.47 g/m*3 19.1 C 0 km/h
1610 06-09-2008 10:07:02 19.5 C 11.24 g/m*3 19.5 C 0 km/h
1611 06-09-2008 10:19:02 19.6 C 10.97 g/m*3 19.6 C 0 km/h
1612 06-09-2008 10:31:02 20.2 C 10.84 g/m*3 20.2 C 0 km/h
1613 06-09-2008 10:43:02 20 C 10.54 g/m*3 20 C 0 km/h
1614 06-09-2008 10:55:02 20.3 C 10.73 g/m*3 20.3 C 0 km/h
1615 06-09-2008 11:07:01 20.4 C 10.61 g/m*3 20.4 C 0 km/h
1616 06-09-2008 11:19:01 20.9 C 10.56 g/m*3 20.9 C 0 km/h
1617 06-09-2008 11:31:02 20.9 C 10.38 g/m*3 20.9 C 0 km/h
1618 06-09-2008 11:43:02 21.3 C 10.25 g/m*3 21.3 C 0 km/h
1619 06-09-2008 11:55:02 21.7 C 10.3 g/m*3 21.7 C 0 km/h
1620 06-09-2008 12:07:02 21.2 C 10.01 g/m*3 21.2 C 0 km/h
1621 06-09-2008 12:19:02 21.3 C 10.25 g/m*3 21.3 C 0 km/h
1622 06-09-2008 12:31:02 21 C 9.89 g/m*3 21 C 0 km/h
1623 06-09-2008 12:43:02 20.8 C 10.14 g/m*3 20.8 C 0 km/h
1624 06-09-2008 12:55:02 20.8 C 10.32 g/m*3 20.8 C 0 km/h
1625 06-09-2008 13:07:02 20.8 C 10.32 g/m*3 20.8 C 0 km/h
Sensor: Nr:Datum:Temp:Abs-Feuchte:Windchill:Wind:
Aussen-T/F 1626 06-09-2008 13:19:02 20.8 C 9.6 g/m*3 20.8 C 0 km/h
1627 06-09-2008 13:31:02 20.9 C 9.47 g/m*3 20.9 C 0 km/h
1628 06-09-2008 13:43:02 20.8 C 9.6 g/m*3 20.8 C 0 km/h
1629 06-09-2008 13:55:01 20.6 C 9.66 g/m*3 20.6 C 0 km/h
1630 06-09-2008 14:07:02 20.3 C 9.5 g/m*3 20.3 C 0 km/h
1631 06-09-2008 14:19:02 20.4 C 9.38 g/m*3 20.4 C 0 km/h
1632 06-09-2008 14:31:02 20.2 C 9.79 g/m*3 20.2 C 0 km/h
1633 06-09-2008 14:43:02 20 C 9.85 g/m*3 20 C 0 km/h
1634 06-09-2008 14:55:02 19.8 C 9.57 g/m*3 19.8 C 0 km/h
1635 06-09-2008 15:07:02 19.8 C 8.71 g/m*3 19.8 C 0 km/h
1636 06-09-2008 15:19:02 19.7 C 8.32 g/m*3 19.7 C 0 km/h
1637 06-09-2008 15:31:02 19.8 C 8.03 g/m*3 19.8 C 0 km/h
1638 06-09-2008 15:43:03 19.8 C 8.03 g/m*3 19.8 C 0 km/h
1639 06-09-2008 15:55:01 19.5 C 8.06 g/m*3 19.5 C 0 km/h
1640 06-09-2008 16:07:02 19.4 C 8.18 g/m*3 19.4 C 0 km/h
1641 06-09-2008 16:19:01 19.3 C 8.79 g/m*3 19.3 C 0 km/h
1642 06-09-2008 16:31:02 19.3 C 8.79 g/m*3 19.3 C 0 km/h
1643 06-09-2008 16:43:02 19.2 C 9.23 g/m*3 19.2 C 0 km/h
1644 06-09-2008 16:55:02 19.2 C 9.56 g/m*3 19.2 C 0 km/h
1645 06-09-2008 17:07:02 19 C 9.61 g/m*3 19 C 0 km/h
1646 06-09-2008 17:19:02 18.1 C 10.66 g/m*3 18.1 C 0 km/h
1647 06-09-2008 17:31:02 17.9 C 11.3 g/m*3 17.9 C 0 km/h
1648 06-09-2008 17:43:02 18 C 10.91 g/m*3 18 C 0 km/h
1649 06-09-2008 17:55:02 18.1 C 11.12 g/m*3 18.1 C 0 km/h
1650 06-09-2008 18:07:01 18.3 C 10.94 g/m*3 18.3 C 0 km/h
Sensor: Nr:Datum:Temp:Abs-Feuchte:Windchill:Wind:
Aussen-T/F 1651 06-09-2008 18:19:02 18.5 C 10.76 g/m*3 18.5 C 0 km/h
1652 06-09-2008 18:31:01 18.5 C 10.76 g/m*3 18.5 C 0 km/h
1653 06-09-2008 18:43:01 18.4 C 10.85 g/m*3 18.4 C 0 km/h
1654 06-09-2008 18:55:03 18 C 10.75 g/m*3 18 C 0 km/h
1655 06-09-2008 19:07:02 17.9 C 10.99 g/m*3 17.9 C 0 km/h
1656 06-09-2008 19:19:02 17.7 C 11.01 g/m*3 17.7 C 0 km/h
1657 06-09-2008 19:31:02 17.5 C 11.03 g/m*3 17.5 C 0 km/h
1658 06-09-2008 19:43:02 17.4 C 10.82 g/m*3 17.4 C 0 km/h
1659 06-09-2008 19:55:02 17.5 C 10.88 g/m*3 17.5 C 0 km/h
1660 06-09-2008 20:07:02 17.2 C 10.98 g/m*3 17.2 C 0 km/h
1661 06-09-2008 20:19:02 17.1 C 10.92 g/m*3 17.1 C 0 km/h
1662 06-09-2008 20:31:02 16.9 C 10.93 g/m*3 16.9 C 0 km/h
1663 06-09-2008 20:43:02 16.8 C 10.87 g/m*3 16.8 C 0 km/h
1664 06-09-2008 20:55:02 16.8 C 10.58 g/m*3 16.8 C 0 km/h
1665 06-09-2008 21:07:02 16.7 C 10.23 g/m*3 16.7 C 0 km/h
1666 06-09-2008 21:19:02 16.6 C 10.31 g/m*3 16.6 C 0 km/h
1667 06-09-2008 21:31:02 16.4 C 10.33 g/m*3 16.4 C 0 km/h
1668 06-09-2008 21:43:02 16.2 C 10.34 g/m*3 16.2 C 0 km/h
1669 06-09-2008 21:55:01 16 C 10.49 g/m*3 16 C 0 km/h
1670 06-09-2008 22:07:01 15.9 C 10.56 g/m*3 15.9 C 0 km/h
1671 06-09-2008 22:20:02 15.9 C 10.56 g/m*3 15.9 C 0 km/h
1672 06-09-2008 22:32:02 15.7 C 10.57 g/m*3 15.7 C 0 km/h
1673 06-09-2008 22:44:02 15.6 C 10.51 g/m*3 15.6 C 0 km/h
1674 06-09-2008 22:56:02 15.5 C 10.44 g/m*3 15.5 C 0 km/h
1675 06-09-2008 23:08:02 15.4 C 10.38 g/m*3 15.4 C 0 km/h
Sensor: Nr:Datum:Temp:Abs-Feuchte:Windchill:Wind:
Aussen-T/F 1676 06-09-2008 23:20:02 15.4 C 10.51 g/m*3 15.4 C 0 km/h
1677 06-09-2008 23:32:02 15.4 C 10.38 g/m*3 15.4 C 0 km/h
1678 06-09-2008 23:44:02 15.6 C 10.51 g/m*3 15.6 C 0 km/h
1679 06-09-2008 23:56:02 15.6 C 10.51 g/m*3 15.6 C 0 km/h
1680 07-09-2008 00:08:02 15.3 C 10.19 g/m*3 15.3 C 0 km/h
1681 07-09-2008 00:20:02 15.2 C 10.25 g/m*3 15.2 C 0 km/h
1682 07-09-2008 00:32:02 15.2 C 10.25 g/m*3 15.2 C 0 km/h
1683 07-09-2008 00:44:02 15.3 C 10.32 g/m*3 15.3 C 0 km/h
1684 07-09-2008 00:56:02 15.3 C 10.32 g/m*3 15.3 C 0 km/h
1685 07-09-2008 01:08:02 15.3 C 10.32 g/m*3 15.3 C 0 km/h
1686 07-09-2008 01:20:02 15.2 C 10.25 g/m*3 15.2 C 0 km/h
1687 07-09-2008 01:32:03 15.3 C 10.19 g/m*3 15.3 C 0 km/h
1688 07-09-2008 01:44:03 15.3 C 10.06 g/m*3 15.3 C 0 km/h
1689 07-09-2008 01:56:03 15.2 C 9.99 g/m*3 15.2 C 0 km/h
1690 07-09-2008 02:08:03 15.3 C 10.06 g/m*3 15.3 C 0 km/h
1691 07-09-2008 02:20:03 15.3 C 9.92 g/m*3 15.3 C 0 km/h
1692 07-09-2008 02:32:03 15.1 C 9.8 g/m*3 15.1 C 0 km/h
1693 07-09-2008 02:44:03 15 C 9.87 g/m*3 15 C 0 km/h
1694 07-09-2008 02:56:03 14.7 C 9.82 g/m*3 14.7 C 0 km/h
1695 07-09-2008 03:08:03 14.4 C 9.64 g/m*3 14.4 C 0 km/h
1696 07-09-2008 03:20:03 14.3 C 9.71 g/m*3 14.3 C 0 km/h
1697 07-09-2008 03:32:03 14.4 C 9.77 g/m*3 14.4 C 0 km/h
1698 07-09-2008 03:44:03 14.3 C 9.58 g/m*3 14.3 C 0 km/h
1699 07-09-2008 03:56:03 14.1 C 9.47 g/m*3 14.1 C 0 km/h
1700 07-09-2008 04:08:03 14.1 C 9.59 g/m*3 14.1 C 0 km/h
Sensor: Nr:Datum:Temp:Abs-Feuchte:Windchill:Wind:
Aussen-T/F 1701 07-09-2008 04:20:03 14.1 C 9.47 g/m*3 14.1 C 0 km/h
1702 07-09-2008 04:32:03 13.8 C 9.53 g/m*3 13.8 C 0 km/h
1703 07-09-2008 04:44:03 14.1 C 9.59 g/m*3 14.1 C 0 km/h
1704 07-09-2008 04:56:03 14.2 C 9.65 g/m*3 14.2 C 0 km/h
1705 07-09-2008 05:08:03 13.9 C 9.47 g/m*3 13.9 C 0 km/h
1706 07-09-2008 05:20:04 13.7 C 9.47 g/m*3 13.7 C 0 km/h
1707 07-09-2008 05:32:04 13.5 C 9.47 g/m*3 13.5 C 0 km/h
1708 07-09-2008 05:44:04 13.2 C 9.42 g/m*3 13.2 C 0 km/h
1709 07-09-2008 05:56:04 13.1 C 9.47 g/m*3 13.1 C 0 km/h
1710 07-09-2008 06:08:04 13.1 C 9.47 g/m*3 13.1 C 0 km/h
1711 07-09-2008 06:20:04 13.1 C 9.47 g/m*3 13.1 C 0 km/h
1712 07-09-2008 06:32:04 13.2 C 9.42 g/m*3 13.2 C 0 km/h
1713 07-09-2008 06:44:04 13.5 C 9.59 g/m*3 13.5 C 0 km/h
1714 07-09-2008 06:56:04 13.7 C 9.47 g/m*3 13.7 C 0 km/h
1715 07-09-2008 07:08:04 13.8 C 9.29 g/m*3 13.8 C 0 km/h
1716 07-09-2008 07:20:04 13.8 C 9.17 g/m*3 13.8 C 0 km/h
1717 07-09-2008 07:32:04 13.8 C 9.17 g/m*3 13.8 C 0 km/h
1718 07-09-2008 07:44:04 14.1 C 9.1 g/m*3 14.1 C 0 km/h
1719 07-09-2008 07:56:04 14.3 C 8.97 g/m*3 14.3 C 0 km/h
1720 07-09-2008 08:08:04 14.3 C 9.09 g/m*3 14.3 C 0 km/h
1721 07-09-2008 08:20:04 14.5 C 9.2 g/m*3 14.5 C 0 km/h
1722 07-09-2008 08:32:04 14.6 C 9.26 g/m*3 14.6 C 0 km/h
1723 07-09-2008 08:44:04 14.7 C 9.07 g/m*3 14.7 C 0 km/h
1724 07-09-2008 08:56:04 15.3 C 9.27 g/m*3 15.3 C 0 km/h
1725 07-09-2008 09:08:01 15.8 C 9.42 g/m*3 15.8 C 0 km/h
Sensor: Nr:Datum:Temp:Abs-Feuchte:Windchill:Wind:
Aussen-T/F 1726 07-09-2008 09:20:02 16.1 C 8.5 g/m*3 16.1 C 0 km/h
1727 07-09-2008 09:32:02 16.1 C 8.5 g/m*3 16.1 C 0 km/h
1728 07-09-2008 09:44:02 15.9 C 8.4 g/m*3 15.9 C 0 km/h
1729 07-09-2008 09:56:03 16.3 C 8.46 g/m*3 16.3 C 0 km/h
1730 07-09-2008 10:08:02 17.3 C 8.4 g/m*3 17.3 C 0 km/h
1731 07-09-2008 10:20:03 18.2 C 8.39 g/m*3 18.2 C 0 km/h
1732 07-09-2008 10:32:02 18.2 C 8.24 g/m*3 18.2 C 0 km/h
1733 07-09-2008 10:44:02 17.9 C 8.4 g/m*3 17.9 C 0 km/h
1734 07-09-2008 10:56:03 17.6 C 8.4 g/m*3 17.6 C 0 km/h
1735 07-09-2008 11:08:02 17.1 C 8.73 g/m*3 17.1 C 0 km/h
1736 07-09-2008 11:20:03 16.9 C 8.63 g/m*3 16.9 C 0 km/h
1737 07-09-2008 11:32:02 17.6 C 8.4 g/m*3 17.6 C 0 km/h
1738 07-09-2008 11:44:02 17.9 C 8.24 g/m*3 17.9 C 0 km/h
1739 07-09-2008 11:56:01 18.2 C 8.08 g/m*3 18.2 C 0 km/h
1740 07-09-2008 12:08:02 18.3 C 7.82 g/m*3 18.3 C 0 km/h
1741 07-09-2008 12:20:01 18.6 C 8.12 g/m*3 18.6 C 0 km/h
1742 07-09-2008 12:32:01 18.7 C 8.33 g/m*3 18.7 C 0 km/h
1743 07-09-2008 12:44:01 19.1 C 8.03 g/m*3 19.1 C 0 km/h
1744 07-09-2008 12:56:01 19.4 C 8.34 g/m*3 19.4 C 0 km/h
1745 07-09-2008 13:08:02 19 C 8.15 g/m*3 19 C 0 km/h
1746 07-09-2008 13:20:01 19.1 C 8.36 g/m*3 19.1 C 0 km/h
1747 07-09-2008 13:32:02 19.3 C 8.29 g/m*3 19.3 C 0 km/h
1748 07-09-2008 13:44:02 20 C 8.3 g/m*3 20 C 0 km/h
1749 07-09-2008 13:56:02 20.7 C 8.46 g/m*3 20.7 C 0 km/h
1750 07-09-2008 14:08:02 20 C 8.12 g/m*3 20 C 0 km/h
Sensor: Nr:Datum:Temp:Abs-Feuchte:Windchill:Wind:
Aussen-T/F 1751 07-09-2008 14:20:02 20.4 C 8.31 g/m*3 20.4 C 0 km/h
1752 07-09-2008 14:32:02 20.6 C 8.05 g/m*3 20.6 C 0 km/h
1753 07-09-2008 14:44:02 20.6 C 8.23 g/m*3 20.6 C 0 km/h
1754 07-09-2008 14:56:02 20 C 8.12 g/m*3 20 C 0 km/h
1755 07-09-2008 15:08:01 19.2 C 8.24 g/m*3 19.2 C 0 km/h
1756 07-09-2008 15:20:02 18.9 C 8.75 g/m*3 18.9 C 0 km/h
1757 07-09-2008 15:32:02 19.3 C 8.96 g/m*3 19.3 C 0 km/h
1758 07-09-2008 15:44:02 20.3 C 8.44 g/m*3 20.3 C 0 km/h
1759 07-09-2008 15:56:03 20 C 8.47 g/m*3 20 C 0 km/h
1760 07-09-2008 16:08:02 18.4 C 9.12 g/m*3 18.4 C 0 km/h
1761 07-09-2008 16:20:02 16.7 C 11.08 g/m*3 16.7 C 0 km/h
1762 07-09-2008 16:32:02 17.8 C 11.99 g/m*3 17.8 C 0 km/h
1763 07-09-2008 16:44:02 18.7 C 11.53 g/m*3 18.7 C 0 km/h
1764 07-09-2008 16:56:03 19.5 C 10.74 g/m*3 19.5 C 0 km/h
1765 07-09-2008 17:08:02 19.3 C 9.79 g/m*3 19.3 C 0 km/h
1766 07-09-2008 17:20:02 19 C 9.61 g/m*3 19 C 0 km/h
1767 07-09-2008 17:32:02 19.6 C 9.28 g/m*3 19.6 C 0 km/h
1768 07-09-2008 17:44:02 20.8 C 9.05 g/m*3 20.8 C 0 km/h
1769 07-09-2008 17:56:02 21 C 8.43 g/m*3 21 C 0 km/h
1770 07-09-2008 18:08:02 21.3 C 8.57 g/m*3 21.3 C 0 km/h
1771 07-09-2008 18:20:02 21.4 C 8.62 g/m*3 21.4 C 0 km/h
1772 07-09-2008 18:32:01 21.7 C 8.97 g/m*3 21.7 C 0 km/h
1773 07-09-2008 18:44:01 20.6 C 8.23 g/m*3 20.6 C 0 km/h
1774 07-09-2008 18:56:02 20.7 C 8.28 g/m*3 20.7 C 0 km/h
1775 07-09-2008 19:08:02 20.1 C 8 g/m*3 20.1 C 0 km/h
Sensor: Nr:Datum:Temp:Abs-Feuchte:Windchill:Wind:
Aussen-T/F 1776 07-09-2008 19:20:02 19.4 C 8.18 g/m*3 19.4 C 0 km/h
1777 07-09-2008 19:32:02 19 C 9.13 g/m*3 19 C 0 km/h
1778 07-09-2008 19:44:02 18.7 C 9.13 g/m*3 18.7 C 0 km/h
1779 07-09-2008 19:56:02 18.4 C 9.44 g/m*3 18.4 C 0 km/h
1780 07-09-2008 20:08:01 18.2 C 9.17 g/m*3 18.2 C 0 km/h
1781 07-09-2008 20:20:01 18 C 9.22 g/m*3 18 C 0 km/h
1782 07-09-2008 20:32:02 17.8 C 9.26 g/m*3 17.8 C 0 km/h
1783 07-09-2008 20:44:02 17.6 C 9 g/m*3 17.6 C 0 km/h
1784 07-09-2008 20:56:02 17.4 C 9.04 g/m*3 17.4 C 0 km/h
1785 07-09-2008 21:08:02 17.2 C 8.93 g/m*3 17.2 C 0 km/h
1786 07-09-2008 21:20:02 16.9 C 9.06 g/m*3 16.9 C 0 km/h
1787 07-09-2008 21:32:02 16.7 C 9.38 g/m*3 16.7 C 0 km/h
1788 07-09-2008 21:44:02 16.7 C 9.38 g/m*3 16.7 C 0 km/h
1789 07-09-2008 21:56:02 16.4 C 9.35 g/m*3 16.4 C 0 km/h
1790 07-09-2008 22:09:02 16.3 C 9.43 g/m*3 16.3 C 0 km/h
1791 07-09-2008 22:21:02 16.3 C 9.43 g/m*3 16.3 C 0 km/h
1792 07-09-2008 22:33:02 16.1 C 9.46 g/m*3 16.1 C 0 km/h
1793 07-09-2008 22:45:02 16 C 9.54 g/m*3 16 C 0 km/h
1794 07-09-2008 22:57:02 15.9 C 9.62 g/m*3 15.9 C 0 km/h
1795 07-09-2008 23:09:02 15.8 C 9.56 g/m*3 15.8 C 0 km/h
1796 07-09-2008 23:21:03 15.8 C 9.69 g/m*3 15.8 C 0 km/h
1797 07-09-2008 23:33:03 15.9 C 9.62 g/m*3 15.9 C 0 km/h
1798 07-09-2008 23:45:03 15.8 C 9.56 g/m*3 15.8 C 0 km/h
1799 07-09-2008 23:57:03 15.8 C 9.56 g/m*3 15.8 C 0 km/h
1800 08-09-2008 00:09:03 15.8 C 9.56 g/m*3 15.8 C 0 km/h
Sensor: Nr:Datum:Temp:Abs-Feuchte:Windchill:Wind:
Aussen-T/F 1801 08-09-2008 00:21:03 15.7 C 9.5 g/m*3 15.7 C 0 km/h
1802 08-09-2008 00:33:03 15.5 C 9.39 g/m*3 15.5 C 0 km/h
1803 08-09-2008 00:45:03 15.6 C 9.44 g/m*3 15.6 C 0 km/h
1804 08-09-2008 00:57:03 15.6 C 9.44 g/m*3 15.6 C 0 km/h
1805 08-09-2008 01:09:03 15.5 C 9.39 g/m*3 15.5 C 0 km/h
1806 08-09-2008 01:21:03 15.6 C 9.44 g/m*3 15.6 C 0 km/h
1807 08-09-2008 01:33:03 15.5 C 9.39 g/m*3 15.5 C 0 km/h
1808 08-09-2008 01:45:03 15.2 C 9.35 g/m*3 15.2 C 0 km/h
1809 08-09-2008 01:57:03 15.1 C 9.42 g/m*3 15.1 C 0 km/h
1810 08-09-2008 02:09:03 14.9 C 9.56 g/m*3 14.9 C 0 km/h
1811 08-09-2008 02:21:03 14.9 C 9.56 g/m*3 14.9 C 0 km/h
1812 08-09-2008 02:33:03 15.1 C 9.55 g/m*3 15.1 C 0 km/h
1813 08-09-2008 02:45:03 15 C 9.36 g/m*3 15 C 0 km/h
1814 08-09-2008 02:57:03 14.8 C 9.37 g/m*3 14.8 C 0 km/h
1815 08-09-2008 03:09:04 14.4 C 9.27 g/m*3 14.4 C 0 km/h
1816 08-09-2008 03:21:04 14.3 C 9.34 g/m*3 14.3 C 0 km/h
1817 08-09-2008 03:33:04 14.2 C 9.4 g/m*3 14.2 C 0 km/h
1818 08-09-2008 03:45:04 14.3 C 9.34 g/m*3 14.3 C 0 km/h
1819 08-09-2008 03:57:04 14.2 C 9.4 g/m*3 14.2 C 0 km/h
1820 08-09-2008 04:09:04 14.1 C 9.47 g/m*3 14.1 C 0 km/h
1821 08-09-2008 04:21:04 14.2 C 9.52 g/m*3 14.2 C 0 km/h
1822 08-09-2008 04:33:04 14.4 C 9.39 g/m*3 14.4 C 0 km/h
1823 08-09-2008 04:45:04 14.5 C 9.33 g/m*3 14.5 C 0 km/h
1824 08-09-2008 04:57:04 14.5 C 9.33 g/m*3 14.5 C 0 km/h
1825 08-09-2008 05:09:04 14.4 C 9.27 g/m*3 14.4 C 0 km/h
Sensor: Nr:Datum:Temp:Abs-Feuchte:Windchill:Wind:
Aussen-T/F 1826 08-09-2008 05:21:04 14.1 C 8.98 g/m*3 14.1 C 0 km/h
1827 08-09-2008 05:33:04 14.1 C 8.86 g/m*3 14.1 C 0 km/h
1828 08-09-2008 05:45:04 14 C 8.81 g/m*3 14 C 0 km/h
1829 08-09-2008 05:57:04 13.9 C 8.99 g/m*3 13.9 C 0 km/h
1830 08-09-2008 06:09:04 13.5 C 8.89 g/m*3 13.5 C 0 km/h
1831 08-09-2008 06:21:04 13.2 C 8.96 g/m*3 13.2 C 0 km/h
1832 08-09-2008 06:33:04 13.1 C 9.01 g/m*3 13.1 C 0 km/h
1833 08-09-2008 06:45:04 13 C 9.07 g/m*3 13 C 0 km/h
1834 08-09-2008 06:57:05 12.8 C 9.07 g/m*3 12.8 C 0 km/h
1835 08-09-2008 07:09:02 12.8 C 9.18 g/m*3 12.8 C 0 km/h
1836 08-09-2008 07:21:02 12.8 C 9.3 g/m*3 12.8 C 0 km/h
1837 08-09-2008 07:33:02 13.1 C 9.36 g/m*3 13.1 C 0 km/h
1838 08-09-2008 07:45:02 13.7 C 9.71 g/m*3 13.7 C 0 km/h
1839 08-09-2008 07:57:02 14.2 C 9.65 g/m*3 14.2 C 0 km/h
1840 08-09-2008 08:09:02 14.4 C 9.52 g/m*3 14.4 C 0 km/h
1841 08-09-2008 08:21:02 14.5 C 9.58 g/m*3 14.5 C 0 km/h
1842 08-09-2008 08:33:02 14.7 C 9.57 g/m*3 14.7 C 0 km/h
1843 08-09-2008 08:45:02 14.8 C 9.63 g/m*3 14.8 C 0 km/h
1844 08-09-2008 08:57:02 14.9 C 9.56 g/m*3 14.9 C 0 km/h
1845 08-09-2008 09:09:02 15.2 C 9.61 g/m*3 15.2 C 0 km/h
1846 08-09-2008 09:21:03 15.3 C 9.53 g/m*3 15.3 C 0 km/h
1847 08-09-2008 09:33:02 15.5 C 9.39 g/m*3 15.5 C 0 km/h
1848 08-09-2008 09:45:02 15.8 C 9.29 g/m*3 15.8 C 0 km/h
1849 08-09-2008 09:57:02 16.1 C 9.18 g/m*3 16.1 C 0 km/h
1850 08-09-2008 10:09:02 16.3 C 9.16 g/m*3 16.3 C 0 km/h
Sensor: Nr:Datum:Temp:Abs-Feuchte:Windchill:Wind:
Aussen-T/F 1851 08-09-2008 10:21:02 16.6 C 9.04 g/m*3 16.6 C 0 km/h
1852 08-09-2008 10:33:02 16.9 C 9.06 g/m*3 16.9 C 0 km/h
1853 08-09-2008 10:45:02 17.1 C 8.73 g/m*3 17.1 C 0 km/h
1854 08-09-2008 10:57:02 17.3 C 8.4 g/m*3 17.3 C 0 km/h
1855 08-09-2008 11:09:02 17.6 C 8.4 g/m*3 17.6 C 0 km/h
1856 08-09-2008 11:21:02 17.6 C 8.55 g/m*3 17.6 C 0 km/h
1857 08-09-2008 11:33:02 17.3 C 8.4 g/m*3 17.3 C 0 km/h
1858 08-09-2008 11:45:01 18.2 C 8.24 g/m*3 18.2 C 0 km/h
1859 08-09-2008 11:57:01 18.7 C 8.01 g/m*3 18.7 C 0 km/h
1860 08-09-2008 12:09:02 18.9 C 7.94 g/m*3 18.9 C 0 km/h
1861 08-09-2008 12:21:01 19.4 C 7.84 g/m*3 19.4 C 0 km/h
1862 08-09-2008 12:33:02 19.7 C 7.64 g/m*3 19.7 C 0 km/h
1863 08-09-2008 12:45:02 19.8 C 7.52 g/m*3 19.8 C 0 km/h
1864 08-09-2008 12:57:02 19.6 C 7.43 g/m*3 19.6 C 0 km/h
1865 08-09-2008 13:09:01 20.7 C 7.56 g/m*3 20.7 C 0 km/h
1866 08-09-2008 13:21:02 20.8 C 7.42 g/m*3 20.8 C 0 km/h
1867 08-09-2008 13:33:01 20.5 C 7.3 g/m*3 20.5 C 0 km/h
1868 08-09-2008 13:45:02 20.7 C 7.38 g/m*3 20.7 C 0 km/h
1869 08-09-2008 13:57:02 21.6 C 7.4 g/m*3 21.6 C 0 km/h
1870 08-09-2008 14:09:01 22 C 6.79 g/m*3 22 C 0 km/h
1871 08-09-2008 14:21:02 21.9 C 7.14 g/m*3 21.9 C 0 km/h
1872 08-09-2008 14:33:01 22.1 C 6.83 g/m*3 22.1 C 0 km/h
1873 08-09-2008 14:45:01 22.3 C 6.71 g/m*3 22.3 C 0 km/h
1874 08-09-2008 14:57:01 23 C 6.58 g/m*3 23 C 0 km/h
1875 08-09-2008 15:09:02 23.2 C 6.44 g/m*3 23.2 C 0 km/h
Sensor: Nr:Datum:Temp:Abs-Feuchte:Windchill:Wind:
Aussen-T/F 1876 08-09-2008 15:21:01 23.7 C 6.63 g/m*3 23.7 C 0 km/h
1877 08-09-2008 15:33:01 23.7 C 6.42 g/m*3 23.7 C 0 km/h
1878 08-09-2008 15:49:01 23.1 C 6.41 g/m*3 23.1 C 0 km/h
1879 08-09-2008 16:01:07 24 C 6.53 g/m*3 24 C 0 km/h
1880 08-09-2008 16:13:02 24.1 C 5.91 g/m*3 24.1 C 0 km/h
1881 08-09-2008 16:25:01 23.8 C 6.24 g/m*3 23.8 C 0 km/h
1882 08-09-2008 16:37:02 23.7 C 6.42 g/m*3 23.7 C 0 km/h
1883 08-09-2008 16:49:02 24 C 5.87 g/m*3 24 C 0 km/h
1884 08-09-2008 17:01:02 23.3 C 6.27 g/m*3 23.3 C 0 km/h
1885 08-09-2008 17:13:02 24.1 C 6.13 g/m*3 24.1 C 0 km/h
1886 08-09-2008 17:20:03 24.1 C 4.38 g/m*3 24.1 C 0 km/h
1887 08-09-2008 17:25:03 24.3 C 5.97 g/m*3 24.3 C 0 km/h
1888 08-09-2008 17:30:03 24.2 C 5.94 g/m*3 24.2 C 0 km/h
1889 08-09-2008 17:35:03 24.2 C 5.72 g/m*3 24.2 C 0 km/h
1890 08-09-2008 17:40:03 23.8 C 5.81 g/m*3 23.8 C 0 km/h
1891 08-09-2008 17:45:02 23.4 C 6.1 g/m*3 23.4 C 0 km/h
1892 08-09-2008 17:50:02 23.2 C 6.24 g/m*3 23.2 C 0 km/h
1893 08-09-2008 17:55:02 22.9 C 6.34 g/m*3 22.9 C 0 km/h
1894 08-09-2008 18:00:02 23.5 C 6.56 g/m*3 23.5 C 0 km/h
1895 08-09-2008 18:05:01 24.2 C 6.38 g/m*3 24.2 C 0 km/h
1896 08-09-2008 18:10:01 23.7 C 6.42 g/m*3 23.7 C 0 km/h
1897 08-09-2008 18:15:02 23.2 C 6.24 g/m*3 23.2 C 0 km/h
1898 08-09-2008 18:20:02 22.9 C 6.54 g/m*3 22.9 C 0 km/h
1899 08-09-2008 18:25:02 23.3 C 6.48 g/m*3 23.3 C 0 km/h
1900 08-09-2008 18:30:02 22.9 C 6.34 g/m*3 22.9 C 0 km/h
Sensor: Nr:Datum:Temp:Abs-Feuchte:Windchill:Wind:
Aussen-T/F 1901 08-09-2008 18:35:01 23 C 6.37 g/m*3 23 C 0 km/h
1902 08-09-2008 18:40:01 23.2 C 6.44 g/m*3 23.2 C 0 km/h
1903 08-09-2008 18:45:01 23 C 6.37 g/m*3 23 C 0 km/h
1904 08-09-2008 18:50:01 23 C 6.58 g/m*3 23 C 0 km/h
1905 08-09-2008 18:55:01 22.6 C 6.63 g/m*3 22.6 C 0 km/h
1906 08-09-2008 19:00:01 22.5 C 6.99 g/m*3 22.5 C 0 km/h
1907 08-09-2008 19:05:02 22.6 C 7.43 g/m*3 22.6 C 0 km/h
1908 08-09-2008 19:10:02 22.7 C 7.07 g/m*3 22.7 C 0 km/h
1909 08-09-2008 19:15:02 22.4 C 7.15 g/m*3 22.4 C 0 km/h
1910 08-09-2008 19:20:02 22.3 C 7.11 g/m*3 22.3 C 0 km/h
1911 08-09-2008 19:25:02 22.1 C 7.22 g/m*3 22.1 C 0 km/h
1912 08-09-2008 19:30:02 21.7 C 7.25 g/m*3 21.7 C 0 km/h
1913 08-09-2008 19:35:02 21.4 C 7.31 g/m*3 21.4 C 0 km/h
1914 08-09-2008 19:40:02 20.7 C 7.38 g/m*3 20.7 C 0 km/h
1915 08-09-2008 19:45:02 20.1 C 7.3 g/m*3 20.1 C 0 km/h
1916 08-09-2008 19:50:02 19.9 C 7.39 g/m*3 19.9 C 0 km/h
1917 08-09-2008 19:55:02 19.6 C 7.43 g/m*3 19.6 C 0 km/h
1918 08-09-2008 20:00:02 19.1 C 7.38 g/m*3 19.1 C 0 km/h
1919 08-09-2008 20:05:01 18.9 C 7.29 g/m*3 18.9 C 0 km/h
1920 08-09-2008 20:10:01 18.8 C 7.57 g/m*3 18.8 C 0 km/h
1921 08-09-2008 20:15:02 18.6 C 7.32 g/m*3 18.6 C 0 km/h
1922 08-09-2008 20:20:02 18.5 C 7.59 g/m*3 18.5 C 0 km/h
1923 08-09-2008 20:25:02 18.4 C 7.71 g/m*3 18.4 C 0 km/h
1924 08-09-2008 20:30:02 18.2 C 7.46 g/m*3 18.2 C 0 km/h
1925 08-09-2008 20:35:01 17.9 C 7.48 g/m*3 17.9 C 0 km/h
Sensor: Nr:Datum:Temp:Abs-Feuchte:Windchill:Wind:
Aussen-T/F 1926 08-09-2008 20:40:01 17.8 C 7.59 g/m*3 17.8 C 0 km/h
1927 08-09-2008 20:45:01 17.7 C 7.85 g/m*3 17.7 C 0 km/h
1928 08-09-2008 20:50:01 17.5 C 7.9 g/m*3 17.5 C 0 km/h
1929 08-09-2008 20:55:01 17.4 C 7.85 g/m*3 17.4 C 0 km/h
1930 08-09-2008 21:00:01 17.4 C 7.85 g/m*3 17.4 C 0 km/h
1931 08-09-2008 21:05:02 17.4 C 8 g/m*3 17.4 C 0 km/h
1932 08-09-2008 21:10:02 17.3 C 7.81 g/m*3 17.3 C 0 km/h
1933 08-09-2008 21:16:03 17.2 C 7.76 g/m*3 17.2 C 0 km/h
1934 08-09-2008 21:21:03 17.4 C 8 g/m*3 17.4 C 0 km/h
1935 08-09-2008 21:26:03 16.9 C 8.05 g/m*3 16.9 C 0 km/h
1936 08-09-2008 21:31:03 16.9 C 8.05 g/m*3 16.9 C 0 km/h
1937 08-09-2008 21:36:03 16.6 C 8.19 g/m*3 16.6 C 0 km/h
1938 08-09-2008 21:41:03 16.5 C 8 g/m*3 16.5 C 0 km/h
1939 08-09-2008 21:46:03 16.5 C 8.14 g/m*3 16.5 C 0 km/h
1940 08-09-2008 21:51:03 16.4 C 8.37 g/m*3 16.4 C 0 km/h
1941 08-09-2008 21:56:03 16.2 C 8.27 g/m*3 16.2 C 0 km/h
1942 08-09-2008 22:01:03 16.1 C 8.22 g/m*3 16.1 C 0 km/h
1943 08-09-2008 22:06:03 15.9 C 8.26 g/m*3 15.9 C 0 km/h
1944 08-09-2008 22:11:03 15.8 C 8.35 g/m*3 15.8 C 0 km/h
1945 08-09-2008 22:16:04 15.6 C 8.25 g/m*3 15.6 C 0 km/h
1946 08-09-2008 22:21:04 15.5 C 8.2 g/m*3 15.5 C 0 km/h
1947 08-09-2008 22:26:04 15.5 C 8.2 g/m*3 15.5 C 0 km/h
1948 08-09-2008 22:31:04 15.4 C 8.15 g/m*3 15.4 C 0 km/h
1949 08-09-2008 22:36:04 15.3 C 8.1 g/m*3 15.3 C 0 km/h
1950 08-09-2008 22:41:04 15.4 C 8.28 g/m*3 15.4 C 0 km/h
Sensor: Nr:Datum:Temp:Abs-Feuchte:Windchill:Wind:
Aussen-T/F 1951 08-09-2008 22:46:04 15.3 C 8.23 g/m*3 15.3 C 0 km/h
1952 08-09-2008 22:51:04 15.2 C 8.18 g/m*3 15.2 C 0 km/h
1953 08-09-2008 22:56:04 15.1 C 8.26 g/m*3 15.1 C 0 km/h
1954 08-09-2008 23:01:04 15 C 8.21 g/m*3 15 C 0 km/h
1955 08-09-2008 23:06:04 14.9 C 8.41 g/m*3 14.9 C 0 km/h
1956 08-09-2008 23:11:04 14.8 C 8.36 g/m*3 14.8 C 0 km/h
1957 08-09-2008 23:16:04 14.7 C 8.44 g/m*3 14.7 C 0 km/h
1958 08-09-2008 23:21:04 14.7 C 8.44 g/m*3 14.7 C 0 km/h
1959 08-09-2008 23:26:04 14.7 C 8.44 g/m*3 14.7 C 0 km/h
1960 08-09-2008 23:31:04 14.7 C 8.44 g/m*3 14.7 C 0 km/h
1961 08-09-2008 23:36:04 14.7 C 8.44 g/m*3 14.7 C 0 km/h
1962 08-09-2008 23:41:04 14.5 C 8.33 g/m*3 14.5 C 0 km/h
1963 08-09-2008 23:46:04 14.3 C 8.35 g/m*3 14.3 C 0 km/h
1964 08-09-2008 23:51:04 14.2 C 8.3 g/m*3 14.2 C 0 km/h
1965 08-09-2008 23:56:05 14.2 C 8.43 g/m*3 14.2 C 0 km/h
1966 09-09-2008 00:01:05 14 C 8.32 g/m*3 14 C 0 km/h
1967 09-09-2008 00:06:05 13.9 C 8.51 g/m*3 13.9 C 0 km/h
1968 09-09-2008 00:11:05 13.8 C 8.58 g/m*3 13.8 C 0 km/h
1969 09-09-2008 00:16:05 13.7 C 8.53 g/m*3 13.7 C 0 km/h
1970 09-09-2008 00:21:05 13.6 C 8.59 g/m*3 13.6 C 0 km/h
1971 09-09-2008 00:26:05 13.6 C 8.59 g/m*3 13.6 C 0 km/h
1972 09-09-2008 00:31:05 13.5 C 8.54 g/m*3 13.5 C 0 km/h
1973 09-09-2008 00:36:05 13.5 C 8.54 g/m*3 13.5 C 0 km/h
1974 09-09-2008 00:41:05 13.4 C 8.6 g/m*3 13.4 C 0 km/h
1975 09-09-2008 00:46:05 13.3 C 8.55 g/m*3 13.3 C 0 km/h
Sensor: Nr:Datum:Temp:Abs-Feuchte:Windchill:Wind:
Aussen-T/F 1976 09-09-2008 00:51:05 13.2 C 8.5 g/m*3 13.2 C 0 km/h
1977 09-09-2008 00:56:05 13.1 C 8.44 g/m*3 13.1 C 0 km/h
1978 09-09-2008 01:01:05 13.1 C 8.44 g/m*3 13.1 C 0 km/h
1979 09-09-2008 01:06:05 13 C 8.51 g/m*3 13 C 0 km/h
1980 09-09-2008 01:11:05 12.9 C 8.57 g/m*3 12.9 C 0 km/h
1981 09-09-2008 01:16:05 12.8 C 8.51 g/m*3 12.8 C 0 km/h
1982 09-09-2008 01:21:05 12.7 C 8.46 g/m*3 12.7 C 0 km/h
1983 09-09-2008 01:26:05 12.7 C 8.57 g/m*3 12.7 C 0 km/h
1984 09-09-2008 01:31:06 12.7 C 8.57 g/m*3 12.7 C 0 km/h
1985 09-09-2008 01:36:06 12.6 C 8.52 g/m*3 12.6 C 0 km/h
1986 09-09-2008 01:41:06 12.6 C 8.52 g/m*3 12.6 C 0 km/h
1987 09-09-2008 01:46:06 12.5 C 8.47 g/m*3 12.5 C 0 km/h
1988 09-09-2008 01:51:06 12.5 C 8.47 g/m*3 12.5 C 0 km/h
1989 09-09-2008 01:56:06 12.4 C 8.41 g/m*3 12.4 C 0 km/h
1990 09-09-2008 02:01:06 12.4 C 8.52 g/m*3 12.4 C 0 km/h
1991 09-09-2008 02:06:06 12.3 C 8.58 g/m*3 12.3 C 0 km/h
1992 09-09-2008 02:11:06 12.3 C 8.58 g/m*3 12.3 C 0 km/h
1993 09-09-2008 02:16:06 12.2 C 8.52 g/m*3 12.2 C 0 km/h
1994 09-09-2008 02:21:06 12.3 C 8.58 g/m*3 12.3 C 0 km/h
1995 09-09-2008 02:26:06 12.1 C 8.47 g/m*3 12.1 C 0 km/h
1996 09-09-2008 02:31:06 12.4 C 8.63 g/m*3 12.4 C 0 km/h
1997 09-09-2008 02:36:06 12 C 8.42 g/m*3 12 C 0 km/h
1998 09-09-2008 02:41:06 12 C 8.42 g/m*3 12 C 0 km/h
1999 09-09-2008 02:46:06 11.8 C 8.42 g/m*3 11.8 C 0 km/h
2000 09-09-2008 02:51:06 11.8 C 8.42 g/m*3 11.8 C 0 km/h
Sensor: Nr:Datum:Temp:Abs-Feuchte:Windchill:Wind:
Aussen-T/F 2001 09-09-2008 02:56:06 11.7 C 8.37 g/m*3 11.7 C 0 km/h
2002 09-09-2008 03:01:06 11.7 C 8.37 g/m*3 11.7 C 0 km/h
2003 09-09-2008 03:06:06 11.7 C 8.37 g/m*3 11.7 C 0 km/h
2004 09-09-2008 03:11:07 11.7 C 8.37 g/m*3 11.7 C 0 km/h
2005 09-09-2008 03:16:07 11.7 C 8.37 g/m*3 11.7 C 0 km/h
2006 09-09-2008 03:21:07 11.6 C 8.42 g/m*3 11.6 C 0 km/h
2007 09-09-2008 03:26:07 11.5 C 8.37 g/m*3 11.5 C 0 km/h
2008 09-09-2008 03:31:07 11.4 C 8.42 g/m*3 11.4 C 0 km/h
2009 09-09-2008 03:36:07 11.4 C 8.42 g/m*3 11.4 C 0 km/h
2010 09-09-2008 03:41:07 11.3 C 8.36 g/m*3 11.3 C 0 km/h
2011 09-09-2008 03:46:07 11.2 C 8.31 g/m*3 11.2 C 0 km/h
2012 09-09-2008 03:51:07 11.2 C 8.31 g/m*3 11.2 C 0 km/h
2013 09-09-2008 03:56:07 11.2 C 8.31 g/m*3 11.2 C 0 km/h
2014 09-09-2008 04:01:07 11.2 C 8.31 g/m*3 11.2 C 0 km/h
2015 09-09-2008 04:06:07 11.1 C 8.26 g/m*3 11.1 C 0 km/h
2016 09-09-2008 04:11:07 11.1 C 8.26 g/m*3 11.1 C 0 km/h
2017 09-09-2008 04:16:07 11.1 C 8.26 g/m*3 11.1 C 0 km/h
2018 09-09-2008 04:21:07 11.1 C 8.26 g/m*3 11.1 C 0 km/h
2019 09-09-2008 04:26:07 11.1 C 8.26 g/m*3 11.1 C 0 km/h
2020 09-09-2008 04:31:07 11 C 8.31 g/m*3 11 C 0 km/h
2021 09-09-2008 04:36:07 11 C 8.31 g/m*3 11 C 0 km/h
2022 09-09-2008 04:41:07 10.9 C 8.26 g/m*3 10.9 C 0 km/h
2023 09-09-2008 04:46:08 10.8 C 8.2 g/m*3 10.8 C 0 km/h
2024 09-09-2008 04:51:08 10.8 C 8.2 g/m*3 10.8 C 0 km/h
2025 09-09-2008 04:56:08 10.7 C 8.15 g/m*3 10.7 C 0 km/h
Sensor: Nr:Datum:Temp:Abs-Feuchte:Windchill:Wind:
Aussen-T/F 2026 09-09-2008 05:01:08 10.7 C 8.15 g/m*3 10.7 C 0 km/h
2027 09-09-2008 05:06:08 10.6 C 8.1 g/m*3 10.6 C 0 km/h
2028 09-09-2008 05:11:08 10.6 C 8.1 g/m*3 10.6 C 0 km/h
2029 09-09-2008 05:16:08 10.6 C 8.1 g/m*3 10.6 C 0 km/h
2030 09-09-2008 05:21:08 10.5 C 8.05 g/m*3 10.5 C 0 km/h
2031 09-09-2008 05:26:08 10.4 C 8 g/m*3 10.4 C 0 km/h
2032 09-09-2008 05:31:08 10.4 C 8 g/m*3 10.4 C 0 km/h
2033 09-09-2008 05:36:08 10.3 C 7.95 g/m*3 10.3 C 0 km/h
2034 09-09-2008 05:41:08 10.3 C 7.95 g/m*3 10.3 C 0 km/h
2035 09-09-2008 05:46:08 10.2 C 7.9 g/m*3 10.2 C 0 km/h
2036 09-09-2008 05:51:08 10.2 C 7.9 g/m*3 10.2 C 0 km/h
2037 09-09-2008 05:56:08 10.2 C 7.99 g/m*3 10.2 C 0 km/h
2038 09-09-2008 06:01:08 10 C 7.89 g/m*3 10 C 0 km/h
2039 09-09-2008 06:06:08 10 C 7.89 g/m*3 10 C 0 km/h
2040 09-09-2008 06:11:08 10 C 7.89 g/m*3 10 C 0 km/h
2041 09-09-2008 06:16:08 10 C 7.89 g/m*3 10 C 0 km/h
2042 09-09-2008 06:21:09 10 C 7.89 g/m*3 10 C 0 km/h
2043 09-09-2008 06:26:09 10 C 7.89 g/m*3 10 C 0 km/h
2044 09-09-2008 06:31:09 10.1 C 8.04 g/m*3 10.1 C 0 km/h
2045 09-09-2008 06:36:09 10.1 C 8.04 g/m*3 10.1 C 0 km/h
2046 09-09-2008 06:41:09 10.1 C 8.13 g/m*3 10.1 C 0 km/h
2047 09-09-2008 06:46:09 10.1 C 8.13 g/m*3 10.1 C 0 km/h
2048 09-09-2008 06:51:09 10.1 C 8.13 g/m*3 10.1 C 0 km/h
2049 09-09-2008 06:56:09 10.2 C 8.18 g/m*3 10.2 C 0 km/h
2050 09-09-2008 07:01:02 10.3 C 8.24 g/m*3 10.3 C 0 km/h
Sensor: Nr:Datum:Temp:Abs-Feuchte:Windchill:Wind:
Aussen-T/F 2051 09-09-2008 07:06:02 10.2 C 8.18 g/m*3 10.2 C 0 km/h
2052 09-09-2008 07:11:02 10.1 C 8.13 g/m*3 10.1 C 0 km/h
2053 09-09-2008 07:16:02 10.1 C 8.13 g/m*3 10.1 C 0 km/h
2054 09-09-2008 07:21:02 10.2 C 8.18 g/m*3 10.2 C 0 km/h
2055 09-09-2008 07:26:02 10.1 C 8.13 g/m*3 10.1 C 0 km/h
2056 09-09-2008 07:31:02 10.1 C 8.13 g/m*3 10.1 C 0 km/h
2057 09-09-2008 07:36:02 10 C 8.08 g/m*3 10 C 0 km/h
2058 09-09-2008 07:41:02 10 C 8.08 g/m*3 10 C 0 km/h
2059 09-09-2008 07:46:02 10.1 C 8.23 g/m*3 10.1 C 0 km/h
2060 09-09-2008 07:51:02 10.2 C 8.28 g/m*3 10.2 C 0 km/h
2061 09-09-2008 07:56:02 10.2 C 8.28 g/m*3 10.2 C 0 km/h
2062 09-09-2008 08:01:01 10.3 C 8.33 g/m*3 10.3 C 0 km/h
2063 09-09-2008 08:06:01 10.3 C 8.33 g/m*3 10.3 C 0 km/h
2064 09-09-2008 08:11:01 10.3 C 8.33 g/m*3 10.3 C 0 km/h
2065 09-09-2008 08:16:02 10.3 C 8.33 g/m*3 10.3 C 0 km/h
2066 09-09-2008 08:21:02 10.4 C 8.38 g/m*3 10.4 C 0 km/h
2067 09-09-2008 08:26:02 10.5 C 8.44 g/m*3 10.5 C 0 km/h
2068 09-09-2008 08:31:02 10.6 C 8.49 g/m*3 10.6 C 0 km/h
2069 09-09-2008 08:36:02 10.6 C 8.39 g/m*3 10.6 C 0 km/h
2070 09-09-2008 08:41:02 10.7 C 8.45 g/m*3 10.7 C 0 km/h
2071 09-09-2008 08:46:01 10.7 C 8.55 g/m*3 10.7 C 0 km/h
2072 09-09-2008 08:51:01 10.8 C 8.5 g/m*3 10.8 C 0 km/h
2073 09-09-2008 08:56:01 10.9 C 8.55 g/m*3 10.9 C 0 km/h
2074 09-09-2008 09:01:02 11.2 C 8.62 g/m*3 11.2 C 0 km/h
2075 09-09-2008 09:06:02 11.3 C 8.67 g/m*3 11.3 C 0 km/h
Sensor: Nr:Datum:Temp:Abs-Feuchte:Windchill:Wind:
Aussen-T/F 2076 09-09-2008 09:11:02 11.4 C 8.62 g/m*3 11.4 C 0 km/h
2077 09-09-2008 09:16:02 11.6 C 8.73 g/m*3 11.6 C 0 km/h
2078 09-09-2008 09:21:02 11.7 C 8.68 g/m*3 11.7 C 0 km/h
2079 09-09-2008 09:26:02 11.7 C 8.58 g/m*3 11.7 C 0 km/h
2080 09-09-2008 09:31:02 11.9 C 8.68 g/m*3 11.9 C 0 km/h
2081 09-09-2008 09:36:02 12 C 8.63 g/m*3 12 C 0 km/h
2082 09-09-2008 09:41:02 12.3 C 8.8 g/m*3 12.3 C 0 km/h
2083 09-09-2008 09:46:02 12.5 C 8.8 g/m*3 12.5 C 0 km/h
2084 09-09-2008 09:51:02 12.7 C 8.91 g/m*3 12.7 C 0 km/h
2085 09-09-2008 09:56:02 12.7 C 8.79 g/m*3 12.7 C 0 km/h
2086 09-09-2008 10:01:02 12.5 C 8.69 g/m*3 12.5 C 0 km/h
2087 09-09-2008 10:06:02 12.4 C 8.74 g/m*3 12.4 C 0 km/h
2088 09-09-2008 10:11:02 12.4 C 8.74 g/m*3 12.4 C 0 km/h
2089 09-09-2008 10:16:02 12.5 C 8.91 g/m*3 12.5 C 0 km/h
2090 09-09-2008 10:21:02 12.7 C 9.13 g/m*3 12.7 C 0 km/h
2091 09-09-2008 10:26:02 12.7 C 9.13 g/m*3 12.7 C 0 km/h
2092 09-09-2008 10:31:02 12.9 C 9.24 g/m*3 12.9 C 0 km/h
2093 09-09-2008 10:36:02 13 C 9.19 g/m*3 13 C 0 km/h
2094 09-09-2008 10:41:02 13.1 C 9.13 g/m*3 13.1 C 0 km/h
2095 09-09-2008 10:46:02 13.4 C 9.3 g/m*3 13.4 C 0 km/h
2096 09-09-2008 10:51:02 13.8 C 9.53 g/m*3 13.8 C 0 km/h
2097 09-09-2008 10:56:02 14.2 C 9.65 g/m*3 14.2 C 0 km/h
2098 09-09-2008 11:01:02 14.5 C 9.83 g/m*3 14.5 C 0 km/h
2099 09-09-2008 11:06:02 14.9 C 9.94 g/m*3 14.9 C 0 km/h
2100 09-09-2008 11:11:02 15.2 C 9.99 g/m*3 15.2 C 0 km/h
Sensor: Nr:Datum:Temp:Abs-Feuchte:Windchill:Wind:
Aussen-T/F 2101 09-09-2008 11:16:02 15.5 C 10.05 g/m*3 15.5 C 0 km/h
2102 09-09-2008 11:21:02 15.9 C 10.16 g/m*3 15.9 C 0 km/h
2103 09-09-2008 11:26:02 16.4 C 10.19 g/m*3 16.4 C 0 km/h
2104 09-09-2008 11:31:02 16.6 C 10.17 g/m*3 16.6 C 0 km/h
2105 09-09-2008 11:36:02 17.1 C 10.04 g/m*3 17.1 C 0 km/h
2106 09-09-2008 11:41:02 17.5 C 10.29 g/m*3 17.5 C 0 km/h
2107 09-09-2008 11:46:02 17.6 C 10.35 g/m*3 17.6 C 0 km/h
2108 09-09-2008 11:51:02 17.8 C 10.47 g/m*3 17.8 C 0 km/h
2109 09-09-2008 11:56:02 18.2 C 10.41 g/m*3 18.2 C 0 km/h
2110 09-09-2008 12:01:02 18.5 C 10.6 g/m*3 18.5 C 0 km/h
2111 09-09-2008 12:06:02 18.6 C 10.66 g/m*3 18.6 C 0 km/h
2112 09-09-2008 12:11:02 19.1 C 10.49 g/m*3 19.1 C 0 km/h
2113 09-09-2008 12:16:02 19.5 C 10.57 g/m*3 19.5 C 0 km/h
2114 09-09-2008 12:21:02 19.7 C 10.7 g/m*3 19.7 C 0 km/h
2115 09-09-2008 12:26:02 19.8 C 10.59 g/m*3 19.8 C 0 km/h
2116 09-09-2008 12:31:02 20.4 C 9.91 g/m*3 20.4 C 0 km/h
2117 09-09-2008 12:36:02 20.7 C 10.62 g/m*3 20.7 C 0 km/h
2118 09-09-2008 12:41:02 21 C 10.44 g/m*3 21 C 0 km/h
2119 09-09-2008 12:46:02 21.2 C 10.38 g/m*3 21.2 C 0 km/h
2120 09-09-2008 12:51:02 21.3 C 10.44 g/m*3 21.3 C 0 km/h
2121 09-09-2008 12:56:02 21.7 C 9.16 g/m*3 21.7 C 0 km/h
2122 09-09-2008 13:01:02 22.3 C 9.08 g/m*3 22.3 C 0 km/h
2123 09-09-2008 13:06:02 22.5 C 9.39 g/m*3 22.5 C 0 km/h
2124 09-09-2008 13:11:02 22.5 C 8.99 g/m*3 22.5 C 0 km/h
2125 09-09-2008 13:16:02 23 C 8.43 g/m*3 23 C 0 km/h
Sensor: Nr:Datum:Temp:Abs-Feuchte:Windchill:Wind:
Aussen-T/F 2126 09-09-2008 13:21:02 23.3 C 8.36 g/m*3 23.3 C 0 km/h
2127 09-09-2008 13:26:02 23.6 C 8.93 g/m*3 23.6 C 0 km/h
2128 09-09-2008 13:31:02 23.7 C 8.56 g/m*3 23.7 C 0 km/h
2129 09-09-2008 13:36:02 24.1 C 7.66 g/m*3 24.1 C 0 km/h
2130 09-09-2008 13:41:02 24.2 C 7.92 g/m*3 24.2 C 0 km/h
2131 09-09-2008 13:46:02 24.4 C 7.57 g/m*3 24.4 C 0 km/h
2132 09-09-2008 13:51:02 24.6 C 7.88 g/m*3 24.6 C 0 km/h
2133 09-09-2008 13:56:02 25.1 C 7.41 g/m*3 25.1 C 0 km/h
2134 09-09-2008 14:01:02 25.2 C 7.45 g/m*3 25.2 C 0 km/h
2135 09-09-2008 14:06:02 25.6 C 7.38 g/m*3 25.6 C 0 km/h
2136 09-09-2008 14:11:02 25.6 C 6.9 g/m*3 25.6 C 0 km/h
2137 09-09-2008 14:16:02 25.8 C 7.22 g/m*3 25.8 C 0 km/h
2138 09-09-2008 14:21:02 26.1 C 7.1 g/m*3 26.1 C 0 km/h
2139 09-09-2008 14:26:02 26.5 C 7.76 g/m*3 26.5 C 0 km/h
2140 09-09-2008 14:31:02 26.6 C 7.3 g/m*3 26.6 C 0 km/h
2141 09-09-2008 14:36:02 26.8 C 6.87 g/m*3 26.8 C 0 km/h
2142 09-09-2008 14:41:02 27 C 6.43 g/m*3 27 C 0 km/h
2143 09-09-2008 14:46:02 27 C 6.69 g/m*3 27 C 0 km/h
2144 09-09-2008 14:51:02 27.1 C 6.73 g/m*3 27.1 C 0 km/h
2145 09-09-2008 14:56:02 27.3 C 6.8 g/m*3 27.3 C 0 km/h
2146 09-09-2008 15:01:01 27.4 C 6.58 g/m*3 27.4 C 0 km/h
2147 09-09-2008 15:06:01 27.5 C 6.61 g/m*3 27.5 C 0 km/h
2148 09-09-2008 15:11:01 27.8 C 6.72 g/m*3 27.8 C 0 km/h
2149 09-09-2008 15:16:02 28 C 5.98 g/m*3 28 C 0 km/h
2150 09-09-2008 15:21:02 28.2 C 6.05 g/m*3 28.2 C 0 km/h
Sensor: Nr:Datum:Temp:Abs-Feuchte:Windchill:Wind:
Aussen-T/F 2151 09-09-2008 15:26:02 28.1 C 6.02 g/m*3 28.1 C 0 km/h
2152 09-09-2008 15:31:01 27.8 C 5.65 g/m*3 27.8 C 0 km/h
2153 09-09-2008 15:36:01 27.6 C 5.59 g/m*3 27.6 C 0 km/h
2154 09-09-2008 15:41:01 27.9 C 5.95 g/m*3 27.9 C 0 km/h
2155 09-09-2008 15:46:02 28.4 C 5.84 g/m*3 28.4 C 0 km/h
2156 09-09-2008 15:51:02 28.9 C 6.28 g/m*3 28.9 C 0 km/h
2157 09-09-2008 15:56:02 29.2 C 6.97 g/m*3 29.2 C 0 km/h
2158 09-09-2008 16:01:02 29.2 C 6.1 g/m*3 29.2 C 0 km/h
2159 09-09-2008 16:06:02 29.3 C 6.13 g/m*3 29.3 C 0 km/h
2160 09-09-2008 16:11:02 29.4 C 6.16 g/m*3 29.4 C 0 km/h
2161 09-09-2008 16:16:02 29.6 C 6.53 g/m*3 29.6 C 0 km/h
2162 09-09-2008 16:21:02 29.5 C 6.79 g/m*3 29.5 C 0 km/h
2163 09-09-2008 16:26:02 29.7 C 6.56 g/m*3 29.7 C 0 km/h
2164 09-09-2008 16:31:02 29.9 C 6.64 g/m*3 29.9 C 0 km/h
2165 09-09-2008 16:36:02 30 C 6.37 g/m*3 30 C 0 km/h
2166 09-09-2008 16:41:02 30.1 C 6.4 g/m*3 30.1 C 0 km/h
2167 09-09-2008 16:46:02 30.3 C 6.16 g/m*3 30.3 C 0 km/h
2168 09-09-2008 16:51:02 30.1 C 6.1 g/m*3 30.1 C 0 km/h
2169 09-09-2008 16:56:02 30 C 6.06 g/m*3 30 C 0 km/h
2170 09-09-2008 17:01:01 29.5 C 5.9 g/m*3 29.5 C 0 km/h
2171 09-09-2008 17:06:01 29.5 C 5.9 g/m*3 29.5 C 0 km/h
2172 09-09-2008 17:11:01 30.1 C 6.4 g/m*3 30.1 C 0 km/h
2173 09-09-2008 17:16:02 30 C 6.06 g/m*3 30 C 0 km/h
2174 09-09-2008 17:21:02 30.1 C 6.1 g/m*3 30.1 C 0 km/h
2175 09-09-2008 17:26:02 30 C 6.06 g/m*3 30 C 0 km/h
Sensor: Nr:Datum:Temp:Abs-Feuchte:Windchill:Wind:
Aussen-T/F 2176 09-09-2008 17:31:01 30 C 6.06 g/m*3 30 C 0 km/h
2177 09-09-2008 17:36:01 30 C 6.06 g/m*3 30 C 0 km/h
2178 09-09-2008 17:41:02 30.1 C 6.1 g/m*3 30.1 C 0 km/h
2179 09-09-2008 17:46:02 30.3 C 6.16 g/m*3 30.3 C 0 km/h
2180 09-09-2008 17:51:02 30.3 C 6.16 g/m*3 30.3 C 0 km/h
2181 09-09-2008 17:56:02 30.1 C 6.1 g/m*3 30.1 C 0 km/h
2182 09-09-2008 18:01:02 30.2 C 6.74 g/m*3 30.2 C 0 km/h
2183 09-09-2008 18:06:02 30.2 C 6.13 g/m*3 30.2 C 0 km/h
2184 09-09-2008 18:11:02 30 C 6.06 g/m*3 30 C 0 km/h
2185 09-09-2008 18:16:02 29.9 C 6.03 g/m*3 29.9 C 0 km/h
2186 09-09-2008 18:21:02 29.7 C 6.27 g/m*3 29.7 C 0 km/h
2187 09-09-2008 18:26:02 29.4 C 5.87 g/m*3 29.4 C 0 km/h
2188 09-09-2008 18:31:01 29 C 6.03 g/m*3 29 C 0 km/h
2189 09-09-2008 18:36:01 28.8 C 6.25 g/m*3 28.8 C 0 km/h
2190 09-09-2008 18:41:01 28.5 C 6.71 g/m*3 28.5 C 0 km/h
2191 09-09-2008 18:46:02 28 C 6.8 g/m*3 28 C 0 km/h
2192 09-09-2008 18:51:02 27.4 C 6.58 g/m*3 27.4 C 0 km/h
2193 09-09-2008 18:56:02 27.2 C 6.77 g/m*3 27.2 C 0 km/h
2194 09-09-2008 19:01:02 27 C 6.69 g/m*3 27 C 0 km/h
2195 09-09-2008 19:06:02 25.9 C 7.26 g/m*3 25.9 C 0 km/h
2196 09-09-2008 19:11:02 25.5 C 6.87 g/m*3 25.5 C 0 km/h
2197 09-09-2008 19:16:01 24.9 C 6.87 g/m*3 24.9 C 0 km/h
2198 09-09-2008 19:21:01 24.6 C 6.75 g/m*3 24.6 C 0 km/h
2199 09-09-2008 19:26:01 24.3 C 6.86 g/m*3 24.3 C 0 km/h
2200 09-09-2008 19:31:02 23.9 C 7.14 g/m*3 23.9 C 0 km/h
Sensor: Nr:Datum:Temp:Abs-Feuchte:Windchill:Wind:
Aussen-T/F 2201 09-09-2008 19:36:02 23.3 C 6.9 g/m*3 23.3 C 0 km/h
2202 09-09-2008 19:41:03 22.9 C 7.15 g/m*3 22.9 C 0 km/h
2203 09-09-2008 19:46:02 22.6 C 7.03 g/m*3 22.6 C 0 km/h
2204 09-09-2008 19:51:02 22.5 C 7.19 g/m*3 22.5 C 0 km/h
2205 09-09-2008 19:56:02 22.1 C 7.42 g/m*3 22.1 C 0 km/h
2206 09-09-2008 20:01:03 22.1 C 7.42 g/m*3 22.1 C 0 km/h
2207 09-09-2008 20:06:03 21.7 C 7.44 g/m*3 21.7 C 0 km/h
2208 09-09-2008 20:11:03 21.5 C 7.17 g/m*3 21.5 C 0 km/h
2209 09-09-2008 20:16:02 21.4 C 7.31 g/m*3 21.4 C 0 km/h
2210 09-09-2008 20:21:02 21.1 C 7 g/m*3 21.1 C 0 km/h
2211 09-09-2008 20:26:03 20.8 C 7.42 g/m*3 20.8 C 0 km/h
2212 09-09-2008 20:31:02 20.7 C 7.38 g/m*3 20.7 C 0 km/h
2213 09-09-2008 20:36:02 20.4 C 7.25 g/m*3 20.4 C 0 km/h
2214 09-09-2008 20:41:02 20.4 C 7.25 g/m*3 20.4 C 0 km/h
2215 09-09-2008 20:46:02 20.3 C 7.39 g/m*3 20.3 C 0 km/h
2216 09-09-2008 20:51:02 20.2 C 7.52 g/m*3 20.2 C 0 km/h
2217 09-09-2008 20:56:02 20.2 C 7.52 g/m*3 20.2 C 0 km/h
2218 09-09-2008 21:01:02 20.1 C 7.65 g/m*3 20.1 C 0 km/h
2219 09-09-2008 21:06:02 20.1 C 7.65 g/m*3 20.1 C 0 km/h
2220 09-09-2008 21:11:02 20 C 7.6 g/m*3 20 C 0 km/h
2221 09-09-2008 21:16:01 19.9 C 7.73 g/m*3 19.9 C 0 km/h
2222 09-09-2008 21:21:01 19.9 C 7.56 g/m*3 19.9 C 0 km/h
2223 09-09-2008 21:26:01 19.9 C 7.73 g/m*3 19.9 C 0 km/h
2224 09-09-2008 21:31:02 19.7 C 7.81 g/m*3 19.7 C 0 km/h
2225 09-09-2008 21:36:03 20.1 C 8 g/m*3 20.1 C 0 km/h
Sensor: Nr:Datum:Temp:Abs-Feuchte:Windchill:Wind:
Aussen-T/F 2226 09-09-2008 21:41:03 19.8 C 8.2 g/m*3 19.8 C 0 km/h
2227 09-09-2008 21:46:02 19.7 C 8.15 g/m*3 19.7 C 0 km/h
2228 09-09-2008 21:51:02 19.8 C 8.2 g/m*3 19.8 C 0 km/h
2229 09-09-2008 21:56:02 19.8 C 8.2 g/m*3 19.8 C 0 km/h
2230 09-09-2008 22:01:03 20 C 8.12 g/m*3 20 C 0 km/h
2231 09-09-2008 22:06:03 20.1 C 8 g/m*3 20.1 C 0 km/h
2232 09-09-2008 22:11:03 20.1 C 8 g/m*3 20.1 C 0 km/h
2233 09-09-2008 22:16:02 20.1 C 8.17 g/m*3 20.1 C 0 km/h
2234 09-09-2008 22:21:02 20.1 C 8.34 g/m*3 20.1 C 0 km/h
2235 09-09-2008 22:26:03 19.9 C 8.59 g/m*3 19.9 C 0 km/h
2236 09-09-2008 22:32:03 19.8 C 8.54 g/m*3 19.8 C 0 km/h
2237 09-09-2008 22:37:03 19.7 C 8.15 g/m*3 19.7 C 0 km/h
2238 09-09-2008 22:42:03 19.9 C 8.59 g/m*3 19.9 C 0 km/h
2239 09-09-2008 22:47:03 19.9 C 8.59 g/m*3 19.9 C 0 km/h
2240 09-09-2008 22:52:04 19.9 C 8.76 g/m*3 19.9 C 0 km/h
2241 09-09-2008 22:57:04 19.8 C 8.71 g/m*3 19.8 C 0 km/h
2242 09-09-2008 23:02:04 19.8 C 8.88 g/m*3 19.8 C 0 km/h
2243 09-09-2008 23:07:04 19.8 C 8.88 g/m*3 19.8 C 0 km/h
2244 09-09-2008 23:12:04 19.8 C 8.88 g/m*3 19.8 C 0 km/h
2245 09-09-2008 23:17:04 19.8 C 8.88 g/m*3 19.8 C 0 km/h
2246 09-09-2008 23:22:04 19.8 C 9.22 g/m*3 19.8 C 0 km/h
2247 09-09-2008 23:27:04 19.8 C 9.05 g/m*3 19.8 C 0 km/h
2248 09-09-2008 23:32:04 19.8 C 8.88 g/m*3 19.8 C 0 km/h
2249 09-09-2008 23:37:04 19.8 C 9.05 g/m*3 19.8 C 0 km/h
2250 09-09-2008 23:42:04 19.7 C 9 g/m*3 19.7 C 0 km/h
Sensor: Nr:Datum:Temp:Abs-Feuchte:Windchill:Wind:
Aussen-T/F 2251 09-09-2008 23:47:04 19.7 C 9.17 g/m*3 19.7 C 0 km/h
2252 09-09-2008 23:52:04 19.7 C 9.17 g/m*3 19.7 C 0 km/h
2253 09-09-2008 23:57:04 19.7 C 9.17 g/m*3 19.7 C 0 km/h
2254 10-09-2008 00:02:04 19.5 C 9.06 g/m*3 19.5 C 0 km/h
2255 10-09-2008 00:07:04 19.5 C 8.89 g/m*3 19.5 C 0 km/h
2256 10-09-2008 00:12:04 19.6 C 9.12 g/m*3 19.6 C 0 km/h
2257 10-09-2008 00:17:04 19.4 C 9.34 g/m*3 19.4 C 0 km/h
2258 10-09-2008 00:22:04 19.2 C 9.4 g/m*3 19.2 C 0 km/h
2259 10-09-2008 00:27:04 18.9 C 10.04 g/m*3 18.9 C 0 km/h
2260 10-09-2008 00:32:04 18.9 C 10.04 g/m*3 18.9 C 0 km/h
2261 10-09-2008 00:37:05 18.8 C 9.82 g/m*3 18.8 C 0 km/h
2262 10-09-2008 00:42:05 18.8 C 9.66 g/m*3 18.8 C 0 km/h
2263 10-09-2008 00:47:05 18.9 C 9.56 g/m*3 18.9 C 0 km/h
2264 10-09-2008 00:52:05 18.9 C 9.72 g/m*3 18.9 C 0 km/h
2265 10-09-2008 00:57:05 18.8 C 9.66 g/m*3 18.8 C 0 km/h
2266 10-09-2008 01:02:05 18.7 C 9.45 g/m*3 18.7 C 0 km/h
2267 10-09-2008 01:07:05 18.5 C 9.65 g/m*3 18.5 C 0 km/h
2268 10-09-2008 01:12:05 18.4 C 9.75 g/m*3 18.4 C 0 km/h
2269 10-09-2008 01:17:05 18.2 C 9.64 g/m*3 18.2 C 0 km/h
2270 10-09-2008 01:22:05 18 C 9.68 g/m*3 18 C 0 km/h
2271 10-09-2008 01:27:05 17.9 C 9.92 g/m*3 17.9 C 0 km/h
2272 10-09-2008 01:32:05 17.8 C 9.87 g/m*3 17.8 C 0 km/h
2273 10-09-2008 01:37:05 17.9 C 9.92 g/m*3 17.9 C 0 km/h
2274 10-09-2008 01:42:05 18 C 9.83 g/m*3 18 C 0 km/h
2275 10-09-2008 01:47:05 18 C 9.83 g/m*3 18 C 0 km/h
Sensor: Nr:Datum:Temp:Abs-Feuchte:Windchill:Wind:
Aussen-T/F 2276 10-09-2008 01:52:05 18 C 9.83 g/m*3 18 C 0 km/h
2277 10-09-2008 01:57:05 18.1 C 9.73 g/m*3 18.1 C 0 km/h
2278 10-09-2008 02:02:05 18.1 C 9.73 g/m*3 18.1 C 0 km/h
2279 10-09-2008 02:07:05 18.1 C 9.58 g/m*3 18.1 C 0 km/h
2280 10-09-2008 02:12:05 17.9 C 9.62 g/m*3 17.9 C 0 km/h
2281 10-09-2008 02:17:06 17.8 C 9.71 g/m*3 17.8 C 0 km/h
2282 10-09-2008 02:22:06 17.7 C 9.66 g/m*3 17.7 C 0 km/h
2283 10-09-2008 02:27:06 17.5 C 9.54 g/m*3 17.5 C 0 km/h
2284 10-09-2008 02:32:06 17.4 C 9.48 g/m*3 17.4 C 0 km/h
2285 10-09-2008 02:37:06 17.3 C 9.58 g/m*3 17.3 C 0 km/h
2286 10-09-2008 02:42:06 17.2 C 9.67 g/m*3 17.2 C 0 km/h
2287 10-09-2008 02:47:06 17.2 C 9.67 g/m*3 17.2 C 0 km/h
2288 10-09-2008 02:52:06 17 C 9.55 g/m*3 17 C 0 km/h
2289 10-09-2008 02:57:06 16.9 C 9.78 g/m*3 16.9 C 0 km/h
2290 10-09-2008 03:02:06 16.9 C 9.78 g/m*3 16.9 C 0 km/h
2291 10-09-2008 03:07:06 16.9 C 9.78 g/m*3 16.9 C 0 km/h
2292 10-09-2008 03:12:06 16.7 C 9.81 g/m*3 16.7 C 0 km/h
2293 10-09-2008 03:17:06 16.6 C 9.75 g/m*3 16.6 C 0 km/h
2294 10-09-2008 03:22:06 16.6 C 9.75 g/m*3 16.6 C 0 km/h
2295 10-09-2008 03:27:06 16.6 C 9.75 g/m*3 16.6 C 0 km/h
2296 10-09-2008 03:32:06 16.4 C 9.77 g/m*3 16.4 C 0 km/h
2297 10-09-2008 03:37:06 16.4 C 9.77 g/m*3 16.4 C 0 km/h
2298 10-09-2008 03:42:06 16.3 C 9.71 g/m*3 16.3 C 0 km/h
2299 10-09-2008 03:47:06 16.2 C 9.65 g/m*3 16.2 C 0 km/h
2300 10-09-2008 03:52:06 16.2 C 9.79 g/m*3 16.2 C 0 km/h
Sensor: Nr:Datum:Temp:Abs-Feuchte:Windchill:Wind:
Aussen-T/F 2301 10-09-2008 03:57:06 16.2 C 9.79 g/m*3 16.2 C 0 km/h
2302 10-09-2008 04:02:07 16 C 9.81 g/m*3 16 C 0 km/h
2303 10-09-2008 04:07:07 15.9 C 10.02 g/m*3 15.9 C 0 km/h
2304 10-09-2008 04:12:07 15.9 C 10.02 g/m*3 15.9 C 0 km/h
2305 10-09-2008 04:17:07 15.9 C 10.02 g/m*3 15.9 C 0 km/h
2306 10-09-2008 04:22:07 15.8 C 9.96 g/m*3 15.8 C 0 km/h
2307 10-09-2008 04:27:07 15.8 C 9.96 g/m*3 15.8 C 0 km/h
2308 10-09-2008 04:32:07 15.8 C 9.96 g/m*3 15.8 C 0 km/h
2309 10-09-2008 04:37:07 15.8 C 9.96 g/m*3 15.8 C 0 km/h
2310 10-09-2008 04:42:07 15.8 C 10.1 g/m*3 15.8 C 0 km/h
2311 10-09-2008 04:47:07 15.8 C 10.1 g/m*3 15.8 C 0 km/h
2312 10-09-2008 04:52:07 15.7 C 10.17 g/m*3 15.7 C 0 km/h
2313 10-09-2008 04:57:07 15.7 C 10.17 g/m*3 15.7 C 0 km/h
2314 10-09-2008 05:02:07 15.6 C 10.11 g/m*3 15.6 C 0 km/h
2315 10-09-2008 05:07:07 15.6 C 10.11 g/m*3 15.6 C 0 km/h
2316 10-09-2008 05:12:07 15.6 C 10.24 g/m*3 15.6 C 0 km/h
2317 10-09-2008 05:17:07 15.5 C 10.31 g/m*3 15.5 C 0 km/h
2318 10-09-2008 05:22:07 15.5 C 10.31 g/m*3 15.5 C 0 km/h
2319 10-09-2008 05:27:07 15.5 C 10.31 g/m*3 15.5 C 0 km/h
2320 10-09-2008 05:32:07 15.5 C 10.57 g/m*3 15.5 C 0 km/h
2321 10-09-2008 05:37:07 15.6 C 10.77 g/m*3 15.6 C 0 km/h
2322 10-09-2008 05:42:07 15.8 C 11.04 g/m*3 15.8 C 0 km/h
2323 10-09-2008 05:47:08 15.8 C 11.04 g/m*3 15.8 C 0 km/h
2324 10-09-2008 05:52:08 16 C 11.04 g/m*3 16 C 0 km/h
2325 10-09-2008 05:57:08 16 C 10.9 g/m*3 16 C 0 km/h
Sensor: Nr:Datum:Temp:Abs-Feuchte:Windchill:Wind:
Aussen-T/F 2326 10-09-2008 06:02:08 15.9 C 10.83 g/m*3 15.9 C 0 km/h
2327 10-09-2008 06:07:08 16 C 10.76 g/m*3 16 C 0 km/h
2328 10-09-2008 06:12:08 16.1 C 10.83 g/m*3 16.1 C 0 km/h
2329 10-09-2008 06:17:08 16.1 C 10.69 g/m*3 16.1 C 0 km/h
2330 10-09-2008 06:22:08 16.1 C 10.69 g/m*3 16.1 C 0 km/h
2331 10-09-2008 06:27:08 15.9 C 10.56 g/m*3 15.9 C 0 km/h
2332 10-09-2008 06:32:08 15.7 C 10.57 g/m*3 15.7 C 0 km/h
2333 10-09-2008 06:37:08 15.7 C 10.57 g/m*3 15.7 C 0 km/h
2334 10-09-2008 06:42:08 15.6 C 10.51 g/m*3 15.6 C 0 km/h
2335 10-09-2008 06:47:02 15.6 C 10.64 g/m*3 15.6 C 0 km/h
2336 10-09-2008 06:52:02 15.6 C 10.64 g/m*3 15.6 C 0 km/h
2337 10-09-2008 06:57:02 15.8 C 10.9 g/m*3 15.8 C 0 km/h
2338 10-09-2008 07:02:02 15.8 C 10.9 g/m*3 15.8 C 0 km/h
2339 10-09-2008 07:07:02 15.7 C 10.84 g/m*3 15.7 C 0 km/h
2340 10-09-2008 07:12:02 15.7 C 10.84 g/m*3 15.7 C 0 km/h
2341 10-09-2008 07:17:02 15.8 C 10.9 g/m*3 15.8 C 0 km/h
2342 10-09-2008 07:22:02 15.8 C 10.9 g/m*3 15.8 C 0 km/h
2343 10-09-2008 07:27:02 15.8 C 10.9 g/m*3 15.8 C 0 km/h
2344 10-09-2008 07:32:02 16.2 C 11.03 g/m*3 16.2 C 0 km/h
2345 10-09-2008 07:37:02 16.2 C 10.89 g/m*3 16.2 C 0 km/h
2346 10-09-2008 07:42:02 16.2 C 10.89 g/m*3 16.2 C 0 km/h
2347 10-09-2008 07:47:01 16.5 C 11.09 g/m*3 16.5 C 0 km/h
2348 10-09-2008 07:52:01 16.5 C 11.09 g/m*3 16.5 C 0 km/h
2349 10-09-2008 07:57:01 16.8 C 11.01 g/m*3 16.8 C 0 km/h
2350 10-09-2008 08:02:02 17 C 10.85 g/m*3 17 C 0 km/h
Sensor: Nr:Datum:Temp:Abs-Feuchte:Windchill:Wind:
Aussen-T/F 2351 10-09-2008 08:07:02 17.1 C 10.77 g/m*3 17.1 C 0 km/h
2352 10-09-2008 08:12:02 17.2 C 10.84 g/m*3 17.2 C 0 km/h
2353 10-09-2008 08:17:01 17.1 C 10.77 g/m*3 17.1 C 0 km/h
2354 10-09-2008 08:22:01 17.9 C 11.3 g/m*3 17.9 C 0 km/h
2355 10-09-2008 08:27:01 17.2 C 10.84 g/m*3 17.2 C 0 km/h
2356 10-09-2008 08:32:02 17.4 C 10.82 g/m*3 17.4 C 0 km/h
2357 10-09-2008 08:37:02 17.5 C 10.88 g/m*3 17.5 C 0 km/h
2358 10-09-2008 08:42:02 17.5 C 10.88 g/m*3 17.5 C 0 km/h
2359 10-09-2008 08:47:02 17.5 C 10.88 g/m*3 17.5 C 0 km/h
2360 10-09-2008 08:52:02 17.5 C 10.88 g/m*3 17.5 C 0 km/h
2361 10-09-2008 08:57:02 17.6 C 10.95 g/m*3 17.6 C 0 km/h
2362 10-09-2008 09:02:01 17.8 C 11.08 g/m*3 17.8 C 0 km/h
2363 10-09-2008 09:07:01 17.9 C 10.99 g/m*3 17.9 C 0 km/h
2364 10-09-2008 09:12:01 18 C 11.06 g/m*3 18 C 0 km/h
2365 10-09-2008 09:17:02 18.1 C 11.12 g/m*3 18.1 C 0 km/h
2366 10-09-2008 09:22:02 18.3 C 11.1 g/m*3 18.3 C 0 km/h
2367 10-09-2008 09:27:02 18.4 C 11.17 g/m*3 18.4 C 0 km/h
2368 10-09-2008 09:32:01 18.5 C 11.08 g/m*3 18.5 C 0 km/h
2369 10-09-2008 09:37:01 18.8 C 11.27 g/m*3 18.8 C 0 km/h
2370 10-09-2008 09:42:02 19 C 10.92 g/m*3 19 C 0 km/h
2371 10-09-2008 09:47:02 19 C 10.92 g/m*3 19 C 0 km/h
2372 10-09-2008 09:52:02 19.4 C 11.18 g/m*3 19.4 C 0 km/h
2373 10-09-2008 09:57:02 20 C 11.23 g/m*3 20 C 0 km/h
2374 10-09-2008 10:02:02 20.1 C 11.13 g/m*3 20.1 C 0 km/h
2375 10-09-2008 10:07:02 20.5 C 11.03 g/m*3 20.5 C 0 km/h
Sensor: Nr:Datum:Temp:Abs-Feuchte:Windchill:Wind:
Aussen-T/F 2376 10-09-2008 10:12:02 20.8 C 11.23 g/m*3 20.8 C 0 km/h
2377 10-09-2008 10:17:01 21 C 10.99 g/m*3 21 C 0 km/h
2378 10-09-2008 10:22:01 21.3 C 11.18 g/m*3 21.3 C 0 km/h
2379 10-09-2008 10:27:01 21.4 C 11.25 g/m*3 21.4 C 0 km/h
2380 10-09-2008 10:32:02 21.5 C 11.31 g/m*3 21.5 C 0 km/h
2381 10-09-2008 10:37:02 21.6 C 11.19 g/m*3 21.6 C 0 km/h
2382 10-09-2008 10:42:02 21.5 C 11.13 g/m*3 21.5 C 0 km/h
2383 10-09-2008 10:47:02 21.5 C 11.13 g/m*3 21.5 C 0 km/h
2384 10-09-2008 10:52:02 21.5 C 11.13 g/m*3 21.5 C 0 km/h
2385 10-09-2008 10:57:03 21.4 C 11.06 g/m*3 21.4 C 0 km/h
2386 10-09-2008 11:02:02 21.4 C 11.25 g/m*3 21.4 C 0 km/h
2387 10-09-2008 11:07:02 21.6 C 11.19 g/m*3 21.6 C 0 km/h
2388 10-09-2008 11:12:02 21.9 C 11.19 g/m*3 21.9 C 0 km/h
2389 10-09-2008 11:17:02 22.1 C 10.93 g/m*3 22.1 C 0 km/h
2390 10-09-2008 11:22:02 22.2 C 10.99 g/m*3 22.2 C 0 km/h
2391 10-09-2008 11:27:02 22.5 C 10.99 g/m*3 22.5 C 0 km/h
2392 10-09-2008 11:32:02 22.6 C 11.05 g/m*3 22.6 C 0 km/h
2393 10-09-2008 11:37:02 22.7 C 11.31 g/m*3 22.7 C 0 km/h
2394 10-09-2008 11:42:02 22.7 C 11.11 g/m*3 22.7 C 0 km/h
2395 10-09-2008 11:47:02 22.6 C 11.25 g/m*3 22.6 C 0 km/h
2396 10-09-2008 11:52:02 22.6 C 11.25 g/m*3 22.6 C 0 km/h
2397 10-09-2008 11:57:02 22.7 C 11.31 g/m*3 22.7 C 0 km/h
2398 10-09-2008 12:02:02 23 C 11.1 g/m*3 23 C 0 km/h
2399 10-09-2008 12:07:03 23.2 C 11.02 g/m*3 23.2 C 0 km/h
2400 10-09-2008 12:12:03 23.2 C 11.02 g/m*3 23.2 C 0 km/h
Sensor: Nr:Datum:Temp:Abs-Feuchte:Windchill:Wind:
Aussen-T/F 2401 10-09-2008 12:17:02 23.5 C 11.21 g/m*3 23.5 C 0 km/h
2402 10-09-2008 12:22:02 23.4 C 11.14 g/m*3 23.4 C 0 km/h
2403 10-09-2008 12:27:02 23.2 C 11.23 g/m*3 23.2 C 0 km/h
2404 10-09-2008 12:32:02 23.2 C 11.23 g/m*3 23.2 C 0 km/h
2405 10-09-2008 12:37:02 23.5 C 11.42 g/m*3 23.5 C 0 km/h
2406 10-09-2008 12:42:02 24 C 11.1 g/m*3 24 C 0 km/h
2407 10-09-2008 12:47:02 24 C 10.88 g/m*3 24 C 0 km/h
2408 10-09-2008 12:52:02 24.2 C 11 g/m*3 24.2 C 0 km/h
2409 10-09-2008 12:57:03 24.4 C 10.9 g/m*3 24.4 C 0 km/h
2410 10-09-2008 13:02:01 24.5 C 10.97 g/m*3 24.5 C 0 km/h
2411 10-09-2008 13:07:01 24.9 C 10.76 g/m*3 24.9 C 0 km/h
2412 10-09-2008 13:12:01 25 C 10.59 g/m*3 25 C 0 km/h
2413 10-09-2008 13:17:02 24.9 C 10.53 g/m*3 24.9 C 0 km/h
2414 10-09-2008 13:22:02 24.8 C 10.7 g/m*3 24.8 C 0 km/h
2415 10-09-2008 13:27:02 24.7 C 10.41 g/m*3 24.7 C 0 km/h
2416 10-09-2008 13:32:02 24.9 C 10.99 g/m*3 24.9 C 0 km/h
2417 10-09-2008 13:37:02 24.9 C 10.76 g/m*3 24.9 C 0 km/h
2418 10-09-2008 13:42:02 24.6 C 10.58 g/m*3 24.6 C 0 km/h
2419 10-09-2008 13:47:01 24.4 C 10.46 g/m*3 24.4 C 0 km/h
2420 10-09-2008 13:52:01 24.4 C 10.46 g/m*3 24.4 C 0 km/h
2421 10-09-2008 13:57:01 24.6 C 10.8 g/m*3 24.6 C 0 km/h
2422 10-09-2008 14:02:02 25.4 C 10.83 g/m*3 25.4 C 0 km/h
2423 10-09-2008 14:07:02 25.7 C 10.29 g/m*3 25.7 C 0 km/h
2424 10-09-2008 14:12:02 26 C 10.23 g/m*3 26 C 0 km/h
2425 10-09-2008 14:17:02 26.1 C 9.79 g/m*3 26.1 C 0 km/h
Sensor: Nr:Datum:Temp:Abs-Feuchte:Windchill:Wind:
Aussen-T/F 2426 10-09-2008 14:22:02 25.9 C 9.93 g/m*3 25.9 C 0 km/h
2427 10-09-2008 14:27:02 25.9 C 9.93 g/m*3 25.9 C 0 km/h
2428 10-09-2008 14:32:02 25.8 C 9.87 g/m*3 25.8 C 0 km/h
2429 10-09-2008 14:37:02 25.5 C 9.71 g/m*3 25.5 C 0 km/h
2430 10-09-2008 14:42:02 25.6 C 9.76 g/m*3 25.6 C 0 km/h
2431 10-09-2008 14:47:02 25.6 C 10 g/m*3 25.6 C 0 km/h
2432 10-09-2008 14:52:03 25.7 C 9.82 g/m*3 25.7 C 0 km/h
2433 10-09-2008 14:57:03 25.9 C 9.68 g/m*3 25.9 C 0 km/h
2434 10-09-2008 15:02:01 26.5 C 9.51 g/m*3 26.5 C 0 km/h
2435 10-09-2008 15:07:01 26.6 C 9.57 g/m*3 26.6 C 0 km/h
2436 10-09-2008 15:12:01 26.8 C 9.67 g/m*3 26.8 C 0 km/h
2437 10-09-2008 15:17:02 26.9 C 9.47 g/m*3 26.9 C 0 km/h
2438 10-09-2008 15:22:02 27.3 C 9.42 g/m*3 27.3 C 0 km/h
2439 10-09-2008 15:27:02 27.3 C 9.16 g/m*3 27.3 C 0 km/h
2440 10-09-2008 15:32:01 27.2 C 9.11 g/m*3 27.2 C 0 km/h
2441 10-09-2008 15:37:01 27.3 C 9.42 g/m*3 27.3 C 0 km/h
2442 10-09-2008 15:42:01 27.1 C 9.32 g/m*3 27.1 C 0 km/h
2443 10-09-2008 15:47:01 26.9 C 9.21 g/m*3 26.9 C 0 km/h
2444 10-09-2008 15:52:01 27 C 9.26 g/m*3 27 C 0 km/h
2445 10-09-2008 15:57:01 26.7 C 9.37 g/m*3 26.7 C 0 km/h
2446 10-09-2008 16:02:02 26.9 C 9.73 g/m*3 26.9 C 0 km/h
2447 10-09-2008 16:07:02 26.8 C 9.42 g/m*3 26.8 C 0 km/h
2448 10-09-2008 16:12:02 27 C 9.01 g/m*3 27 C 0 km/h
2449 10-09-2008 16:17:01 27 C 9.01 g/m*3 27 C 0 km/h
2450 10-09-2008 16:22:01 27.4 C 9.21 g/m*3 27.4 C 0 km/h
Sensor: Nr:Datum:Temp:Abs-Feuchte:Windchill:Wind:
Aussen-T/F 2451 10-09-2008 16:27:01 27.7 C 9.36 g/m*3 27.7 C 0 km/h
2452 10-09-2008 16:32:02 27.7 C 9.09 g/m*3 27.7 C 0 km/h
2453 10-09-2008 16:37:02 27.5 C 8.73 g/m*3 27.5 C 0 km/h
2454 10-09-2008 16:42:02 27.8 C 9.15 g/m*3 27.8 C 0 km/h
2455 10-09-2008 16:47:02 27.9 C 8.92 g/m*3 27.9 C 0 km/h
2456 10-09-2008 16:52:03 27.8 C 8.88 g/m*3 27.8 C 0 km/h
2457 10-09-2008 16:57:03 27.8 C 8.88 g/m*3 27.8 C 0 km/h
2458 10-09-2008 17:02:02 27.6 C 8.78 g/m*3 27.6 C 0 km/h
2459 10-09-2008 17:07:02 27.6 C 9.04 g/m*3 27.6 C 0 km/h
2460 10-09-2008 17:12:02 27.3 C 8.9 g/m*3 27.3 C 0 km/h
2461 10-09-2008 17:17:02 27.7 C 9.09 g/m*3 27.7 C 0 km/h
2462 10-09-2008 17:22:02 27.8 C 8.88 g/m*3 27.8 C 0 km/h
2463 10-09-2008 17:27:02 27.8 C 8.88 g/m*3 27.8 C 0 km/h
2464 10-09-2008 17:32:02 28 C 8.7 g/m*3 28 C 0 km/h
2465 10-09-2008 17:37:02 28.3 C 8.57 g/m*3 28.3 C 0 km/h
2466 10-09-2008 17:42:02 28 C 8.43 g/m*3 28 C 0 km/h
2467 10-09-2008 17:47:02 28.2 C 8.52 g/m*3 28.2 C 0 km/h
2468 10-09-2008 17:52:02 27.7 C 8.83 g/m*3 27.7 C 0 km/h
2469 10-09-2008 17:57:02 27.6 C 8.78 g/m*3 27.6 C 0 km/h
2470 10-09-2008 18:02:02 27.5 C 9 g/m*3 27.5 C 0 km/h
2471 10-09-2008 18:07:02 27.5 C 9 g/m*3 27.5 C 0 km/h
2472 10-09-2008 18:12:02 27.7 C 8.83 g/m*3 27.7 C 0 km/h
2473 10-09-2008 18:17:02 27.9 C 8.92 g/m*3 27.9 C 0 km/h
2474 10-09-2008 18:22:02 27.3 C 8.63 g/m*3 27.3 C 0 km/h
2475 10-09-2008 18:27:02 27.4 C 8.95 g/m*3 27.4 C 0 km/h
Sensor: Nr:Datum:Temp:Abs-Feuchte:Windchill:Wind:
Aussen-T/F 2476 10-09-2008 18:32:02 27.2 C 9.11 g/m*3 27.2 C 0 km/h
2477 10-09-2008 18:37:02 27.5 C 9.26 g/m*3 27.5 C 0 km/h
2478 10-09-2008 18:42:02 27.7 C 9.36 g/m*3 27.7 C 0 km/h
2479 10-09-2008 18:47:02 27.5 C 9 g/m*3 27.5 C 0 km/h
2480 10-09-2008 18:52:02 27.4 C 8.95 g/m*3 27.4 C 0 km/h
2481 10-09-2008 18:57:02 27.2 C 8.85 g/m*3 27.2 C 0 km/h
2482 10-09-2008 19:02:01 26.6 C 8.81 g/m*3 26.6 C 0 km/h
2483 10-09-2008 19:07:01 26.5 C 9.01 g/m*3 26.5 C 0 km/h
2484 10-09-2008 19:12:01 26.4 C 9.46 g/m*3 26.4 C 0 km/h
2485 10-09-2008 19:17:02 26.3 C 9.41 g/m*3 26.3 C 0 km/h
2486 10-09-2008 19:22:02 26 C 9.25 g/m*3 26 C 0 km/h
2487 10-09-2008 19:27:02 25.8 C 9.63 g/m*3 25.8 C 0 km/h
2488 10-09-2008 19:32:01 25.3 C 9.6 g/m*3 25.3 C 0 km/h
2489 10-09-2008 19:37:01 24.7 C 9.51 g/m*3 24.7 C 0 km/h
2490 10-09-2008 19:42:01 24.4 C 9.79 g/m*3 24.4 C 0 km/h
2491 10-09-2008 19:47:01 23.9 C 9.95 g/m*3 23.9 C 0 km/h
2492 10-09-2008 19:52:01 23.7 C 9.84 g/m*3 23.7 C 0 km/h
2493 10-09-2008 19:57:01 23.6 C 10 g/m*3 23.6 C 0 km/h
2494 10-09-2008 20:02:02 23.3 C 10.04 g/m*3 23.3 C 0 km/h
2495 10-09-2008 20:07:02 23.1 C 10.13 g/m*3 23.1 C 0 km/h
2496 10-09-2008 20:12:02 22.9 C 10.42 g/m*3 22.9 C 0 km/h
2497 10-09-2008 20:17:01 22.7 C 10.51 g/m*3 22.7 C 0 km/h
2498 10-09-2008 20:22:01 22.5 C 10.39 g/m*3 22.5 C 0 km/h
2499 10-09-2008 20:27:01 22.5 C 10.59 g/m*3 22.5 C 0 km/h
2500 10-09-2008 20:32:02 22.3 C 10.66 g/m*3 22.3 C 0 km/h
Sensor: Nr:Datum:Temp:Abs-Feuchte:Windchill:Wind:
Aussen-T/F 2501 10-09-2008 20:37:02 22.2 C 10.6 g/m*3 22.2 C 0 km/h
2502 10-09-2008 20:42:02 22.1 C 10.74 g/m*3 22.1 C 0 km/h
2503 10-09-2008 20:47:02 21.9 C 11 g/m*3 21.9 C 0 km/h
2504 10-09-2008 20:52:02 21.7 C 10.87 g/m*3 21.7 C 0 km/h
2505 10-09-2008 20:57:02 21.7 C 11.06 g/m*3 21.7 C 0 km/h
2506 10-09-2008 21:02:02 21.6 C 11 g/m*3 21.6 C 0 km/h
2507 10-09-2008 21:07:02 21.4 C 11.06 g/m*3 21.4 C 0 km/h
2508 10-09-2008 21:12:02 21.4 C 11.06 g/m*3 21.4 C 0 km/h
2509 10-09-2008 21:18:02 21.2 C 10.93 g/m*3 21.2 C 0 km/h
2510 10-09-2008 21:23:02 21.1 C 11.06 g/m*3 21.1 C 0 km/h
2511 10-09-2008 21:28:02 21 C 11.17 g/m*3 21 C 0 km/h
2512 10-09-2008 21:33:02 20.9 C 11.29 g/m*3 20.9 C 0 km/h
2513 10-09-2008 21:38:03 20.9 C 11.29 g/m*3 20.9 C 0 km/h
2514 10-09-2008 21:43:03 20.8 C 11.23 g/m*3 20.8 C 0 km/h
2515 10-09-2008 21:48:03 20.7 C 11.34 g/m*3 20.7 C 0 km/h
2516 10-09-2008 21:53:03 20.6 C 11.28 g/m*3 20.6 C 0 km/h
2517 10-09-2008 21:58:03 20.6 C 11.28 g/m*3 20.6 C 0 km/h
2518 10-09-2008 22:03:03 20.6 C 11.28 g/m*3 20.6 C 0 km/h
2519 10-09-2008 22:08:03 20.5 C 11.21 g/m*3 20.5 C 0 km/h
2520 10-09-2008 22:13:03 20.4 C 11.14 g/m*3 20.4 C 0 km/h
2521 10-09-2008 22:18:03 20.4 C 11.14 g/m*3 20.4 C 0 km/h
2522 10-09-2008 22:23:03 20.4 C 11.14 g/m*3 20.4 C 0 km/h
2523 10-09-2008 22:28:03 20.4 C 11.32 g/m*3 20.4 C 0 km/h
2524 10-09-2008 22:33:03 20.3 C 11.26 g/m*3 20.3 C 0 km/h
2525 10-09-2008 22:38:03 20.2 C 11.19 g/m*3 20.2 C 0 km/h
Sensor: Nr:Datum:Temp:Abs-Feuchte:Windchill:Wind:
Aussen-T/F 2526 10-09-2008 22:43:03 20.1 C 11.13 g/m*3 20.1 C 0 km/h
2527 10-09-2008 22:48:03 20.1 C 11.3 g/m*3 20.1 C 0 km/h
2528 10-09-2008 22:53:03 20 C 11.23 g/m*3 20 C 0 km/h
2529 10-09-2008 22:58:03 19.9 C 11.51 g/m*3 19.9 C 0 km/h
2530 10-09-2008 23:03:03 19.8 C 11.61 g/m*3 19.8 C 0 km/h
2531 10-09-2008 23:08:03 19.9 C 11.85 g/m*3 19.9 C 0 km/h
2532 10-09-2008 23:13:03 19.9 C 11.85 g/m*3 19.9 C 0 km/h
2533 10-09-2008 23:18:04 20 C 11.75 g/m*3 20 C 0 km/h
2534 10-09-2008 23:23:04 19.7 C 11.72 g/m*3 19.7 C 0 km/h
2535 10-09-2008 23:28:04 19.7 C 11.72 g/m*3 19.7 C 0 km/h
2536 10-09-2008 23:33:04 19.6 C 11.82 g/m*3 19.6 C 0 km/h
2537 10-09-2008 23:38:04 19.6 C 11.99 g/m*3 19.6 C 0 km/h
2538 10-09-2008 23:43:04 19.5 C 11.92 g/m*3 19.5 C 0 km/h
2539 10-09-2008 23:48:04 19.5 C 11.92 g/m*3 19.5 C 0 km/h
2540 10-09-2008 23:53:04 19.4 C 12.01 g/m*3 19.4 C 0 km/h
2541 10-09-2008 23:58:04 19.3 C 11.94 g/m*3 19.3 C 0 km/h
2542 11-09-2008 00:03:04 19.2 C 12.04 g/m*3 19.2 C 0 km/h
2543 11-09-2008 00:08:04 19.1 C 11.97 g/m*3 19.1 C 0 km/h
2544 11-09-2008 00:13:04 19.1 C 12.13 g/m*3 19.1 C 0 km/h
2545 11-09-2008 00:18:04 18.9 C 12.15 g/m*3 18.9 C 0 km/h
2546 11-09-2008 00:23:04 18.7 C 12.17 g/m*3 18.7 C 0 km/h
2547 11-09-2008 00:28:04 18.7 C 12.17 g/m*3 18.7 C 0 km/h
2548 11-09-2008 00:33:04 18.7 C 12.17 g/m*3 18.7 C 0 km/h
2549 11-09-2008 00:38:04 18.5 C 12.02 g/m*3 18.5 C 0 km/h
2550 11-09-2008 00:43:04 18.4 C 11.95 g/m*3 18.4 C 0 km/h
Sensor: Nr:Datum:Temp:Abs-Feuchte:Windchill:Wind:
Aussen-T/F 2551 11-09-2008 00:48:04 18.3 C 11.88 g/m*3 18.3 C 0 km/h
2552 11-09-2008 00:53:05 18.2 C 11.81 g/m*3 18.2 C 0 km/h
2553 11-09-2008 00:58:05 18 C 11.67 g/m*3 18 C 0 km/h
2554 11-09-2008 01:03:05 18 C 11.67 g/m*3 18 C 0 km/h
2555 11-09-2008 01:08:05 17.8 C 11.69 g/m*3 17.8 C 0 km/h
2556 11-09-2008 01:13:05 17.6 C 11.7 g/m*3 17.6 C 0 km/h
2557 11-09-2008 01:18:05 17.5 C 11.63 g/m*3 17.5 C 0 km/h
2558 11-09-2008 01:23:05 17.5 C 11.63 g/m*3 17.5 C 0 km/h
2559 11-09-2008 01:28:05 17.5 C 11.63 g/m*3 17.5 C 0 km/h
2560 11-09-2008 01:33:05 17.4 C 11.56 g/m*3 17.4 C 0 km/h
2561 11-09-2008 01:38:05 17.3 C 11.49 g/m*3 17.3 C 0 km/h
2562 11-09-2008 01:43:05 17.2 C 11.42 g/m*3 17.2 C 0 km/h
2563 11-09-2008 01:48:05 17.2 C 11.57 g/m*3 17.2 C 0 km/h
2564 11-09-2008 01:53:05 17.2 C 11.57 g/m*3 17.2 C 0 km/h
2565 11-09-2008 01:58:05 17.3 C 11.64 g/m*3 17.3 C 0 km/h
2566 11-09-2008 02:03:05 17.1 C 11.5 g/m*3 17.1 C 0 km/h
2567 11-09-2008 02:08:05 17 C 11.43 g/m*3 17 C 0 km/h
2568 11-09-2008 02:13:05 16.9 C 11.65 g/m*3 16.9 C 0 km/h
2569 11-09-2008 02:18:05 16.7 C 11.51 g/m*3 16.7 C 0 km/h
2570 11-09-2008 02:23:05 16.6 C 11.44 g/m*3 16.6 C 0 km/h
2571 11-09-2008 02:28:06 16.6 C 11.44 g/m*3 16.6 C 0 km/h
2572 11-09-2008 02:33:06 16.5 C 11.51 g/m*3 16.5 C 0 km/h
2573 11-09-2008 02:38:06 16.4 C 11.45 g/m*3 16.4 C 0 km/h
2574 11-09-2008 02:43:06 16.4 C 11.31 g/m*3 16.4 C 0 km/h
2575 11-09-2008 02:48:06 16.3 C 11.24 g/m*3 16.3 C 0 km/h
Sensor: Nr:Datum:Temp:Abs-Feuchte:Windchill:Wind:
Aussen-T/F 2576 11-09-2008 02:53:06 16.3 C 11.24 g/m*3 16.3 C 0 km/h
2577 11-09-2008 02:58:06 16.2 C 11.17 g/m*3 16.2 C 0 km/h
2578 11-09-2008 03:03:06 16.2 C 11.17 g/m*3 16.2 C 0 km/h
2579 11-09-2008 03:08:06 16.1 C 11.1 g/m*3 16.1 C 0 km/h
2580 11-09-2008 03:13:06 16.1 C 11.1 g/m*3 16.1 C 0 km/h
2581 11-09-2008 03:18:06 16 C 11.04 g/m*3 16 C 0 km/h
2582 11-09-2008 03:23:06 16 C 11.04 g/m*3 16 C 0 km/h
2583 11-09-2008 03:28:06 16 C 11.17 g/m*3 16 C 0 km/h
2584 11-09-2008 03:33:06 15.9 C 11.1 g/m*3 15.9 C 0 km/h
2585 11-09-2008 03:38:06 15.9 C 11.1 g/m*3 15.9 C 0 km/h
2586 11-09-2008 03:43:06 15.8 C 11.04 g/m*3 15.8 C 0 km/h
2587 11-09-2008 03:48:06 15.8 C 11.04 g/m*3 15.8 C 0 km/h
2588 11-09-2008 03:53:06 15.8 C 11.04 g/m*3 15.8 C 0 km/h
2589 11-09-2008 03:58:06 15.7 C 10.97 g/m*3 15.7 C 0 km/h
2590 11-09-2008 04:03:06 15.6 C 10.91 g/m*3 15.6 C 0 km/h
2591 11-09-2008 04:08:07 15.7 C 10.97 g/m*3 15.7 C 0 km/h
2592 11-09-2008 04:13:07 15.5 C 10.84 g/m*3 15.5 C 0 km/h
2593 11-09-2008 04:18:07 15.4 C 10.9 g/m*3 15.4 C 0 km/h
2594 11-09-2008 04:23:07 15.4 C 10.9 g/m*3 15.4 C 0 km/h
2595 11-09-2008 04:28:07 15.4 C 10.9 g/m*3 15.4 C 0 km/h
2596 11-09-2008 04:33:07 15.3 C 10.84 g/m*3 15.3 C 0 km/h
2597 11-09-2008 04:38:07 15.3 C 10.84 g/m*3 15.3 C 0 km/h
2598 11-09-2008 04:43:07 15.3 C 10.84 g/m*3 15.3 C 0 km/h
2599 11-09-2008 04:48:07 15.3 C 10.97 g/m*3 15.3 C 0 km/h
2600 11-09-2008 04:53:07 15.3 C 10.97 g/m*3 15.3 C 0 km/h
Sensor: Nr:Datum:Temp:Abs-Feuchte:Windchill:Wind:
Aussen-T/F 2601 11-09-2008 04:58:07 15.3 C 10.97 g/m*3 15.3 C 0 km/h
2602 11-09-2008 05:03:07 15.4 C 11.04 g/m*3 15.4 C 0 km/h
2603 11-09-2008 05:08:07 15.5 C 11.1 g/m*3 15.5 C 0 km/h
2604 11-09-2008 05:13:07 15.5 C 11.1 g/m*3 15.5 C 0 km/h
2605 11-09-2008 05:18:07 15.6 C 11.17 g/m*3 15.6 C 0 km/h
2606 11-09-2008 05:23:07 15.6 C 11.17 g/m*3 15.6 C 0 km/h
2607 11-09-2008 05:28:07 15.6 C 11.17 g/m*3 15.6 C 0 km/h
2608 11-09-2008 05:33:07 15.6 C 11.17 g/m*3 15.6 C 0 km/h
2609 11-09-2008 05:38:07 15.5 C 11.1 g/m*3 15.5 C 0 km/h
2610 11-09-2008 05:43:08 15.5 C 11.1 g/m*3 15.5 C 0 km/h
2611 11-09-2008 05:48:08 15.5 C 11.1 g/m*3 15.5 C 0 km/h
2612 11-09-2008 05:53:08 15.5 C 10.97 g/m*3 15.5 C 0 km/h
2613 11-09-2008 05:58:08 15.4 C 11.04 g/m*3 15.4 C 0 km/h
2614 11-09-2008 06:03:08 15.4 C 11.04 g/m*3 15.4 C 0 km/h
2615 11-09-2008 06:08:08 15.3 C 10.97 g/m*3 15.3 C 0 km/h
2616 11-09-2008 06:13:08 15.2 C 10.9 g/m*3 15.2 C 0 km/h
2617 11-09-2008 06:18:08 15.1 C 10.84 g/m*3 15.1 C 0 km/h
2618 11-09-2008 06:23:08 15.1 C 10.84 g/m*3 15.1 C 0 km/h
2619 11-09-2008 06:28:08 15.2 C 11.03 g/m*3 15.2 C 0 km/h
2620 11-09-2008 06:33:08 15.1 C 10.97 g/m*3 15.1 C 0 km/h
2621 11-09-2008 06:38:08 15.1 C 10.97 g/m*3 15.1 C 0 km/h
2622 11-09-2008 06:43:08 15.2 C 11.03 g/m*3 15.2 C 0 km/h
2623 11-09-2008 06:48:08 15.3 C 11.1 g/m*3 15.3 C 0 km/h
2624 11-09-2008 06:53:08 15.3 C 11.1 g/m*3 15.3 C 0 km/h
2625 11-09-2008 06:58:08 15.4 C 11.17 g/m*3 15.4 C 0 km/h
Sensor: Nr:Datum:Temp:Abs-Feuchte:Windchill:Wind:
Aussen-T/F 2626 11-09-2008 07:03:02 15.4 C 11.17 g/m*3 15.4 C 0 km/h
2627 11-09-2008 07:08:02 15.4 C 11.17 g/m*3 15.4 C 0 km/h
2628 11-09-2008 07:13:02 15.4 C 11.17 g/m*3 15.4 C 0 km/h
2629 11-09-2008 07:18:02 15.4 C 11.17 g/m*3 15.4 C 0 km/h
2630 11-09-2008 07:23:02 15.4 C 11.17 g/m*3 15.4 C 0 km/h
2631 11-09-2008 07:28:02 15.4 C 11.17 g/m*3 15.4 C 0 km/h
2632 11-09-2008 07:33:02 15.4 C 11.17 g/m*3 15.4 C 0 km/h
2633 11-09-2008 07:38:02 15.4 C 11.3 g/m*3 15.4 C 0 km/h
2634 11-09-2008 07:43:02 15.5 C 11.37 g/m*3 15.5 C 0 km/h
2635 11-09-2008 07:48:02 15.6 C 11.44 g/m*3 15.6 C 0 km/h
2636 11-09-2008 07:53:02 15.7 C 11.51 g/m*3 15.7 C 0 km/h
2637 11-09-2008 07:58:02 15.8 C 11.58 g/m*3 15.8 C 0 km/h
2638 11-09-2008 08:03:02 15.8 C 11.58 g/m*3 15.8 C 0 km/h
2639 11-09-2008 08:08:02 15.8 C 11.44 g/m*3 15.8 C 0 km/h
2640 11-09-2008 08:13:02 15.9 C 11.51 g/m*3 15.9 C 0 km/h
2641 11-09-2008 08:18:02 16 C 11.44 g/m*3 16 C 0 km/h
2642 11-09-2008 08:23:02 16 C 11.44 g/m*3 16 C 0 km/h
2643 11-09-2008 08:28:02 16.1 C 11.65 g/m*3 16.1 C 0 km/h
2644 11-09-2008 08:33:03 16.2 C 11.72 g/m*3 16.2 C 0 km/h
2645 11-09-2008 08:38:03 16.4 C 11.86 g/m*3 16.4 C 0 km/h
2646 11-09-2008 08:43:03 16.5 C 11.8 g/m*3 16.5 C 0 km/h
2647 11-09-2008 08:48:02 16.6 C 11.87 g/m*3 16.6 C 0 km/h
2648 11-09-2008 08:53:02 16.6 C 11.87 g/m*3 16.6 C 0 km/h
2649 11-09-2008 08:58:02 16.7 C 11.94 g/m*3 16.7 C 0 km/h
2650 11-09-2008 09:03:02 16.8 C 11.87 g/m*3 16.8 C 0 km/h
Sensor: Nr:Datum:Temp:Abs-Feuchte:Windchill:Wind:
Aussen-T/F 2651 11-09-2008 09:08:02 16.8 C 11.87 g/m*3 16.8 C 0 km/h
2652 11-09-2008 09:13:02 17 C 12.01 g/m*3 17 C 0 km/h
2653 11-09-2008 09:18:02 17.2 C 12.15 g/m*3 17.2 C 0 km/h
2654 11-09-2008 09:23:02 17.3 C 12.08 g/m*3 17.3 C 0 km/h
2655 11-09-2008 09:28:02 17.5 C 12.23 g/m*3 17.5 C 0 km/h
2656 11-09-2008 09:33:03 17.6 C 12.15 g/m*3 17.6 C 0 km/h
2657 11-09-2008 09:38:03 17.6 C 12 g/m*3 17.6 C 0 km/h
2658 11-09-2008 09:43:03 17.7 C 12.07 g/m*3 17.7 C 0 km/h
2659 11-09-2008 09:48:02 17.8 C 11.99 g/m*3 17.8 C 0 km/h
2660 11-09-2008 09:53:02 17.9 C 12.06 g/m*3 17.9 C 0 km/h
2661 11-09-2008 09:58:02 18.2 C 12.12 g/m*3 18.2 C 0 km/h
2662 11-09-2008 10:03:03 18.4 C 12.11 g/m*3 18.4 C 0 km/h
2663 11-09-2008 10:08:03 18.7 C 12.33 g/m*3 18.7 C 0 km/h
2664 11-09-2008 10:13:03 18.8 C 12.24 g/m*3 18.8 C 0 km/h
2665 11-09-2008 10:18:02 19 C 12.06 g/m*3 19 C 0 km/h
2666 11-09-2008 10:23:02 19.2 C 12.04 g/m*3 19.2 C 0 km/h
2667 11-09-2008 10:28:02 19.3 C 12.11 g/m*3 19.3 C 0 km/h
2668 11-09-2008 10:33:02 19.5 C 12.08 g/m*3 19.5 C 0 km/h
2669 11-09-2008 10:38:02 19.7 C 12.06 g/m*3 19.7 C 0 km/h
2670 11-09-2008 10:43:02 19.9 C 12.03 g/m*3 19.9 C 0 km/h
2671 11-09-2008 10:48:03 20.1 C 11.82 g/m*3 20.1 C 0 km/h
2672 11-09-2008 10:53:03 20.5 C 12.1 g/m*3 20.5 C 0 km/h
2673 11-09-2008 10:58:03 20.4 C 11.85 g/m*3 20.4 C 0 km/h
2674 11-09-2008 11:03:02 20.5 C 11.74 g/m*3 20.5 C 0 km/h
2675 11-09-2008 11:08:02 20.8 C 11.95 g/m*3 20.8 C 0 km/h
Sensor: Nr:Datum:Temp:Abs-Feuchte:Windchill:Wind:
Aussen-T/F 2676 11-09-2008 11:13:02 20.9 C 11.84 g/m*3 20.9 C 0 km/h
2677 11-09-2008 11:18:02 21 C 11.72 g/m*3 21 C 0 km/h
2678 11-09-2008 11:23:02 21.1 C 11.79 g/m*3 21.1 C 0 km/h
2679 11-09-2008 11:28:02 21.2 C 11.68 g/m*3 21.2 C 0 km/h
2680 11-09-2008 11:33:02 21.1 C 11.61 g/m*3 21.1 C 0 km/h
2681 11-09-2008 11:38:02 20.9 C 11.66 g/m*3 20.9 C 0 km/h
2682 11-09-2008 11:43:03 20.8 C 11.95 g/m*3 20.8 C 0 km/h
2683 11-09-2008 11:48:01 20.9 C 12.02 g/m*3 20.9 C 0 km/h
2684 11-09-2008 11:53:01 21 C 11.91 g/m*3 21 C 0 km/h
2685 11-09-2008 11:58:01 21.1 C 11.79 g/m*3 21.1 C 0 km/h
2686 11-09-2008 12:03:02 21.1 C 11.98 g/m*3 21.1 C 0 km/h
2687 11-09-2008 12:08:02 21.2 C 12.05 g/m*3 21.2 C 0 km/h
2688 11-09-2008 12:13:02 21.2 C 12.05 g/m*3 21.2 C 0 km/h
2689 11-09-2008 12:18:02 21.5 C 12.26 g/m*3 21.5 C 0 km/h
2690 11-09-2008 12:23:02 21.6 C 12.14 g/m*3 21.6 C 0 km/h
2691 11-09-2008 12:28:03 21.9 C 12.35 g/m*3 21.9 C 0 km/h
2692 11-09-2008 12:33:01 22.2 C 12.17 g/m*3 22.2 C 0 km/h
2693 11-09-2008 12:38:01 22.5 C 12.38 g/m*3 22.5 C 0 km/h
2694 11-09-2008 12:43:01 22.8 C 12.19 g/m*3 22.8 C 0 km/h
2695 11-09-2008 12:48:02 23 C 12.13 g/m*3 23 C 0 km/h
2696 11-09-2008 12:53:02 23.1 C 12.2 g/m*3 23.1 C 0 km/h
2697 11-09-2008 12:58:02 23.3 C 12.13 g/m*3 23.3 C 0 km/h
2698 11-09-2008 13:03:01 23.7 C 12.19 g/m*3 23.7 C 0 km/h
2699 11-09-2008 13:08:01 24.1 C 12.03 g/m*3 24.1 C 0 km/h
2700 11-09-2008 13:13:01 24.3 C 12.17 g/m*3 24.3 C 0 km/h
Sensor: Nr:Datum:Temp:Abs-Feuchte:Windchill:Wind:
Aussen-T/F 2701 11-09-2008 13:18:01 24.7 C 12.22 g/m*3 24.7 C 0 km/h
2702 11-09-2008 13:23:01 24.9 C 12.13 g/m*3 24.9 C 0 km/h
2703 11-09-2008 13:28:01 24.9 C 11.9 g/m*3 24.9 C 0 km/h
2704 11-09-2008 13:33:02 25.4 C 11.77 g/m*3 25.4 C 0 km/h
2705 11-09-2008 13:38:02 25.7 C 11.73 g/m*3 25.7 C 0 km/h
2706 11-09-2008 13:43:02 25.9 C 11.86 g/m*3 25.9 C 0 km/h
2707 11-09-2008 13:48:02 26.1 C 12 g/m*3 26.1 C 0 km/h
2708 11-09-2008 13:53:02 26.4 C 11.7 g/m*3 26.4 C 0 km/h
2709 11-09-2008 13:58:02 26.5 C 11.77 g/m*3 26.5 C 0 km/h
2710 11-09-2008 14:03:01 26.9 C 11.77 g/m*3 26.9 C 0 km/h
2711 11-09-2008 14:08:01 27.2 C 11.45 g/m*3 27.2 C 0 km/h
2712 11-09-2008 14:13:01 27.5 C 11.38 g/m*3 27.5 C 0 km/h
2713 11-09-2008 14:18:02 27.7 C 11.5 g/m*3 27.7 C 0 km/h
2714 11-09-2008 14:23:02 27.8 C 11.3 g/m*3 27.8 C 0 km/h
2715 11-09-2008 14:28:02 27.9 C 11.09 g/m*3 27.9 C 0 km/h
2716 11-09-2008 14:33:02 27.8 C 11.03 g/m*3 27.8 C 0 km/h
2717 11-09-2008 14:38:02 28.2 C 11.27 g/m*3 28.2 C 0 km/h
2718 11-09-2008 14:43:02 28.3 C 11.06 g/m*3 28.3 C 0 km/h
2719 11-09-2008 14:48:01 28.3 C 11.33 g/m*3 28.3 C 0 km/h
2720 11-09-2008 14:53:01 28.7 C 11.3 g/m*3 28.7 C 0 km/h
2721 11-09-2008 14:58:01 29 C 10.63 g/m*3 29 C 0 km/h
2722 11-09-2008 15:03:02 29.4 C 10.27 g/m*3 29.4 C 0 km/h
2723 11-09-2008 15:08:03 29.6 C 10.68 g/m*3 29.6 C 0 km/h
2724 11-09-2008 15:13:03 29.4 C 9.98 g/m*3 29.4 C 0 km/h
2725 11-09-2008 15:18:02 29 C 10.63 g/m*3 29 C 0 km/h
Sensor: Nr:Datum:Temp:Abs-Feuchte:Windchill:Wind:
Aussen-T/F 2726 11-09-2008 15:23:02 28.8 C 10.51 g/m*3 28.8 C 0 km/h
2727 11-09-2008 15:28:02 28.7 C 10.17 g/m*3 28.7 C 0 km/h
2728 11-09-2008 15:33:02 28.8 C 10.51 g/m*3 28.8 C 0 km/h
2729 11-09-2008 15:38:02 28.9 C 10.86 g/m*3 28.9 C 0 km/h
2730 11-09-2008 15:43:02 29 C 9.77 g/m*3 29 C 0 km/h
2731 11-09-2008 15:48:02 29.2 C 9.29 g/m*3 29.2 C 0 km/h
2732 11-09-2008 15:53:02 29 C 8.9 g/m*3 29 C 0 km/h
2733 11-09-2008 15:58:02 28.6 C 8.99 g/m*3 28.6 C 0 km/h
2734 11-09-2008 16:03:01 28.3 C 9.68 g/m*3 28.3 C 0 km/h
2735 11-09-2008 16:08:01 28 C 10.06 g/m*3 28 C 0 km/h
2736 11-09-2008 16:13:01 27.7 C 10.7 g/m*3 27.7 C 0 km/h
2737 11-09-2008 16:18:02 27.1 C 10.61 g/m*3 27.1 C 0 km/h
2738 11-09-2008 16:23:02 26.6 C 11.08 g/m*3 26.6 C 0 km/h
2739 11-09-2008 16:28:02 26.5 C 10.51 g/m*3 26.5 C 0 km/h
2740 11-09-2008 16:33:02 26.3 C 11.39 g/m*3 26.3 C 0 km/h
2741 11-09-2008 16:38:02 26 C 11.2 g/m*3 26 C 0 km/h
2742 11-09-2008 16:43:02 25.9 C 11.62 g/m*3 25.9 C 0 km/h
2743 11-09-2008 16:48:02 25.8 C 11.56 g/m*3 25.8 C 0 km/h
2744 11-09-2008 16:53:02 25.6 C 10.95 g/m*3 25.6 C 0 km/h
2745 11-09-2008 16:58:02 25.4 C 11.06 g/m*3 25.4 C 0 km/h
2746 11-09-2008 17:03:02 25.1 C 11.11 g/m*3 25.1 C 0 km/h
2747 11-09-2008 17:08:02 25.3 C 10.77 g/m*3 25.3 C 0 km/h
2748 11-09-2008 17:13:02 25.2 C 10.94 g/m*3 25.2 C 0 km/h
2749 11-09-2008 17:18:02 25.1 C 10.88 g/m*3 25.1 C 0 km/h
2750 11-09-2008 17:23:02 25.1 C 10.88 g/m*3 25.1 C 0 km/h
Sensor: Nr:Datum:Temp:Abs-Feuchte:Windchill:Wind:
Aussen-T/F 2751 11-09-2008 17:28:02 24.8 C 11.38 g/m*3 24.8 C 0 km/h
2752 11-09-2008 17:33:02 24.7 C 11.54 g/m*3 24.7 C 0 km/h
2753 11-09-2008 17:38:02 24.6 C 11.7 g/m*3 24.6 C 0 km/h
2754 11-09-2008 17:43:02 23.2 C 13.1 g/m*3 23.2 C 0 km/h
2755 11-09-2008 17:48:02 22.7 C 13.74 g/m*3 22.7 C 0 km/h
2756 11-09-2008 17:53:02 21.6 C 14.22 g/m*3 21.6 C 0 km/h
2757 11-09-2008 17:58:02 21.1 C 14.56 g/m*3 21.1 C 0 km/h
2758 11-09-2008 18:03:01 20.9 C 14.75 g/m*3 20.9 C 0 km/h
2759 11-09-2008 18:08:01 20.8 C 14.85 g/m*3 20.8 C 0 km/h
2760 11-09-2008 18:13:01 20.9 C 15.12 g/m*3 20.9 C 0 km/h
2761 11-09-2008 18:18:02 21 C 15.02 g/m*3 21 C 0 km/h
2762 11-09-2008 18:23:02 21.1 C 15.11 g/m*3 21.1 C 0 km/h
2763 11-09-2008 18:28:02 21.4 C 15.37 g/m*3 21.4 C 0 km/h
2764 11-09-2008 18:33:02 21.6 C 15.36 g/m*3 21.6 C 0 km/h
2765 11-09-2008 18:38:02 21.8 C 15.54 g/m*3 21.8 C 0 km/h
2766 11-09-2008 18:43:02 22.1 C 15.42 g/m*3 22.1 C 0 km/h
2767 11-09-2008 18:48:02 22.2 C 15.31 g/m*3 22.2 C 0 km/h
2768 11-09-2008 18:53:02 22.2 C 15.31 g/m*3 22.2 C 0 km/h
2769 11-09-2008 18:58:02 22.2 C 15.12 g/m*3 22.2 C 0 km/h
2770 11-09-2008 19:03:02 22.2 C 15.12 g/m*3 22.2 C 0 km/h
2771 11-09-2008 19:08:02 22.1 C 15.03 g/m*3 22.1 C 0 km/h
2772 11-09-2008 19:13:02 22 C 14.94 g/m*3 22 C 0 km/h
2773 11-09-2008 19:18:02 21.8 C 15.16 g/m*3 21.8 C 0 km/h
2774 11-09-2008 19:23:02 21.6 C 14.98 g/m*3 21.6 C 0 km/h
2775 11-09-2008 19:28:02 21.4 C 14.81 g/m*3 21.4 C 0 km/h
Sensor: Nr:Datum:Temp:Abs-Feuchte:Windchill:Wind:
Aussen-T/F 2776 11-09-2008 19:33:01 21.2 C 14.83 g/m*3 21.2 C 0 km/h
2777 11-09-2008 19:38:01 21.1 C 14.74 g/m*3 21.1 C 0 km/h
2778 11-09-2008 19:43:01 21.1 C 14.92 g/m*3 21.1 C 0 km/h
2779 11-09-2008 19:48:02 20.9 C 14.93 g/m*3 20.9 C 0 km/h
2780 11-09-2008 19:53:02 20.8 C 14.85 g/m*3 20.8 C 0 km/h
2781 11-09-2008 19:58:02 20.7 C 14.76 g/m*3 20.7 C 0 km/h
2782 11-09-2008 20:03:02 20.6 C 14.68 g/m*3 20.6 C 0 km/h
2783 11-09-2008 20:08:02 20.4 C 14.51 g/m*3 20.4 C 0 km/h
2784 11-09-2008 20:13:02 20.3 C 14.42 g/m*3 20.3 C 0 km/h
2785 11-09-2008 20:18:02 20.1 C 14.25 g/m*3 20.1 C 0 km/h
2786 11-09-2008 20:23:02 20 C 14.17 g/m*3 20 C 0 km/h
2787 11-09-2008 20:28:02 19.9 C 14.26 g/m*3 19.9 C 0 km/h
2788 11-09-2008 20:33:02 19.9 C 14.26 g/m*3 19.9 C 0 km/h
2789 11-09-2008 20:38:02 19.9 C 14.26 g/m*3 19.9 C 0 km/h
2790 11-09-2008 20:43:02 19.9 C 14.26 g/m*3 19.9 C 0 km/h
2791 11-09-2008 20:48:01 20 C 14.17 g/m*3 20 C 0 km/h
2792 11-09-2008 20:53:01 19.7 C 14.26 g/m*3 19.7 C 0 km/h
2793 11-09-2008 20:58:01 19.6 C 14.18 g/m*3 19.6 C 0 km/h
2794 11-09-2008 21:03:01 19.5 C 14.1 g/m*3 19.5 C 0 km/h
2795 11-09-2008 21:08:01 19.6 C 14.18 g/m*3 19.6 C 0 km/h
2796 11-09-2008 21:13:01 19.5 C 14.1 g/m*3 19.5 C 0 km/h
2797 11-09-2008 21:18:01 19.5 C 14.1 g/m*3 19.5 C 0 km/h
2798 11-09-2008 21:23:01 19.5 C 14.1 g/m*3 19.5 C 0 km/h
2799 11-09-2008 21:28:01 19.4 C 14.01 g/m*3 19.4 C 0 km/h
2800 11-09-2008 21:33:01 19.3 C 13.93 g/m*3 19.3 C 0 km/h
Sensor: Nr:Datum:Temp:Abs-Feuchte:Windchill:Wind:
Aussen-T/F 2801 11-09-2008 21:38:01 19.3 C 13.93 g/m*3 19.3 C 0 km/h
2802 11-09-2008 21:43:01 19.3 C 14.1 g/m*3 19.3 C 0 km/h
2803 11-09-2008 21:49:03 19.2 C 14.02 g/m*3 19.2 C 0 km/h
2804 11-09-2008 21:54:03 19.2 C 14.02 g/m*3 19.2 C 0 km/h
2805 11-09-2008 21:59:03 19.1 C 13.93 g/m*3 19.1 C 0 km/h
2806 11-09-2008 22:04:03 19 C 13.85 g/m*3 19 C 0 km/h
2807 11-09-2008 22:09:03 19 C 13.85 g/m*3 19 C 0 km/h
2808 11-09-2008 22:14:03 19 C 13.85 g/m*3 19 C 0 km/h
2809 11-09-2008 22:19:03 18.9 C 13.93 g/m*3 18.9 C 0 km/h
2810 11-09-2008 22:24:03 18.9 C 13.93 g/m*3 18.9 C 0 km/h
2811 11-09-2008 22:29:03 18.8 C 13.85 g/m*3 18.8 C 0 km/h
2812 11-09-2008 22:34:03 18.8 C 13.85 g/m*3 18.8 C 0 km/h
2813 11-09-2008 22:39:03 18.7 C 13.93 g/m*3 18.7 C 0 km/h
2814 11-09-2008 22:44:03 18.7 C 13.93 g/m*3 18.7 C 0 km/h
2815 11-09-2008 22:49:03 18.7 C 13.77 g/m*3 18.7 C 0 km/h
2816 11-09-2008 22:54:03 18.6 C 13.69 g/m*3 18.6 C 0 km/h
2817 11-09-2008 22:59:03 18.6 C 13.85 g/m*3 18.6 C 0 km/h
2818 11-09-2008 23:04:04 18.6 C 13.85 g/m*3 18.6 C 0 km/h
2819 11-09-2008 23:09:04 18.5 C 13.77 g/m*3 18.5 C 0 km/h
2820 11-09-2008 23:14:04 18.5 C 13.77 g/m*3 18.5 C 0 km/h
2821 11-09-2008 23:19:04 18.5 C 13.77 g/m*3 18.5 C 0 km/h
2822 11-09-2008 23:24:04 18.4 C 13.68 g/m*3 18.4 C 0 km/h
2823 11-09-2008 23:29:04 18.3 C 13.6 g/m*3 18.3 C 0 km/h
2824 11-09-2008 23:34:04 18.2 C 13.52 g/m*3 18.2 C 0 km/h
2825 11-09-2008 23:39:04 18.1 C 13.44 g/m*3 18.1 C 0 km/h
Sensor: Nr:Datum:Temp:Abs-Feuchte:Windchill:Wind:
Aussen-T/F 2826 11-09-2008 23:44:04 18.1 C 13.44 g/m*3 18.1 C 0 km/h
2827 11-09-2008 23:49:04 18.1 C 13.44 g/m*3 18.1 C 0 km/h
2828 11-09-2008 23:54:04 18 C 13.36 g/m*3 18 C 0 km/h
2829 11-09-2008 23:59:04 18 C 13.52 g/m*3 18 C 0 km/h
2830 12-09-2008 00:04:04 18 C 13.52 g/m*3 18 C 0 km/h
2831 12-09-2008 00:09:04 18.1 C 13.6 g/m*3 18.1 C 0 km/h
2832 12-09-2008 00:14:04 18.1 C 13.6 g/m*3 18.1 C 0 km/h
2833 12-09-2008 00:19:04 18.1 C 13.6 g/m*3 18.1 C 0 km/h
2834 12-09-2008 00:24:04 18.1 C 13.6 g/m*3 18.1 C 0 km/h
2835 12-09-2008 00:29:04 18.1 C 13.6 g/m*3 18.1 C 0 km/h
2836 12-09-2008 00:34:04 18.1 C 13.6 g/m*3 18.1 C 0 km/h
2837 12-09-2008 00:39:05 18.1 C 13.6 g/m*3 18.1 C 0 km/h
2838 12-09-2008 00:44:05 18.1 C 13.6 g/m*3 18.1 C 0 km/h
2839 12-09-2008 00:49:05 18.1 C 13.6 g/m*3 18.1 C 0 km/h
2840 12-09-2008 00:54:05 18.1 C 13.6 g/m*3 18.1 C 0 km/h
2841 12-09-2008 00:59:05 18.1 C 13.6 g/m*3 18.1 C 0 km/h
2842 12-09-2008 01:04:05 18.1 C 13.6 g/m*3 18.1 C 0 km/h
2843 12-09-2008 01:09:05 18.1 C 13.6 g/m*3 18.1 C 0 km/h
2844 12-09-2008 01:14:05 18.1 C 13.6 g/m*3 18.1 C 0 km/h
2845 12-09-2008 01:19:05 18.2 C 13.68 g/m*3 18.2 C 0 km/h
2846 12-09-2008 01:24:05 18.2 C 13.68 g/m*3 18.2 C 0 km/h
2847 12-09-2008 01:29:05 18.2 C 13.68 g/m*3 18.2 C 0 km/h
2848 12-09-2008 01:34:05 18.2 C 13.52 g/m*3 18.2 C 0 km/h
2849 12-09-2008 01:39:05 18.3 C 13.6 g/m*3 18.3 C 0 km/h
2850 12-09-2008 01:44:05 18.3 C 13.6 g/m*3 18.3 C 0 km/h
Sensor: Nr:Datum:Temp:Abs-Feuchte:Windchill:Wind:
Aussen-T/F 2851 12-09-2008 01:49:05 18.3 C 13.6 g/m*3 18.3 C 0 km/h
2852 12-09-2008 01:54:05 18.3 C 13.45 g/m*3 18.3 C 0 km/h
2853 12-09-2008 01:59:05 18.3 C 13.45 g/m*3 18.3 C 0 km/h
2854 12-09-2008 02:04:05 18.2 C 13.37 g/m*3 18.2 C 0 km/h
2855 12-09-2008 02:09:05 18.3 C 13.45 g/m*3 18.3 C 0 km/h
2856 12-09-2008 02:14:06 18.2 C 13.37 g/m*3 18.2 C 0 km/h
2857 12-09-2008 02:19:06 18.3 C 13.45 g/m*3 18.3 C 0 km/h
2858 12-09-2008 02:24:06 18.3 C 13.45 g/m*3 18.3 C 0 km/h
2859 12-09-2008 02:29:06 18.3 C 13.45 g/m*3 18.3 C 0 km/h
2860 12-09-2008 02:34:06 18.3 C 13.45 g/m*3 18.3 C 0 km/h
2861 12-09-2008 02:39:06 18.3 C 13.45 g/m*3 18.3 C 0 km/h
2862 12-09-2008 02:44:06 18.3 C 13.45 g/m*3 18.3 C 0 km/h
2863 12-09-2008 02:49:06 18.3 C 13.45 g/m*3 18.3 C 0 km/h
2864 12-09-2008 02:54:06 18.3 C 13.45 g/m*3 18.3 C 0 km/h
2865 12-09-2008 02:59:06 18.3 C 13.45 g/m*3 18.3 C 0 km/h
2866 12-09-2008 03:04:06 18.3 C 13.45 g/m*3 18.3 C 0 km/h
2867 12-09-2008 03:09:06 18.2 C 13.37 g/m*3 18.2 C 0 km/h
2868 12-09-2008 03:14:06 18.1 C 13.44 g/m*3 18.1 C 0 km/h
2869 12-09-2008 03:19:06 18.1 C 13.44 g/m*3 18.1 C 0 km/h
2870 12-09-2008 03:24:06 18.1 C 13.44 g/m*3 18.1 C 0 km/h
2871 12-09-2008 03:29:06 18.2 C 13.52 g/m*3 18.2 C 0 km/h
2872 12-09-2008 03:34:06 18 C 13.36 g/m*3 18 C 0 km/h
2873 12-09-2008 03:39:06 17.9 C 13.44 g/m*3 17.9 C 0 km/h
2874 12-09-2008 03:44:06 17.9 C 13.59 g/m*3 17.9 C 0 km/h
2875 12-09-2008 03:49:07 17.8 C 13.51 g/m*3 17.8 C 0 km/h
Sensor: Nr:Datum:Temp:Abs-Feuchte:Windchill:Wind:
Aussen-T/F 2876 12-09-2008 03:54:07 17.8 C 13.51 g/m*3 17.8 C 0 km/h
2877 12-09-2008 03:59:07 17.8 C 13.51 g/m*3 17.8 C 0 km/h
2878 12-09-2008 04:04:07 17.9 C 13.59 g/m*3 17.9 C 0 km/h
2879 12-09-2008 04:09:07 17.9 C 13.59 g/m*3 17.9 C 0 km/h
2880 12-09-2008 04:14:07 17.9 C 13.59 g/m*3 17.9 C 0 km/h
2881 12-09-2008 04:19:07 17.8 C 13.51 g/m*3 17.8 C 0 km/h
2882 12-09-2008 04:24:07 17.8 C 13.51 g/m*3 17.8 C 0 km/h
2883 12-09-2008 04:29:07 17.8 C 13.51 g/m*3 17.8 C 0 km/h
2884 12-09-2008 04:34:07 17.8 C 13.51 g/m*3 17.8 C 0 km/h
2885 12-09-2008 04:39:07 17.8 C 13.51 g/m*3 17.8 C 0 km/h
2886 12-09-2008 04:44:07 17.7 C 13.43 g/m*3 17.7 C 0 km/h
2887 12-09-2008 04:49:07 17.7 C 13.43 g/m*3 17.7 C 0 km/h
2888 12-09-2008 04:54:07 17.7 C 13.43 g/m*3 17.7 C 0 km/h
2889 12-09-2008 04:59:07 17.7 C 13.58 g/m*3 17.7 C 0 km/h
2890 12-09-2008 05:04:07 17.7 C 13.58 g/m*3 17.7 C 0 km/h
2891 12-09-2008 05:09:07 17.7 C 13.58 g/m*3 17.7 C 0 km/h
2892 12-09-2008 05:14:07 17.7 C 13.58 g/m*3 17.7 C 0 km/h
2893 12-09-2008 05:19:07 17.5 C 13.27 g/m*3 17.5 C 0 km/h
2894 12-09-2008 05:24:07 17.5 C 13.27 g/m*3 17.5 C 0 km/h
2895 12-09-2008 05:29:08 17.5 C 13.42 g/m*3 17.5 C 0 km/h
2896 12-09-2008 05:34:08 17.4 C 13.19 g/m*3 17.4 C 0 km/h
2897 12-09-2008 05:39:08 17.4 C 13.19 g/m*3 17.4 C 0 km/h
2898 12-09-2008 05:44:08 17.4 C 13.19 g/m*3 17.4 C 0 km/h
2899 12-09-2008 05:49:08 17.4 C 13.34 g/m*3 17.4 C 0 km/h
2900 12-09-2008 05:54:08 17.2 C 13.03 g/m*3 17.2 C 0 km/h
Sensor: Nr:Datum:Temp:Abs-Feuchte:Windchill:Wind:
Aussen-T/F 2901 12-09-2008 05:59:08 17.2 C 13.03 g/m*3 17.2 C 0 km/h
2902 12-09-2008 06:04:08 17.3 C 13.26 g/m*3 17.3 C 0 km/h
2903 12-09-2008 06:09:08 17.5 C 13.42 g/m*3 17.5 C 0 km/h
2904 12-09-2008 06:14:08 17.5 C 13.42 g/m*3 17.5 C 0 km/h
2905 12-09-2008 06:19:08 17.4 C 13.34 g/m*3 17.4 C 0 km/h
2906 12-09-2008 06:24:08 17.4 C 13.34 g/m*3 17.4 C 0 km/h
2907 12-09-2008 06:29:08 17.5 C 13.42 g/m*3 17.5 C 0 km/h
2908 12-09-2008 06:34:08 17.4 C 13.34 g/m*3 17.4 C 0 km/h
2909 12-09-2008 06:39:08 17.2 C 13.18 g/m*3 17.2 C 0 km/h
2910 12-09-2008 06:44:08 17.2 C 13.18 g/m*3 17.2 C 0 km/h
2911 12-09-2008 06:49:08 17.2 C 13.03 g/m*3 17.2 C 0 km/h
2912 12-09-2008 06:54:08 17 C 12.88 g/m*3 17 C 0 km/h
2913 12-09-2008 06:59:08 16.9 C 12.94 g/m*3 16.9 C 0 km/h
2914 12-09-2008 07:04:02 16.9 C 12.94 g/m*3 16.9 C 0 km/h
2915 12-09-2008 07:09:02 16.9 C 12.94 g/m*3 16.9 C 0 km/h
2916 12-09-2008 07:14:02 17 C 12.88 g/m*3 17 C 0 km/h
2917 12-09-2008 07:19:03 17 C 12.88 g/m*3 17 C 0 km/h
2918 12-09-2008 07:24:03 16.9 C 12.94 g/m*3 16.9 C 0 km/h
2919 12-09-2008 07:29:03 16.9 C 12.94 g/m*3 16.9 C 0 km/h
2920 12-09-2008 07:34:02 17 C 12.88 g/m*3 17 C 0 km/h
2921 12-09-2008 07:39:02 16.8 C 12.87 g/m*3 16.8 C 0 km/h
2922 12-09-2008 07:44:02 16.9 C 12.8 g/m*3 16.9 C 0 km/h
2923 12-09-2008 07:49:01 16.8 C 12.87 g/m*3 16.8 C 0 km/h
2924 12-09-2008 07:54:01 16.8 C 12.87 g/m*3 16.8 C 0 km/h
2925 12-09-2008 07:59:01 16.9 C 12.94 g/m*3 16.9 C 0 km/h
Sensor: Nr:Datum:Temp:Abs-Feuchte:Windchill:Wind:
Aussen-T/F 2926 12-09-2008 08:04:02 16.9 C 12.94 g/m*3 16.9 C 0 km/h
2927 12-09-2008 08:09:02 16.9 C 12.94 g/m*3 16.9 C 0 km/h
2928 12-09-2008 08:14:02 17 C 12.88 g/m*3 17 C 0 km/h
2929 12-09-2008 08:19:01 17.1 C 12.96 g/m*3 17.1 C 0 km/h
2930 12-09-2008 08:24:01 17.1 C 12.96 g/m*3 17.1 C 0 km/h
2931 12-09-2008 08:29:01 17.1 C 12.81 g/m*3 17.1 C 0 km/h
2932 12-09-2008 08:34:02 17.2 C 12.89 g/m*3 17.2 C 0 km/h
2933 12-09-2008 08:39:02 17.3 C 12.96 g/m*3 17.3 C 0 km/h
2934 12-09-2008 08:44:02 17.5 C 13.12 g/m*3 17.5 C 0 km/h
2935 12-09-2008 08:49:02 17.4 C 12.89 g/m*3 17.4 C 0 km/h
2936 12-09-2008 08:54:02 17.5 C 12.97 g/m*3 17.5 C 0 km/h
2937 12-09-2008 08:59:02 17.4 C 12.89 g/m*3 17.4 C 0 km/h
2938 12-09-2008 09:04:02 17.2 C 12.74 g/m*3 17.2 C 0 km/h
2939 12-09-2008 09:09:02 17 C 12.73 g/m*3 17 C 0 km/h
2940 12-09-2008 09:14:02 16.9 C 12.8 g/m*3 16.9 C 0 km/h
2941 12-09-2008 09:19:02 16.9 C 12.8 g/m*3 16.9 C 0 km/h
2942 12-09-2008 09:24:02 17 C 12.88 g/m*3 17 C 0 km/h
2943 12-09-2008 09:29:02 17 C 12.88 g/m*3 17 C 0 km/h
2944 12-09-2008 09:34:02 16.9 C 12.94 g/m*3 16.9 C 0 km/h
2945 12-09-2008 09:39:02 16.8 C 12.87 g/m*3 16.8 C 0 km/h
2946 12-09-2008 09:44:02 16.9 C 13.09 g/m*3 16.9 C 0 km/h
2947 12-09-2008 09:49:02 17 C 13.02 g/m*3 17 C 0 km/h
2948 12-09-2008 09:54:02 17.3 C 13.41 g/m*3 17.3 C 0 km/h
2949 12-09-2008 09:59:02 17.5 C 13.57 g/m*3 17.5 C 0 km/h
2950 12-09-2008 10:04:01 17.5 C 13.57 g/m*3 17.5 C 0 km/h
Sensor: Nr:Datum:Temp:Abs-Feuchte:Windchill:Wind:
Aussen-T/F 2951 12-09-2008 10:09:01 17.3 C 13.26 g/m*3 17.3 C 0 km/h
2952 12-09-2008 10:14:01 17.3 C 13.26 g/m*3 17.3 C 0 km/h
2953 12-09-2008 10:19:02 17.4 C 13.34 g/m*3 17.4 C 0 km/h
2954 12-09-2008 10:24:02 17.7 C 13.73 g/m*3 17.7 C 0 km/h
2955 12-09-2008 10:29:02 17.6 C 13.65 g/m*3 17.6 C 0 km/h
2956 12-09-2008 10:34:01 17.5 C 13.57 g/m*3 17.5 C 0 km/h
2957 12-09-2008 10:39:01 17.6 C 13.65 g/m*3 17.6 C 0 km/h
2958 12-09-2008 10:44:01 17.6 C 13.65 g/m*3 17.6 C 0 km/h
2959 12-09-2008 10:49:01 17.6 C 13.65 g/m*3 17.6 C 0 km/h
2960 12-09-2008 10:54:01 17.7 C 13.73 g/m*3 17.7 C 0 km/h
2961 12-09-2008 10:59:01 17.7 C 13.73 g/m*3 17.7 C 0 km/h
2962 12-09-2008 11:04:02 17.7 C 13.73 g/m*3 17.7 C 0 km/h
2963 12-09-2008 11:09:02 17.6 C 13.65 g/m*3 17.6 C 0 km/h
2964 12-09-2008 11:14:02 17.5 C 13.57 g/m*3 17.5 C 0 km/h
2965 12-09-2008 11:19:01 17.6 C 13.65 g/m*3 17.6 C 0 km/h
2966 12-09-2008 11:24:01 17.6 C 13.65 g/m*3 17.6 C 0 km/h
2967 12-09-2008 11:29:01 17.7 C 13.73 g/m*3 17.7 C 0 km/h
2968 12-09-2008 11:34:02 17.6 C 13.65 g/m*3 17.6 C 0 km/h
2969 12-09-2008 11:39:02 17.6 C 13.8 g/m*3 17.6 C 0 km/h
2970 12-09-2008 11:44:02 17.7 C 13.88 g/m*3 17.7 C 0 km/h
2971 12-09-2008 11:49:02 17.7 C 13.88 g/m*3 17.7 C 0 km/h
2972 12-09-2008 11:54:02 17.7 C 13.88 g/m*3 17.7 C 0 km/h
2973 12-09-2008 11:59:02 17.7 C 13.88 g/m*3 17.7 C 0 km/h
2974 12-09-2008 12:04:02 17.7 C 13.88 g/m*3 17.7 C 0 km/h
2975 12-09-2008 12:09:02 17.9 C 14.05 g/m*3 17.9 C 0 km/h
Sensor: Nr:Datum:Temp:Abs-Feuchte:Windchill:Wind:
Aussen-T/F 2976 12-09-2008 12:14:02 17.9 C 14.05 g/m*3 17.9 C 0 km/h
2977 12-09-2008 12:19:02 17.7 C 13.88 g/m*3 17.7 C 0 km/h
2978 12-09-2008 12:24:02 17.7 C 13.88 g/m*3 17.7 C 0 km/h
2979 12-09-2008 12:29:02 17.7 C 13.88 g/m*3 17.7 C 0 km/h
2980 12-09-2008 12:34:02 17.8 C 13.96 g/m*3 17.8 C 0 km/h
2981 12-09-2008 12:39:02 17.9 C 14.05 g/m*3 17.9 C 0 km/h
2982 12-09-2008 12:44:02 17.9 C 14.05 g/m*3 17.9 C 0 km/h
2983 12-09-2008 12:49:02 18 C 13.98 g/m*3 18 C 0 km/h
2984 12-09-2008 12:54:02 18 C 13.98 g/m*3 18 C 0 km/h
2985 12-09-2008 12:59:02 18 C 13.98 g/m*3 18 C 0 km/h
2986 12-09-2008 13:04:02 17.9 C 14.05 g/m*3 17.9 C 0 km/h
2987 12-09-2008 13:09:02 18 C 13.98 g/m*3 18 C 0 km/h
2988 12-09-2008 13:14:02 18.1 C 14.06 g/m*3 18.1 C 0 km/h
2989 12-09-2008 13:19:02 18.1 C 14.06 g/m*3 18.1 C 0 km/h
2990 12-09-2008 13:24:02 18.1 C 14.06 g/m*3 18.1 C 0 km/h
2991 12-09-2008 13:29:02 18 C 13.98 g/m*3 18 C 0 km/h
2992 12-09-2008 13:34:02 17.9 C 14.05 g/m*3 17.9 C 0 km/h
2993 12-09-2008 13:39:02 17.9 C 14.05 g/m*3 17.9 C 0 km/h
2994 12-09-2008 13:44:02 17.9 C 14.05 g/m*3 17.9 C 0 km/h
2995 12-09-2008 13:49:02 18 C 13.98 g/m*3 18 C 0 km/h
2996 12-09-2008 13:54:02 18.1 C 14.21 g/m*3 18.1 C 0 km/h
2997 12-09-2008 13:59:02 18.2 C 14.3 g/m*3 18.2 C 0 km/h
2998 12-09-2008 14:04:02 18.1 C 14.21 g/m*3 18.1 C 0 km/h
2999 12-09-2008 14:09:02 18.2 C 14.3 g/m*3 18.2 C 0 km/h
3000 12-09-2008 14:14:02 18.2 C 14.3 g/m*3 18.2 C 0 km/h
Sensor: Nr:Datum:Temp:Abs-Feuchte:Windchill:Wind:
Aussen-T/F 3001 12-09-2008 14:19:02 18.1 C 14.21 g/m*3 18.1 C 0 km/h
3002 12-09-2008 14:24:02 17.9 C 14.2 g/m*3 17.9 C 0 km/h
3003 12-09-2008 14:29:02 17.4 C 13.63 g/m*3 17.4 C 0 km/h
3004 12-09-2008 14:34:02 17 C 13.17 g/m*3 17 C 0 km/h
3005 12-09-2008 14:39:03 17 C 13.17 g/m*3 17 C 0 km/h
3006 12-09-2008 14:44:03 16.8 C 13.15 g/m*3 16.8 C 0 km/h
3007 12-09-2008 14:49:02 16.7 C 13.07 g/m*3 16.7 C 0 km/h
3008 12-09-2008 14:54:02 16.7 C 13.07 g/m*3 16.7 C 0 km/h
3009 12-09-2008 14:59:02 16.6 C 13 g/m*3 16.6 C 0 km/h
3010 12-09-2008 15:04:03 16.4 C 12.84 g/m*3 16.4 C 0 km/h
3011 12-09-2008 15:09:03 16.2 C 12.69 g/m*3 16.2 C 0 km/h
3012 12-09-2008 15:14:03 16.1 C 12.61 g/m*3 16.1 C 0 km/h
3013 12-09-2008 15:19:02 15.8 C 12.38 g/m*3 15.8 C 0 km/h
3014 12-09-2008 15:24:03 15.7 C 12.31 g/m*3 15.7 C 0 km/h
3015 12-09-2008 15:29:03 15.7 C 12.31 g/m*3 15.7 C 0 km/h
3016 12-09-2008 15:34:02 15.7 C 12.31 g/m*3 15.7 C 0 km/h
3017 12-09-2008 15:39:02 15.8 C 12.52 g/m*3 15.8 C 0 km/h
3018 12-09-2008 15:44:02 15.8 C 12.52 g/m*3 15.8 C 0 km/h
3019 12-09-2008 15:49:03 15.8 C 12.52 g/m*3 15.8 C 0 km/h
3020 12-09-2008 15:54:03 15.9 C 12.59 g/m*3 15.9 C 0 km/h
3021 12-09-2008 15:59:03 15.8 C 12.52 g/m*3 15.8 C 0 km/h
3022 12-09-2008 16:04:02 15.8 C 12.52 g/m*3 15.8 C 0 km/h
3023 12-09-2008 16:09:02 15.8 C 12.52 g/m*3 15.8 C 0 km/h
3024 12-09-2008 16:14:02 15.7 C 12.44 g/m*3 15.7 C 0 km/h
3025 12-09-2008 16:19:02 15.8 C 12.52 g/m*3 15.8 C 0 km/h
Sensor: Nr:Datum:Temp:Abs-Feuchte:Windchill:Wind:
Aussen-T/F 3026 12-09-2008 16:24:02 15.8 C 12.52 g/m*3 15.8 C 0 km/h
3027 12-09-2008 16:29:02 15.8 C 12.52 g/m*3 15.8 C 0 km/h
3028 12-09-2008 16:34:02 15.8 C 12.52 g/m*3 15.8 C 0 km/h
3029 12-09-2008 16:39:03 15.8 C 12.65 g/m*3 15.8 C 0 km/h
3030 12-09-2008 16:44:03 15.8 C 12.65 g/m*3 15.8 C 0 km/h
3031 12-09-2008 16:49:01 15.9 C 12.73 g/m*3 15.9 C 0 km/h
3032 12-09-2008 16:54:01 15.8 C 12.65 g/m*3 15.8 C 0 km/h
3033 12-09-2008 16:59:01 15.6 C 12.5 g/m*3 15.6 C 0 km/h
3034 12-09-2008 17:04:02 15.6 C 12.5 g/m*3 15.6 C 0 km/h
3035 12-09-2008 17:09:02 15.7 C 12.58 g/m*3 15.7 C 0 km/h
3036 12-09-2008 17:14:02 15.7 C 12.58 g/m*3 15.7 C 0 km/h
3037 12-09-2008 17:19:01 15.7 C 12.58 g/m*3 15.7 C 0 km/h
3038 12-09-2008 17:24:01 15.7 C 12.58 g/m*3 15.7 C 0 km/h
3039 12-09-2008 17:29:01 15.7 C 12.58 g/m*3 15.7 C 0 km/h
3040 12-09-2008 17:34:01 15.8 C 12.65 g/m*3 15.8 C 0 km/h
3041 12-09-2008 17:39:01 15.7 C 12.58 g/m*3 15.7 C 0 km/h
3042 12-09-2008 17:44:01 15.7 C 12.58 g/m*3 15.7 C 0 km/h
3043 12-09-2008 17:49:03 15.5 C 12.43 g/m*3 15.5 C 0 km/h
3044 12-09-2008 17:54:03 15.5 C 12.43 g/m*3 15.5 C 0 km/h
3045 12-09-2008 17:59:03 15.5 C 12.43 g/m*3 15.5 C 0 km/h
3046 12-09-2008 18:04:02 15.6 C 12.5 g/m*3 15.6 C 0 km/h
3047 12-09-2008 18:09:02 15.6 C 12.5 g/m*3 15.6 C 0 km/h
3048 12-09-2008 18:14:02 15.6 C 12.5 g/m*3 15.6 C 0 km/h
3049 12-09-2008 18:19:03 15.6 C 12.5 g/m*3 15.6 C 0 km/h
3050 12-09-2008 18:24:03 15.6 C 12.5 g/m*3 15.6 C 0 km/h
Sensor: Nr:Datum:Temp:Abs-Feuchte:Windchill:Wind:
Aussen-T/F 3051 12-09-2008 18:29:03 15.6 C 12.5 g/m*3 15.6 C 0 km/h
3052 12-09-2008 18:34:02 15.6 C 12.5 g/m*3 15.6 C 0 km/h
3053 12-09-2008 18:39:02 15.5 C 12.43 g/m*3 15.5 C 0 km/h
3054 12-09-2008 18:44:02 15.4 C 12.35 g/m*3 15.4 C 0 km/h
3055 12-09-2008 18:49:01 15.4 C 12.35 g/m*3 15.4 C 0 km/h
3056 12-09-2008 18:54:01 15.4 C 12.35 g/m*3 15.4 C 0 km/h
3057 12-09-2008 18:59:01 15.3 C 12.28 g/m*3 15.3 C 0 km/h
3058 12-09-2008 19:04:02 15.3 C 12.28 g/m*3 15.3 C 0 km/h
3059 12-09-2008 19:09:02 15.2 C 12.2 g/m*3 15.2 C 0 km/h
3060 12-09-2008 19:14:02 15.2 C 12.2 g/m*3 15.2 C 0 km/h
3061 12-09-2008 19:19:01 15.2 C 12.2 g/m*3 15.2 C 0 km/h
3062 12-09-2008 19:24:01 15.2 C 12.2 g/m*3 15.2 C 0 km/h
3063 12-09-2008 19:29:01 15.2 C 12.2 g/m*3 15.2 C 0 km/h
3064 12-09-2008 19:34:02 15.2 C 12.2 g/m*3 15.2 C 0 km/h
3065 12-09-2008 19:39:02 15.1 C 12.13 g/m*3 15.1 C 0 km/h
3066 12-09-2008 19:44:02 15 C 12.05 g/m*3 15 C 0 km/h
3067 12-09-2008 19:49:03 14.9 C 12.11 g/m*3 14.9 C 0 km/h
3068 12-09-2008 19:54:03 14.9 C 12.11 g/m*3 14.9 C 0 km/h
3069 12-09-2008 19:59:03 14.9 C 12.11 g/m*3 14.9 C 0 km/h
3070 12-09-2008 20:04:02 15 C 12.05 g/m*3 15 C 0 km/h
3071 12-09-2008 20:09:02 14.8 C 12.03 g/m*3 14.8 C 0 km/h
3072 12-09-2008 20:14:02 14.8 C 12.03 g/m*3 14.8 C 0 km/h
3073 12-09-2008 20:19:03 15 C 12.05 g/m*3 15 C 0 km/h
3074 12-09-2008 20:24:03 15 C 12.05 g/m*3 15 C 0 km/h
3075 12-09-2008 20:29:03 15 C 12.05 g/m*3 15 C 0 km/h
Sensor: Nr:Datum:Temp:Abs-Feuchte:Windchill:Wind:
Aussen-T/F 3076 12-09-2008 20:34:02 14.8 C 11.91 g/m*3 14.8 C 0 km/h
3077 12-09-2008 20:39:02 14.8 C 11.91 g/m*3 14.8 C 0 km/h
3078 12-09-2008 20:44:02 14.8 C 11.91 g/m*3 14.8 C 0 km/h
3079 12-09-2008 20:49:01 14.8 C 11.91 g/m*3 14.8 C 0 km/h
3080 12-09-2008 20:54:01 14.8 C 11.91 g/m*3 14.8 C 0 km/h
3081 12-09-2008 20:59:01 14.7 C 11.83 g/m*3 14.7 C 0 km/h
3082 12-09-2008 21:04:02 14.6 C 11.64 g/m*3 14.6 C 0 km/h
3083 12-09-2008 21:09:02 14.7 C 11.71 g/m*3 14.7 C 0 km/h
3084 12-09-2008 21:14:02 14.6 C 11.64 g/m*3 14.6 C 0 km/h
3085 12-09-2008 21:19:01 14.6 C 11.64 g/m*3 14.6 C 0 km/h
3086 12-09-2008 21:24:01 14.6 C 11.64 g/m*3 14.6 C 0 km/h
3087 12-09-2008 21:29:01 14.6 C 11.64 g/m*3 14.6 C 0 km/h
3088 12-09-2008 21:34:02 14.6 C 11.64 g/m*3 14.6 C 0 km/h
3089 12-09-2008 21:39:02 14.5 C 11.57 g/m*3 14.5 C 0 km/h
3090 12-09-2008 21:44:02 14.5 C 11.57 g/m*3 14.5 C 0 km/h
3091 12-09-2008 21:49:02 14.5 C 11.57 g/m*3 14.5 C 0 km/h
3092 12-09-2008 21:54:02 14.5 C 11.57 g/m*3 14.5 C 0 km/h
3093 12-09-2008 21:59:02 14.4 C 11.5 g/m*3 14.4 C 0 km/h
3094 12-09-2008 22:04:02 14.4 C 11.5 g/m*3 14.4 C 0 km/h
3095 12-09-2008 22:09:02 14.4 C 11.5 g/m*3 14.4 C 0 km/h
3096 12-09-2008 22:14:02 14.4 C 11.5 g/m*3 14.4 C 0 km/h
3097 12-09-2008 22:19:02 14.4 C 11.5 g/m*3 14.4 C 0 km/h
3098 12-09-2008 22:24:02 14.4 C 11.5 g/m*3 14.4 C 0 km/h
3099 12-09-2008 22:29:02 14.4 C 11.5 g/m*3 14.4 C 0 km/h
3100 12-09-2008 22:34:02 14.4 C 11.5 g/m*3 14.4 C 0 km/h
Sensor: Nr:Datum:Temp:Abs-Feuchte:Windchill:Wind:
Aussen-T/F 3101 12-09-2008 22:39:02 14.3 C 11.3 g/m*3 14.3 C 0 km/h
3102 12-09-2008 22:44:02 14.3 C 11.43 g/m*3 14.3 C 0 km/h
3103 12-09-2008 22:49:02 14.2 C 11.23 g/m*3 14.2 C 0 km/h
3104 12-09-2008 22:54:02 14.2 C 11.23 g/m*3 14.2 C 0 km/h
3105 12-09-2008 22:59:02 14.2 C 11.23 g/m*3 14.2 C 0 km/h
3106 12-09-2008 23:04:02 14.2 C 11.23 g/m*3 14.2 C 0 km/h
3107 12-09-2008 23:09:02 14.2 C 11.23 g/m*3 14.2 C 0 km/h
3108 12-09-2008 23:14:02 14.2 C 11.23 g/m*3 14.2 C 0 km/h
3109 12-09-2008 23:19:02 14.2 C 11.23 g/m*3 14.2 C 0 km/h
3110 12-09-2008 23:24:02 14.2 C 11.23 g/m*3 14.2 C 0 km/h
3111 12-09-2008 23:29:02 14.2 C 11.23 g/m*3 14.2 C 0 km/h
3112 12-09-2008 23:34:02 14.2 C 11.23 g/m*3 14.2 C 0 km/h
3113 12-09-2008 23:39:02 14.1 C 11.17 g/m*3 14.1 C 0 km/h
3114 12-09-2008 23:44:02 14.1 C 11.17 g/m*3 14.1 C 0 km/h
3115 12-09-2008 23:49:02 14.2 C 11.23 g/m*3 14.2 C 0 km/h
3116 12-09-2008 23:54:02 14.2 C 11.23 g/m*3 14.2 C 0 km/h
3117 12-09-2008 23:59:03 14.2 C 11.23 g/m*3 14.2 C 0 km/h
3118 13-09-2008 00:04:01 14.1 C 11.04 g/m*3 14.1 C 0 km/h
3119 13-09-2008 00:09:01 14.1 C 11.04 g/m*3 14.1 C 0 km/h
3120 13-09-2008 00:14:01 14.1 C 11.04 g/m*3 14.1 C 0 km/h
3121 13-09-2008 00:19:02 14.2 C 11.11 g/m*3 14.2 C 0 km/h
3122 13-09-2008 00:24:02 14.1 C 11.04 g/m*3 14.1 C 0 km/h
3123 13-09-2008 00:29:02 14.1 C 11.04 g/m*3 14.1 C 0 km/h
3124 13-09-2008 00:34:02 14.1 C 11.04 g/m*3 14.1 C 0 km/h
3125 13-09-2008 00:39:02 14.1 C 11.04 g/m*3 14.1 C 0 km/h
Sensor: Nr:Datum:Temp:Abs-Feuchte:Windchill:Wind:
Aussen-T/F 3126 13-09-2008 00:44:02 14.1 C 11.04 g/m*3 14.1 C 0 km/h
3127 13-09-2008 00:49:02 14.1 C 11.04 g/m*3 14.1 C 0 km/h
3128 13-09-2008 00:54:02 14.1 C 11.04 g/m*3 14.1 C 0 km/h
3129 13-09-2008 00:59:02 14.1 C 11.04 g/m*3 14.1 C 0 km/h
3130 13-09-2008 01:04:01 14.1 C 11.04 g/m*3 14.1 C 0 km/h
3131 13-09-2008 01:09:01 14.1 C 11.04 g/m*3 14.1 C 0 km/h
3132 13-09-2008 01:14:01 14.1 C 11.04 g/m*3 14.1 C 0 km/h
3133 13-09-2008 01:19:02 14.1 C 11.04 g/m*3 14.1 C 0 km/h
3134 13-09-2008 01:24:02 14.1 C 11.04 g/m*3 14.1 C 0 km/h
3135 13-09-2008 01:29:02 14.2 C 11.11 g/m*3 14.2 C 0 km/h
3136 13-09-2008 01:34:01 14.2 C 11.11 g/m*3 14.2 C 0 km/h
3137 13-09-2008 01:39:01 14.2 C 11.11 g/m*3 14.2 C 0 km/h
3138 13-09-2008 01:44:01 14.1 C 11.04 g/m*3 14.1 C 0 km/h
3139 13-09-2008 01:49:01 14.1 C 11.04 g/m*3 14.1 C 0 km/h
3140 13-09-2008 01:54:01 14.1 C 10.92 g/m*3 14.1 C 0 km/h
3141 13-09-2008 01:59:01 14 C 10.86 g/m*3 14 C 0 km/h
3142 13-09-2008 02:04:02 13.9 C 10.91 g/m*3 13.9 C 0 km/h
3143 13-09-2008 02:09:02 13.9 C 10.91 g/m*3 13.9 C 0 km/h
3144 13-09-2008 02:14:02 13.9 C 10.91 g/m*3 13.9 C 0 km/h
3145 13-09-2008 02:19:01 13.8 C 10.84 g/m*3 13.8 C 0 km/h
3146 13-09-2008 02:24:01 13.9 C 10.91 g/m*3 13.9 C 0 km/h
3147 13-09-2008 02:29:01 13.9 C 11.03 g/m*3 13.9 C 0 km/h
3148 13-09-2008 02:34:02 13.8 C 10.96 g/m*3 13.8 C 0 km/h
3149 13-09-2008 02:39:02 13.8 C 10.96 g/m*3 13.8 C 0 km/h
3150 13-09-2008 02:44:02 13.8 C 10.96 g/m*3 13.8 C 0 km/h
Sensor: Nr:Datum:Temp:Abs-Feuchte:Windchill:Wind:
Aussen-T/F 3151 13-09-2008 02:50:04 13.7 C 11.01 g/m*3 13.7 C 0 km/h
3152 13-09-2008 02:55:05 13.7 C 11.01 g/m*3 13.7 C 0 km/h
3153 13-09-2008 03:00:05 13.7 C 11.01 g/m*3 13.7 C 0 km/h
3154 13-09-2008 03:05:05 13.7 C 11.01 g/m*3 13.7 C 0 km/h
3155 13-09-2008 03:10:03 13.7 C 11.01 g/m*3 13.7 C 0 km/h
3156 13-09-2008 03:15:03 13.7 C 11.01 g/m*3 13.7 C 0 km/h
3157 13-09-2008 03:20:03 13.7 C 11.13 g/m*3 13.7 C 0 km/h
3158 13-09-2008 03:25:03 13.7 C 11.13 g/m*3 13.7 C 0 km/h
3159 13-09-2008 03:30:03 13.7 C 11.13 g/m*3 13.7 C 0 km/h
3160 13-09-2008 03:35:01 13.7 C 11.13 g/m*3 13.7 C 0 km/h
3161 13-09-2008 03:40:01 13.7 C 11.13 g/m*3 13.7 C 0 km/h
3162 13-09-2008 03:45:01 13.7 C 11.13 g/m*3 13.7 C 0 km/h
3163 13-09-2008 03:50:01 13.7 C 11.13 g/m*3 13.7 C 0 km/h
3164 13-09-2008 03:55:01 13.6 C 11.06 g/m*3 13.6 C 0 km/h
3165 13-09-2008 04:00:01 13.7 C 11.13 g/m*3 13.7 C 0 km/h
3166 13-09-2008 04:05:02 13.6 C 11.06 g/m*3 13.6 C 0 km/h
3167 13-09-2008 04:10:02 13.7 C 11.13 g/m*3 13.7 C 0 km/h
3168 13-09-2008 04:15:02 13.7 C 11.13 g/m*3 13.7 C 0 km/h
3169 13-09-2008 04:20:02 13.7 C 11.13 g/m*3 13.7 C 0 km/h
3170 13-09-2008 04:25:02 13.8 C 11.2 g/m*3 13.8 C 0 km/h
3171 13-09-2008 04:30:02 13.8 C 11.2 g/m*3 13.8 C 0 km/h
3172 13-09-2008 04:35:02 13.9 C 11.27 g/m*3 13.9 C 0 km/h
3173 13-09-2008 04:40:02 13.9 C 11.27 g/m*3 13.9 C 0 km/h
3174 13-09-2008 04:45:02 13.9 C 11.27 g/m*3 13.9 C 0 km/h
3175 13-09-2008 04:50:02 14 C 11.34 g/m*3 14 C 0 km/h
Sensor: Nr:Datum:Temp:Abs-Feuchte:Windchill:Wind:
Aussen-T/F 3176 13-09-2008 04:55:02 13.9 C 11.27 g/m*3 13.9 C 0 km/h
3177 13-09-2008 05:00:02 13.9 C 11.27 g/m*3 13.9 C 0 km/h
3178 13-09-2008 05:05:01 13.9 C 11.27 g/m*3 13.9 C 0 km/h
3179 13-09-2008 05:10:01 13.8 C 11.2 g/m*3 13.8 C 0 km/h
3180 13-09-2008 05:15:02 13.8 C 11.2 g/m*3 13.8 C 0 km/h
3181 13-09-2008 05:20:02 13.9 C 11.27 g/m*3 13.9 C 0 km/h
3182 13-09-2008 05:25:02 13.7 C 11.13 g/m*3 13.7 C 0 km/h
3183 13-09-2008 05:30:02 13.7 C 11.13 g/m*3 13.7 C 0 km/h
3184 13-09-2008 05:35:01 13.6 C 11.06 g/m*3 13.6 C 0 km/h
3185 13-09-2008 05:40:01 13.6 C 11.06 g/m*3 13.6 C 0 km/h
3186 13-09-2008 05:45:02 13.6 C 10.95 g/m*3 13.6 C 0 km/h
3187 13-09-2008 05:50:02 13.6 C 10.95 g/m*3 13.6 C 0 km/h
3188 13-09-2008 05:55:02 13.6 C 10.95 g/m*3 13.6 C 0 km/h
3189 13-09-2008 06:00:02 13.6 C 10.95 g/m*3 13.6 C 0 km/h
3190 13-09-2008 06:05:01 13.5 C 10.88 g/m*3 13.5 C 0 km/h
3191 13-09-2008 06:10:01 13.5 C 10.88 g/m*3 13.5 C 0 km/h
3192 13-09-2008 06:15:01 13.5 C 10.88 g/m*3 13.5 C 0 km/h
3193 13-09-2008 06:20:01 13.5 C 10.88 g/m*3 13.5 C 0 km/h
3194 13-09-2008 06:25:01 13.6 C 10.95 g/m*3 13.6 C 0 km/h
3195 13-09-2008 06:30:01 13.5 C 10.88 g/m*3 13.5 C 0 km/h
3196 13-09-2008 06:35:01 13.5 C 10.99 g/m*3 13.5 C 0 km/h
3197 13-09-2008 06:40:02 13.6 C 11.06 g/m*3 13.6 C 0 km/h
3198 13-09-2008 06:45:02 13.5 C 10.99 g/m*3 13.5 C 0 km/h
3199 13-09-2008 06:50:02 13.6 C 11.06 g/m*3 13.6 C 0 km/h
3200 13-09-2008 06:55:02 13.5 C 10.99 g/m*3 13.5 C 0 km/h
Sensor: Nr:Datum:Temp:Abs-Feuchte:Windchill:Wind:
Aussen-T/F 3201 13-09-2008 07:00:02 13.6 C 11.06 g/m*3 13.6 C 0 km/h
3202 13-09-2008 07:05:01 13.5 C 10.99 g/m*3 13.5 C 0 km/h
3203 13-09-2008 07:10:01 13.5 C 10.99 g/m*3 13.5 C 0 km/h
3204 13-09-2008 07:15:02 13.5 C 10.99 g/m*3 13.5 C 0 km/h
3205 13-09-2008 07:20:02 13.5 C 11.11 g/m*3 13.5 C 0 km/h
3206 13-09-2008 07:25:02 13.5 C 11.11 g/m*3 13.5 C 0 km/h
3207 13-09-2008 07:30:03 13.5 C 11.11 g/m*3 13.5 C 0 km/h
3208 13-09-2008 07:35:01 13.6 C 11.18 g/m*3 13.6 C 0 km/h
3209 13-09-2008 07:40:01 13.6 C 11.18 g/m*3 13.6 C 0 km/h
3210 13-09-2008 07:45:02 13.6 C 11.18 g/m*3 13.6 C 0 km/h
3211 13-09-2008 07:50:02 13.7 C 11.25 g/m*3 13.7 C 0 km/h
3212 13-09-2008 07:55:02 13.7 C 11.25 g/m*3 13.7 C 0 km/h
3213 13-09-2008 08:00:02 13.7 C 11.25 g/m*3 13.7 C 0 km/h
3214 13-09-2008 08:05:01 13.7 C 11.25 g/m*3 13.7 C 0 km/h
3215 13-09-2008 08:10:01 13.7 C 11.25 g/m*3 13.7 C 0 km/h
3216 13-09-2008 08:15:01 13.7 C 11.25 g/m*3 13.7 C 0 km/h
3217 13-09-2008 08:20:01 13.8 C 11.32 g/m*3 13.8 C 0 km/h
3218 13-09-2008 08:25:01 13.8 C 11.32 g/m*3 13.8 C 0 km/h
3219 13-09-2008 08:30:01 13.7 C 11.25 g/m*3 13.7 C 0 km/h
3220 13-09-2008 08:35:01 13.6 C 11.18 g/m*3 13.6 C 0 km/h
3221 13-09-2008 08:40:01 13.5 C 11.11 g/m*3 13.5 C 0 km/h
3222 13-09-2008 08:45:01